<?xml version="1.0" encoding="UTF-8" standalone="no" ?>
<gpx xmlns="http://www.topografix.com/GPX/1/1" xmlns:xsi="http://www.w3.org/2001/XMLSchema-instance" xsi:schemaLocation="http://www.topografix.com/GPX/1/1 http://www.topografix.com/GPX/1/1/gpx.xsd" version="1.1" creator="VisuGPX - https://www.visugpx.com">
  <metadata>
    <name>Parnans</name>
    <desc><![CDATA[2011-01-22-Parnans 54Km Asc296 2h19.gpx]]></desc>
  </metadata>
  <trk>
    <name><![CDATA[Parnans]]></name>
    <trkseg>
      <trkpt lat="45.11579" lon="4.96424">
        <ele>202.00100708008</ele>
        <time>2011-01-22T12:21:38Z</time>
      </trkpt>
      <trkpt lat="45.11565" lon="4.96433">
        <ele>201.68699645996</ele>
        <time>2011-01-22T12:23:07Z</time>
      </trkpt>
      <trkpt lat="45.11562" lon="4.96444">
        <ele>200.96099853516</ele>
        <time>2011-01-22T12:23:11Z</time>
      </trkpt>
      <trkpt lat="45.11565" lon="4.96451">
        <ele>200.69900512695</ele>
        <time>2011-01-22T12:23:13Z</time>
      </trkpt>
      <trkpt lat="45.11571" lon="4.96455">
        <ele>200.84399414062</ele>
        <time>2011-01-22T12:23:15Z</time>
      </trkpt>
      <trkpt lat="45.11577" lon="4.96451">
        <ele>201.44900512695</ele>
        <time>2011-01-22T12:23:19Z</time>
      </trkpt>
      <trkpt lat="45.11579" lon="4.96452">
        <ele>201.29200744629</ele>
        <time>2011-01-22T12:23:22Z</time>
      </trkpt>
      <trkpt lat="45.11582" lon="4.96463">
        <ele>201.12399291992</ele>
        <time>2011-01-22T12:23:27Z</time>
      </trkpt>
      <trkpt lat="45.11583" lon="4.96486">
        <ele>200.64999389648</ele>
        <time>2011-01-22T12:23:32Z</time>
      </trkpt>
      <trkpt lat="45.11583" lon="4.96505">
        <ele>200.16799926758</ele>
        <time>2011-01-22T12:23:37Z</time>
      </trkpt>
      <trkpt lat="45.11594" lon="4.96542">
        <ele>200.08399963379</ele>
        <time>2011-01-22T12:23:43Z</time>
      </trkpt>
      <trkpt lat="45.11614" lon="4.96595">
        <ele>200.07899475098</ele>
        <time>2011-01-22T12:23:51Z</time>
      </trkpt>
      <trkpt lat="45.11642" lon="4.96667">
        <ele>200.26499938965</ele>
        <time>2011-01-22T12:24:02Z</time>
      </trkpt>
      <trkpt lat="45.11671" lon="4.96736">
        <ele>200.94000244141</ele>
        <time>2011-01-22T12:24:13Z</time>
      </trkpt>
      <trkpt lat="45.11703" lon="4.96793">
        <ele>201.51699829102</ele>
        <time>2011-01-22T12:24:23Z</time>
      </trkpt>
      <trkpt lat="45.11726" lon="4.9683">
        <ele>201.75900268555</ele>
        <time>2011-01-22T12:24:30Z</time>
      </trkpt>
      <trkpt lat="45.11737" lon="4.96864">
        <ele>201.7140045166</ele>
        <time>2011-01-22T12:24:35Z</time>
      </trkpt>
      <trkpt lat="45.11749" lon="4.96879">
        <ele>201.68600463867</ele>
        <time>2011-01-22T12:24:38Z</time>
      </trkpt>
      <trkpt lat="45.11769" lon="4.969">
        <ele>201.99600219727</ele>
        <time>2011-01-22T12:24:43Z</time>
      </trkpt>
      <trkpt lat="45.1178" lon="4.96916">
        <ele>202.06799316406</ele>
        <time>2011-01-22T12:24:46Z</time>
      </trkpt>
      <trkpt lat="45.11783" lon="4.96922">
        <ele>202.09599304199</ele>
        <time>2011-01-22T12:24:47Z</time>
      </trkpt>
      <trkpt lat="45.11794" lon="4.9694">
        <ele>202.05400085449</ele>
        <time>2011-01-22T12:24:50Z</time>
      </trkpt>
      <trkpt lat="45.11827" lon="4.9699">
        <ele>202.2619934082</ele>
        <time>2011-01-22T12:24:59Z</time>
      </trkpt>
      <trkpt lat="45.11849" lon="4.9702">
        <ele>202.57600402832</ele>
        <time>2011-01-22T12:25:05Z</time>
      </trkpt>
      <trkpt lat="45.11853" lon="4.97026">
        <ele>202.51800537109</ele>
        <time>2011-01-22T12:25:06Z</time>
      </trkpt>
      <trkpt lat="45.11874" lon="4.97053">
        <ele>203.05799865723</ele>
        <time>2011-01-22T12:25:11Z</time>
      </trkpt>
      <trkpt lat="45.11879" lon="4.97083">
        <ele>202.3809967041</ele>
        <time>2011-01-22T12:25:15Z</time>
      </trkpt>
      <trkpt lat="45.11879" lon="4.97092">
        <ele>202.12399291992</ele>
        <time>2011-01-22T12:25:16Z</time>
      </trkpt>
      <trkpt lat="45.11874" lon="4.97127">
        <ele>201.64999389648</ele>
        <time>2011-01-22T12:25:20Z</time>
      </trkpt>
      <trkpt lat="45.11875" lon="4.97166">
        <ele>201.18699645996</ele>
        <time>2011-01-22T12:25:24Z</time>
      </trkpt>
      <trkpt lat="45.11884" lon="4.97224">
        <ele>200.52499389648</ele>
        <time>2011-01-22T12:25:30Z</time>
      </trkpt>
      <trkpt lat="45.11888" lon="4.97244">
        <ele>200.42799377441</ele>
        <time>2011-01-22T12:25:32Z</time>
      </trkpt>
      <trkpt lat="45.11901" lon="4.97324">
        <ele>200.02400207519</ele>
        <time>2011-01-22T12:25:40Z</time>
      </trkpt>
      <trkpt lat="45.11914" lon="4.97397">
        <ele>199.82699584961</ele>
        <time>2011-01-22T12:25:48Z</time>
      </trkpt>
      <trkpt lat="45.11926" lon="4.97464">
        <ele>200.1190032959</ele>
        <time>2011-01-22T12:25:56Z</time>
      </trkpt>
      <trkpt lat="45.11929" lon="4.97481">
        <ele>200.30799865723</ele>
        <time>2011-01-22T12:25:58Z</time>
      </trkpt>
      <trkpt lat="45.11932" lon="4.97498">
        <ele>200.53900146484</ele>
        <time>2011-01-22T12:26:00Z</time>
      </trkpt>
      <trkpt lat="45.11936" lon="4.97523">
        <ele>201.07200622559</ele>
        <time>2011-01-22T12:26:03Z</time>
      </trkpt>
      <trkpt lat="45.11937" lon="4.97532">
        <ele>201.38499450684</ele>
        <time>2011-01-22T12:26:04Z</time>
      </trkpt>
      <trkpt lat="45.11945" lon="4.97581">
        <ele>202.30099487305</ele>
        <time>2011-01-22T12:26:10Z</time>
      </trkpt>
      <trkpt lat="45.1195" lon="4.97613">
        <ele>202.23599243164</ele>
        <time>2011-01-22T12:26:14Z</time>
      </trkpt>
      <trkpt lat="45.11954" lon="4.97629">
        <ele>202.27600097656</ele>
        <time>2011-01-22T12:26:16Z</time>
      </trkpt>
      <trkpt lat="45.11964" lon="4.97687">
        <ele>202.24600219727</ele>
        <time>2011-01-22T12:26:23Z</time>
      </trkpt>
      <trkpt lat="45.11967" lon="4.97705">
        <ele>202.2200012207</ele>
        <time>2011-01-22T12:26:25Z</time>
      </trkpt>
      <trkpt lat="45.11969" lon="4.97714">
        <ele>202.21099853516</ele>
        <time>2011-01-22T12:26:26Z</time>
      </trkpt>
      <trkpt lat="45.11985" lon="4.97809">
        <ele>202.56599426269</ele>
        <time>2011-01-22T12:26:37Z</time>
      </trkpt>
      <trkpt lat="45.11999" lon="4.97888">
        <ele>203.51300048828</ele>
        <time>2011-01-22T12:26:46Z</time>
      </trkpt>
      <trkpt lat="45.12006" lon="4.97926">
        <ele>203.73199462891</ele>
        <time>2011-01-22T12:26:51Z</time>
      </trkpt>
      <trkpt lat="45.11998" lon="4.97938">
        <ele>203.77499389648</ele>
        <time>2011-01-22T12:26:54Z</time>
      </trkpt>
      <trkpt lat="45.11993" lon="4.97936">
        <ele>203.61500549316</ele>
        <time>2011-01-22T12:26:55Z</time>
      </trkpt>
      <trkpt lat="45.11937" lon="4.97923">
        <ele>203.11199951172</ele>
        <time>2011-01-22T12:27:04Z</time>
      </trkpt>
      <trkpt lat="45.11902" lon="4.97918">
        <ele>202.9940032959</ele>
        <time>2011-01-22T12:27:10Z</time>
      </trkpt>
      <trkpt lat="45.11894" lon="4.97906">
        <ele>202.72799682617</ele>
        <time>2011-01-22T12:27:14Z</time>
      </trkpt>
      <trkpt lat="45.11892" lon="4.97896">
        <ele>202.56199645996</ele>
        <time>2011-01-22T12:27:17Z</time>
      </trkpt>
      <trkpt lat="45.1189" lon="4.97893">
        <ele>202.30099487305</ele>
        <time>2011-01-22T12:27:21Z</time>
      </trkpt>
      <trkpt lat="45.11894" lon="4.97899">
        <ele>202.31799316406</ele>
        <time>2011-01-22T12:28:16Z</time>
      </trkpt>
      <trkpt lat="45.11896" lon="4.97906">
        <ele>202.37800598144</ele>
        <time>2011-01-22T12:28:19Z</time>
      </trkpt>
      <trkpt lat="45.1189" lon="4.97918">
        <ele>202.32899475098</ele>
        <time>2011-01-22T12:28:23Z</time>
      </trkpt>
      <trkpt lat="45.11873" lon="4.97919">
        <ele>202.53300476074</ele>
        <time>2011-01-22T12:28:26Z</time>
      </trkpt>
      <trkpt lat="45.11854" lon="4.97918">
        <ele>202.55700683594</ele>
        <time>2011-01-22T12:28:29Z</time>
      </trkpt>
      <trkpt lat="45.11842" lon="4.97915">
        <ele>202.43099975586</ele>
        <time>2011-01-22T12:28:31Z</time>
      </trkpt>
      <trkpt lat="45.11825" lon="4.97921">
        <ele>202.44099426269</ele>
        <time>2011-01-22T12:28:35Z</time>
      </trkpt>
      <trkpt lat="45.11831" lon="4.97939">
        <ele>202.68400573731</ele>
        <time>2011-01-22T12:28:38Z</time>
      </trkpt>
      <trkpt lat="45.11839" lon="4.97953">
        <ele>202.86000061035</ele>
        <time>2011-01-22T12:28:40Z</time>
      </trkpt>
      <trkpt lat="45.11874" lon="4.98029">
        <ele>203.39900207519</ele>
        <time>2011-01-22T12:28:50Z</time>
      </trkpt>
      <trkpt lat="45.11885" lon="4.98059">
        <ele>203.21899414062</ele>
        <time>2011-01-22T12:28:54Z</time>
      </trkpt>
      <trkpt lat="45.11897" lon="4.98088">
        <ele>204.77799987793</ele>
        <time>2011-01-22T12:28:58Z</time>
      </trkpt>
      <trkpt lat="45.11906" lon="4.98134">
        <ele>205.00100708008</ele>
        <time>2011-01-22T12:29:04Z</time>
      </trkpt>
      <trkpt lat="45.11912" lon="4.9819">
        <ele>205.1309967041</ele>
        <time>2011-01-22T12:29:11Z</time>
      </trkpt>
      <trkpt lat="45.11915" lon="4.98231">
        <ele>205.71699523926</ele>
        <time>2011-01-22T12:29:16Z</time>
      </trkpt>
      <trkpt lat="45.11917" lon="4.98264">
        <ele>206.30000305176</ele>
        <time>2011-01-22T12:29:20Z</time>
      </trkpt>
      <trkpt lat="45.11924" lon="4.98285">
        <ele>205.89999389648</ele>
        <time>2011-01-22T12:29:23Z</time>
      </trkpt>
      <trkpt lat="45.11932" lon="4.98326">
        <ele>205.41299438477</ele>
        <time>2011-01-22T12:29:28Z</time>
      </trkpt>
      <trkpt lat="45.11938" lon="4.98352">
        <ele>205.80099487305</ele>
        <time>2011-01-22T12:29:31Z</time>
      </trkpt>
      <trkpt lat="45.11956" lon="4.98378">
        <ele>206.08799743652</ele>
        <time>2011-01-22T12:29:35Z</time>
      </trkpt>
      <trkpt lat="45.11967" lon="4.98387">
        <ele>206.12399291992</ele>
        <time>2011-01-22T12:29:37Z</time>
      </trkpt>
      <trkpt lat="45.11974" lon="4.98406">
        <ele>205.98500061035</ele>
        <time>2011-01-22T12:29:40Z</time>
      </trkpt>
      <trkpt lat="45.11966" lon="4.98413">
        <ele>205.97700500488</ele>
        <time>2011-01-22T12:29:42Z</time>
      </trkpt>
      <trkpt lat="45.11962" lon="4.98417">
        <ele>206.08000183106</ele>
        <time>2011-01-22T12:29:43Z</time>
      </trkpt>
      <trkpt lat="45.11959" lon="4.98426">
        <ele>205.99800109863</ele>
        <time>2011-01-22T12:29:45Z</time>
      </trkpt>
      <trkpt lat="45.11964" lon="4.98428">
        <ele>206.44599914551</ele>
        <time>2011-01-22T12:29:48Z</time>
      </trkpt>
      <trkpt lat="45.11964" lon="4.98428">
        <ele>206.15199279785</ele>
        <time>2011-01-22T12:29:49Z</time>
      </trkpt>
      <trkpt lat="45.11967" lon="4.98418">
        <ele>205.54800415039</ele>
        <time>2011-01-22T12:32:38Z</time>
      </trkpt>
      <trkpt lat="45.11967" lon="4.98415">
        <ele>205.70899963379</ele>
        <time>2011-01-22T12:32:40Z</time>
      </trkpt>
      <trkpt lat="45.11969" lon="4.9841">
        <ele>205.76300048828</ele>
        <time>2011-01-22T12:32:43Z</time>
      </trkpt>
      <trkpt lat="45.11971" lon="4.98407">
        <ele>205.78700256348</ele>
        <time>2011-01-22T12:32:45Z</time>
      </trkpt>
      <trkpt lat="45.11974" lon="4.98399">
        <ele>205.97799682617</ele>
        <time>2011-01-22T12:32:48Z</time>
      </trkpt>
      <trkpt lat="45.11983" lon="4.98388">
        <ele>205.88800048828</ele>
        <time>2011-01-22T12:32:53Z</time>
      </trkpt>
      <trkpt lat="45.11996" lon="4.98391">
        <ele>206.0059967041</ele>
        <time>2011-01-22T12:32:57Z</time>
      </trkpt>
      <trkpt lat="45.12017" lon="4.98401">
        <ele>206.59399414062</ele>
        <time>2011-01-22T12:33:04Z</time>
      </trkpt>
      <trkpt lat="45.12028" lon="4.98416">
        <ele>207.25799560547</ele>
        <time>2011-01-22T12:33:09Z</time>
      </trkpt>
      <trkpt lat="45.12025" lon="4.98441">
        <ele>207.39999389648</ele>
        <time>2011-01-22T12:33:14Z</time>
      </trkpt>
      <trkpt lat="45.12019" lon="4.98478">
        <ele>207.38499450684</ele>
        <time>2011-01-22T12:33:20Z</time>
      </trkpt>
      <trkpt lat="45.12017" lon="4.98491">
        <ele>207.40400695801</ele>
        <time>2011-01-22T12:33:22Z</time>
      </trkpt>
      <trkpt lat="45.12015" lon="4.98559">
        <ele>207.28399658203</ele>
        <time>2011-01-22T12:33:32Z</time>
      </trkpt>
      <trkpt lat="45.12017" lon="4.98623">
        <ele>207.36099243164</ele>
        <time>2011-01-22T12:33:41Z</time>
      </trkpt>
      <trkpt lat="45.12024" lon="4.9868">
        <ele>207.12699890137</ele>
        <time>2011-01-22T12:33:49Z</time>
      </trkpt>
      <trkpt lat="45.12036" lon="4.98745">
        <ele>207.07600402832</ele>
        <time>2011-01-22T12:33:58Z</time>
      </trkpt>
      <trkpt lat="45.12057" lon="4.98817">
        <ele>207.99000549316</ele>
        <time>2011-01-22T12:34:08Z</time>
      </trkpt>
      <trkpt lat="45.12078" lon="4.98868">
        <ele>208.50799560547</ele>
        <time>2011-01-22T12:34:16Z</time>
      </trkpt>
      <trkpt lat="45.12106" lon="4.98922">
        <ele>208.75399780273</ele>
        <time>2011-01-22T12:34:25Z</time>
      </trkpt>
      <trkpt lat="45.12141" lon="4.98978">
        <ele>210.05999755859</ele>
        <time>2011-01-22T12:34:35Z</time>
      </trkpt>
      <trkpt lat="45.12175" lon="4.99017">
        <ele>212.17399597168</ele>
        <time>2011-01-22T12:34:44Z</time>
      </trkpt>
      <trkpt lat="45.12197" lon="4.99042">
        <ele>213.93899536133</ele>
        <time>2011-01-22T12:34:50Z</time>
      </trkpt>
      <trkpt lat="45.12201" lon="4.99046">
        <ele>214.04800415039</ele>
        <time>2011-01-22T12:34:51Z</time>
      </trkpt>
      <trkpt lat="45.12213" lon="4.99074">
        <ele>214.50399780273</ele>
        <time>2011-01-22T12:34:56Z</time>
      </trkpt>
      <trkpt lat="45.12211" lon="4.99102">
        <ele>214.35699462891</ele>
        <time>2011-01-22T12:35:00Z</time>
      </trkpt>
      <trkpt lat="45.1219" lon="4.99181">
        <ele>212.95100402832</ele>
        <time>2011-01-22T12:35:10Z</time>
      </trkpt>
      <trkpt lat="45.12177" lon="4.99231">
        <ele>212.41799926758</ele>
        <time>2011-01-22T12:35:16Z</time>
      </trkpt>
      <trkpt lat="45.12173" lon="4.99248">
        <ele>212.3630065918</ele>
        <time>2011-01-22T12:35:18Z</time>
      </trkpt>
      <trkpt lat="45.1217" lon="4.99256">
        <ele>212.32800292969</ele>
        <time>2011-01-22T12:35:19Z</time>
      </trkpt>
      <trkpt lat="45.12143" lon="4.99358">
        <ele>212.01699829102</ele>
        <time>2011-01-22T12:35:31Z</time>
      </trkpt>
      <trkpt lat="45.12123" lon="4.99425">
        <ele>211.7380065918</ele>
        <time>2011-01-22T12:35:39Z</time>
      </trkpt>
      <trkpt lat="45.12103" lon="4.99472">
        <ele>212.18699645996</ele>
        <time>2011-01-22T12:35:45Z</time>
      </trkpt>
      <trkpt lat="45.12069" lon="4.99533">
        <ele>213.60699462891</ele>
        <time>2011-01-22T12:35:54Z</time>
      </trkpt>
      <trkpt lat="45.12058" lon="4.99552">
        <ele>214.01600646973</ele>
        <time>2011-01-22T12:35:57Z</time>
      </trkpt>
      <trkpt lat="45.1205" lon="4.99566">
        <ele>214.25199890137</ele>
        <time>2011-01-22T12:35:59Z</time>
      </trkpt>
      <trkpt lat="45.12015" lon="4.99629">
        <ele>214.16999816894</ele>
        <time>2011-01-22T12:36:08Z</time>
      </trkpt>
      <trkpt lat="45.11979" lon="4.99695">
        <ele>213.77799987793</ele>
        <time>2011-01-22T12:36:17Z</time>
      </trkpt>
      <trkpt lat="45.1193" lon="4.99776">
        <ele>214.22399902344</ele>
        <time>2011-01-22T12:36:28Z</time>
      </trkpt>
      <trkpt lat="45.11895" lon="4.99816">
        <ele>215.31100463867</ele>
        <time>2011-01-22T12:36:35Z</time>
      </trkpt>
      <trkpt lat="45.1186" lon="4.99845">
        <ele>217.84399414062</ele>
        <time>2011-01-22T12:36:42Z</time>
      </trkpt>
      <trkpt lat="45.11835" lon="4.99858">
        <ele>219.76300048828</ele>
        <time>2011-01-22T12:36:47Z</time>
      </trkpt>
      <trkpt lat="45.11783" lon="4.99879">
        <ele>223.01300048828</ele>
        <time>2011-01-22T12:36:58Z</time>
      </trkpt>
      <trkpt lat="45.11751" lon="4.99891">
        <ele>225.39599609375</ele>
        <time>2011-01-22T12:37:05Z</time>
      </trkpt>
      <trkpt lat="45.11707" lon="4.99908">
        <ele>228.60600280762</ele>
        <time>2011-01-22T12:37:15Z</time>
      </trkpt>
      <trkpt lat="45.11682" lon="4.99921">
        <ele>230.45599365234</ele>
        <time>2011-01-22T12:37:21Z</time>
      </trkpt>
      <trkpt lat="45.11674" lon="4.99926">
        <ele>230.91400146484</ele>
        <time>2011-01-22T12:37:23Z</time>
      </trkpt>
      <trkpt lat="45.11671" lon="4.99928">
        <ele>231.32200622559</ele>
        <time>2011-01-22T12:37:24Z</time>
      </trkpt>
      <trkpt lat="45.11639" lon="4.99959">
        <ele>233.76499938965</ele>
        <time>2011-01-22T12:37:33Z</time>
      </trkpt>
      <trkpt lat="45.11608" lon="4.99999">
        <ele>235.93600463867</ele>
        <time>2011-01-22T12:37:42Z</time>
      </trkpt>
      <trkpt lat="45.11572" lon="5.00049">
        <ele>237.37199401856</ele>
        <time>2011-01-22T12:37:52Z</time>
      </trkpt>
      <trkpt lat="45.1153" lon="5.00096">
        <ele>237.56700134277</ele>
        <time>2011-01-22T12:38:02Z</time>
      </trkpt>
      <trkpt lat="45.1147" lon="5.00153">
        <ele>238.27900695801</ele>
        <time>2011-01-22T12:38:14Z</time>
      </trkpt>
      <trkpt lat="45.11412" lon="5.00207">
        <ele>238.36199951172</ele>
        <time>2011-01-22T12:38:25Z</time>
      </trkpt>
      <trkpt lat="45.11346" lon="5.00267">
        <ele>238.78300476074</ele>
        <time>2011-01-22T12:38:37Z</time>
      </trkpt>
      <trkpt lat="45.1129" lon="5.00311">
        <ele>239.79100036621</ele>
        <time>2011-01-22T12:38:47Z</time>
      </trkpt>
      <trkpt lat="45.11252" lon="5.00333">
        <ele>241.06799316406</ele>
        <time>2011-01-22T12:38:54Z</time>
      </trkpt>
      <trkpt lat="45.112" lon="5.00358">
        <ele>243.34899902344</ele>
        <time>2011-01-22T12:39:04Z</time>
      </trkpt>
      <trkpt lat="45.11162" lon="5.00379">
        <ele>245.33500671387</ele>
        <time>2011-01-22T12:39:12Z</time>
      </trkpt>
      <trkpt lat="45.11119" lon="5.00402">
        <ele>247.48899841309</ele>
        <time>2011-01-22T12:39:21Z</time>
      </trkpt>
      <trkpt lat="45.11077" lon="5.00427">
        <ele>250.40699768066</ele>
        <time>2011-01-22T12:39:30Z</time>
      </trkpt>
      <trkpt lat="45.11068" lon="5.00432">
        <ele>251.18400573731</ele>
        <time>2011-01-22T12:39:32Z</time>
      </trkpt>
      <trkpt lat="45.11018" lon="5.00465">
        <ele>253.97599792481</ele>
        <time>2011-01-22T12:39:43Z</time>
      </trkpt>
      <trkpt lat="45.10979" lon="5.00495">
        <ele>256.44799804688</ele>
        <time>2011-01-22T12:39:52Z</time>
      </trkpt>
      <trkpt lat="45.10928" lon="5.00532">
        <ele>258.51998901367</ele>
        <time>2011-01-22T12:40:03Z</time>
      </trkpt>
      <trkpt lat="45.10883" lon="5.00553">
        <ele>257.51501464844</ele>
        <time>2011-01-22T12:40:11Z</time>
      </trkpt>
      <trkpt lat="45.10839" lon="5.00564">
        <ele>255.63999938965</ele>
        <time>2011-01-22T12:40:17Z</time>
      </trkpt>
      <trkpt lat="45.10787" lon="5.0057">
        <ele>251.77299499512</ele>
        <time>2011-01-22T12:40:23Z</time>
      </trkpt>
      <trkpt lat="45.10768" lon="5.00573">
        <ele>250.91499328613</ele>
        <time>2011-01-22T12:40:25Z</time>
      </trkpt>
      <trkpt lat="45.10706" lon="5.00585">
        <ele>247.36099243164</ele>
        <time>2011-01-22T12:40:31Z</time>
      </trkpt>
      <trkpt lat="45.10652" lon="5.00605">
        <ele>244.1130065918</ele>
        <time>2011-01-22T12:40:36Z</time>
      </trkpt>
      <trkpt lat="45.10621" lon="5.00623">
        <ele>242.27000427246</ele>
        <time>2011-01-22T12:40:39Z</time>
      </trkpt>
      <trkpt lat="45.1059" lon="5.00646">
        <ele>240.30299377441</ele>
        <time>2011-01-22T12:40:42Z</time>
      </trkpt>
      <trkpt lat="45.10569" lon="5.00663">
        <ele>239.18600463867</ele>
        <time>2011-01-22T12:40:44Z</time>
      </trkpt>
      <trkpt lat="45.10518" lon="5.00706">
        <ele>236.35800170898</ele>
        <time>2011-01-22T12:40:49Z</time>
      </trkpt>
      <trkpt lat="45.10489" lon="5.0073">
        <ele>234.97300720215</ele>
        <time>2011-01-22T12:40:52Z</time>
      </trkpt>
      <trkpt lat="45.10443" lon="5.00766">
        <ele>233.20199584961</ele>
        <time>2011-01-22T12:40:57Z</time>
      </trkpt>
      <trkpt lat="45.10402" lon="5.008">
        <ele>232.33799743652</ele>
        <time>2011-01-22T12:41:02Z</time>
      </trkpt>
      <trkpt lat="45.10349" lon="5.00842">
        <ele>232.73100280762</ele>
        <time>2011-01-22T12:41:09Z</time>
      </trkpt>
      <trkpt lat="45.10266" lon="5.00911">
        <ele>234.52600097656</ele>
        <time>2011-01-22T12:41:21Z</time>
      </trkpt>
      <trkpt lat="45.10216" lon="5.00957">
        <ele>235.78799438477</ele>
        <time>2011-01-22T12:41:29Z</time>
      </trkpt>
      <trkpt lat="45.10179" lon="5.01007">
        <ele>237.96800231934</ele>
        <time>2011-01-22T12:41:36Z</time>
      </trkpt>
      <trkpt lat="45.10143" lon="5.01063">
        <ele>238.77799987793</ele>
        <time>2011-01-22T12:41:44Z</time>
      </trkpt>
      <trkpt lat="45.10113" lon="5.01111">
        <ele>239.18899536133</ele>
        <time>2011-01-22T12:41:51Z</time>
      </trkpt>
      <trkpt lat="45.10098" lon="5.01144">
        <ele>238.87899780273</ele>
        <time>2011-01-22T12:41:55Z</time>
      </trkpt>
      <trkpt lat="45.10083" lon="5.01202">
        <ele>239.18600463867</ele>
        <time>2011-01-22T12:42:01Z</time>
      </trkpt>
      <trkpt lat="45.10073" lon="5.01279">
        <ele>239.32099914551</ele>
        <time>2011-01-22T12:42:09Z</time>
      </trkpt>
      <trkpt lat="45.10066" lon="5.0137">
        <ele>239.25799560547</ele>
        <time>2011-01-22T12:42:18Z</time>
      </trkpt>
      <trkpt lat="45.10058" lon="5.01473">
        <ele>238.59800720215</ele>
        <time>2011-01-22T12:42:28Z</time>
      </trkpt>
      <trkpt lat="45.10049" lon="5.01573">
        <ele>238.0059967041</ele>
        <time>2011-01-22T12:42:38Z</time>
      </trkpt>
      <trkpt lat="45.10038" lon="5.01652">
        <ele>237.83099365234</ele>
        <time>2011-01-22T12:42:46Z</time>
      </trkpt>
      <trkpt lat="45.10019" lon="5.01718">
        <ele>237.67399597168</ele>
        <time>2011-01-22T12:42:53Z</time>
      </trkpt>
      <trkpt lat="45.09996" lon="5.01785">
        <ele>238.5950012207</ele>
        <time>2011-01-22T12:43:01Z</time>
      </trkpt>
      <trkpt lat="45.09989" lon="5.01807">
        <ele>240.00399780273</ele>
        <time>2011-01-22T12:43:04Z</time>
      </trkpt>
      <trkpt lat="45.09964" lon="5.01879">
        <ele>240.68699645996</ele>
        <time>2011-01-22T12:43:13Z</time>
      </trkpt>
      <trkpt lat="45.09935" lon="5.01962">
        <ele>242.74499511719</ele>
        <time>2011-01-22T12:43:23Z</time>
      </trkpt>
      <trkpt lat="45.09918" lon="5.02012">
        <ele>244.46699523926</ele>
        <time>2011-01-22T12:43:29Z</time>
      </trkpt>
      <trkpt lat="45.09893" lon="5.02084">
        <ele>246.67700195312</ele>
        <time>2011-01-22T12:43:38Z</time>
      </trkpt>
      <trkpt lat="45.09885" lon="5.02108">
        <ele>248.06100463867</ele>
        <time>2011-01-22T12:43:41Z</time>
      </trkpt>
      <trkpt lat="45.09872" lon="5.02145">
        <ele>249.64900207519</ele>
        <time>2011-01-22T12:43:46Z</time>
      </trkpt>
      <trkpt lat="45.09864" lon="5.02167">
        <ele>250.73500061035</ele>
        <time>2011-01-22T12:43:49Z</time>
      </trkpt>
      <trkpt lat="45.09843" lon="5.02229">
        <ele>253.89199829102</ele>
        <time>2011-01-22T12:43:58Z</time>
      </trkpt>
      <trkpt lat="45.0984" lon="5.02252">
        <ele>255.18800354004</ele>
        <time>2011-01-22T12:44:01Z</time>
      </trkpt>
      <trkpt lat="45.09842" lon="5.02281">
        <ele>256.49600219727</ele>
        <time>2011-01-22T12:44:05Z</time>
      </trkpt>
      <trkpt lat="45.09857" lon="5.02344">
        <ele>259.70098876953</ele>
        <time>2011-01-22T12:44:14Z</time>
      </trkpt>
      <trkpt lat="45.09871" lon="5.02393">
        <ele>260.71600341797</ele>
        <time>2011-01-22T12:44:21Z</time>
      </trkpt>
      <trkpt lat="45.09892" lon="5.02447">
        <ele>259.1549987793</ele>
        <time>2011-01-22T12:44:28Z</time>
      </trkpt>
      <trkpt lat="45.09914" lon="5.02499">
        <ele>256.7080078125</ele>
        <time>2011-01-22T12:44:33Z</time>
      </trkpt>
      <trkpt lat="45.09941" lon="5.02539">
        <ele>254.24200439453</ele>
        <time>2011-01-22T12:44:37Z</time>
      </trkpt>
      <trkpt lat="45.09956" lon="5.02559">
        <ele>252.98500061035</ele>
        <time>2011-01-22T12:44:39Z</time>
      </trkpt>
      <trkpt lat="45.09963" lon="5.02569">
        <ele>252.20799255371</ele>
        <time>2011-01-22T12:44:40Z</time>
      </trkpt>
      <trkpt lat="45.09988" lon="5.02631">
        <ele>249.01300048828</ele>
        <time>2011-01-22T12:44:45Z</time>
      </trkpt>
      <trkpt lat="45.09995" lon="5.02654">
        <ele>247.84399414062</ele>
        <time>2011-01-22T12:44:47Z</time>
      </trkpt>
      <trkpt lat="45.10033" lon="5.02704">
        <ele>244.19900512695</ele>
        <time>2011-01-22T12:44:52Z</time>
      </trkpt>
      <trkpt lat="45.10048" lon="5.02724">
        <ele>243.66900634766</ele>
        <time>2011-01-22T12:44:54Z</time>
      </trkpt>
      <trkpt lat="45.10062" lon="5.02772">
        <ele>242.45700073242</ele>
        <time>2011-01-22T12:44:58Z</time>
      </trkpt>
      <trkpt lat="45.10056" lon="5.02807">
        <ele>240.22300720215</ele>
        <time>2011-01-22T12:45:01Z</time>
      </trkpt>
      <trkpt lat="45.10047" lon="5.02819">
        <ele>237.70100402832</ele>
        <time>2011-01-22T12:45:03Z</time>
      </trkpt>
      <trkpt lat="45.1004" lon="5.02827">
        <ele>235.36500549316</ele>
        <time>2011-01-22T12:45:06Z</time>
      </trkpt>
      <trkpt lat="45.10038" lon="5.02828">
        <ele>235.03500366211</ele>
        <time>2011-01-22T12:45:07Z</time>
      </trkpt>
      <trkpt lat="45.10037" lon="5.02848">
        <ele>234.77699279785</ele>
        <time>2011-01-22T12:45:12Z</time>
      </trkpt>
      <trkpt lat="45.10041" lon="5.02866">
        <ele>234.43299865723</ele>
        <time>2011-01-22T12:45:16Z</time>
      </trkpt>
      <trkpt lat="45.10043" lon="5.02875">
        <ele>233.73599243164</ele>
        <time>2011-01-22T12:45:20Z</time>
      </trkpt>
      <trkpt lat="45.1004" lon="5.02891">
        <ele>232.81100463867</ele>
        <time>2011-01-22T12:45:27Z</time>
      </trkpt>
      <trkpt lat="45.10036" lon="5.02903">
        <ele>232.26600646973</ele>
        <time>2011-01-22T12:45:33Z</time>
      </trkpt>
      <trkpt lat="45.1003" lon="5.02926">
        <ele>231.25999450684</ele>
        <time>2011-01-22T12:45:38Z</time>
      </trkpt>
      <trkpt lat="45.10019" lon="5.02961">
        <ele>230.06599426269</ele>
        <time>2011-01-22T12:45:43Z</time>
      </trkpt>
      <trkpt lat="45.10005" lon="5.03012">
        <ele>228.28799438477</ele>
        <time>2011-01-22T12:45:48Z</time>
      </trkpt>
      <trkpt lat="45.09989" lon="5.03069">
        <ele>225.61599731445</ele>
        <time>2011-01-22T12:45:53Z</time>
      </trkpt>
      <trkpt lat="45.09964" lon="5.03158">
        <ele>223.5</ele>
        <time>2011-01-22T12:46:01Z</time>
      </trkpt>
      <trkpt lat="45.09938" lon="5.03247">
        <ele>221.125</ele>
        <time>2011-01-22T12:46:09Z</time>
      </trkpt>
      <trkpt lat="45.09914" lon="5.03333">
        <ele>216.69500732422</ele>
        <time>2011-01-22T12:46:16Z</time>
      </trkpt>
      <trkpt lat="45.09911" lon="5.03346">
        <ele>216.46200561523</ele>
        <time>2011-01-22T12:46:17Z</time>
      </trkpt>
      <trkpt lat="45.09893" lon="5.0341">
        <ele>214.60200500488</ele>
        <time>2011-01-22T12:46:22Z</time>
      </trkpt>
      <trkpt lat="45.09859" lon="5.03473">
        <ele>214.26699829102</ele>
        <time>2011-01-22T12:46:28Z</time>
      </trkpt>
      <trkpt lat="45.09813" lon="5.0354">
        <ele>215.23500061035</ele>
        <time>2011-01-22T12:46:36Z</time>
      </trkpt>
      <trkpt lat="45.09791" lon="5.03581">
        <ele>215.62600708008</ele>
        <time>2011-01-22T12:46:41Z</time>
      </trkpt>
      <trkpt lat="45.09782" lon="5.03617">
        <ele>216.37199401856</ele>
        <time>2011-01-22T12:46:45Z</time>
      </trkpt>
      <trkpt lat="45.09785" lon="5.03671">
        <ele>216.04800415039</ele>
        <time>2011-01-22T12:46:51Z</time>
      </trkpt>
      <trkpt lat="45.09797" lon="5.03744">
        <ele>214.10699462891</ele>
        <time>2011-01-22T12:46:58Z</time>
      </trkpt>
      <trkpt lat="45.09813" lon="5.0381">
        <ele>212.61099243164</ele>
        <time>2011-01-22T12:47:04Z</time>
      </trkpt>
      <trkpt lat="45.09834" lon="5.03866">
        <ele>212.40299987793</ele>
        <time>2011-01-22T12:47:10Z</time>
      </trkpt>
      <trkpt lat="45.09861" lon="5.03936">
        <ele>211.86999511719</ele>
        <time>2011-01-22T12:47:18Z</time>
      </trkpt>
      <trkpt lat="45.09875" lon="5.03972">
        <ele>211.67999267578</ele>
        <time>2011-01-22T12:47:22Z</time>
      </trkpt>
      <trkpt lat="45.09882" lon="5.0402">
        <ele>211.25399780273</ele>
        <time>2011-01-22T12:47:27Z</time>
      </trkpt>
      <trkpt lat="45.09879" lon="5.0404">
        <ele>211.28300476074</ele>
        <time>2011-01-22T12:47:29Z</time>
      </trkpt>
      <trkpt lat="45.0986" lon="5.04119">
        <ele>211.66600036621</ele>
        <time>2011-01-22T12:47:37Z</time>
      </trkpt>
      <trkpt lat="45.09838" lon="5.0416">
        <ele>211.49000549316</ele>
        <time>2011-01-22T12:47:42Z</time>
      </trkpt>
      <trkpt lat="45.09787" lon="5.04213">
        <ele>212.25300598144</ele>
        <time>2011-01-22T12:47:51Z</time>
      </trkpt>
      <trkpt lat="45.09729" lon="5.04271">
        <ele>213.11599731445</ele>
        <time>2011-01-22T12:48:01Z</time>
      </trkpt>
      <trkpt lat="45.09684" lon="5.04316">
        <ele>214.26300048828</ele>
        <time>2011-01-22T12:48:09Z</time>
      </trkpt>
      <trkpt lat="45.09659" lon="5.04352">
        <ele>215.22200012207</ele>
        <time>2011-01-22T12:48:15Z</time>
      </trkpt>
      <trkpt lat="45.0964" lon="5.04397">
        <ele>215.28999328613</ele>
        <time>2011-01-22T12:48:21Z</time>
      </trkpt>
      <trkpt lat="45.0962" lon="5.04462">
        <ele>214.26100158691</ele>
        <time>2011-01-22T12:48:29Z</time>
      </trkpt>
      <trkpt lat="45.09613" lon="5.04488">
        <ele>213.65899658203</ele>
        <time>2011-01-22T12:48:32Z</time>
      </trkpt>
      <trkpt lat="45.0961" lon="5.04507">
        <ele>213.23899841309</ele>
        <time>2011-01-22T12:48:34Z</time>
      </trkpt>
      <trkpt lat="45.09593" lon="5.04545">
        <ele>211.64599609375</ele>
        <time>2011-01-22T12:48:39Z</time>
      </trkpt>
      <trkpt lat="45.09575" lon="5.04581">
        <ele>211.16499328613</ele>
        <time>2011-01-22T12:48:43Z</time>
      </trkpt>
      <trkpt lat="45.09554" lon="5.04607">
        <ele>210.11799621582</ele>
        <time>2011-01-22T12:48:47Z</time>
      </trkpt>
      <trkpt lat="45.09526" lon="5.04624">
        <ele>209.52499389648</ele>
        <time>2011-01-22T12:48:51Z</time>
      </trkpt>
      <trkpt lat="45.09479" lon="5.04642">
        <ele>208.06500244141</ele>
        <time>2011-01-22T12:48:57Z</time>
      </trkpt>
      <trkpt lat="45.09423" lon="5.04667">
        <ele>206.97500610352</ele>
        <time>2011-01-22T12:49:05Z</time>
      </trkpt>
      <trkpt lat="45.0938" lon="5.0469">
        <ele>206.02600097656</ele>
        <time>2011-01-22T12:49:11Z</time>
      </trkpt>
      <trkpt lat="45.09327" lon="5.04728">
        <ele>205.19799804688</ele>
        <time>2011-01-22T12:49:18Z</time>
      </trkpt>
      <trkpt lat="45.09307" lon="5.04748">
        <ele>204.47999572754</ele>
        <time>2011-01-22T12:49:21Z</time>
      </trkpt>
      <trkpt lat="45.09298" lon="5.04774">
        <ele>203.71699523926</ele>
        <time>2011-01-22T12:49:24Z</time>
      </trkpt>
      <trkpt lat="45.09299" lon="5.04784">
        <ele>203.87699890137</ele>
        <time>2011-01-22T12:49:25Z</time>
      </trkpt>
      <trkpt lat="45.09298" lon="5.0485">
        <ele>203.38900756836</ele>
        <time>2011-01-22T12:49:32Z</time>
      </trkpt>
      <trkpt lat="45.09296" lon="5.04868">
        <ele>203.31900024414</ele>
        <time>2011-01-22T12:49:34Z</time>
      </trkpt>
      <trkpt lat="45.09288" lon="5.04899">
        <ele>203.4940032959</ele>
        <time>2011-01-22T12:49:38Z</time>
      </trkpt>
      <trkpt lat="45.09281" lon="5.04912">
        <ele>203.9049987793</ele>
        <time>2011-01-22T12:49:40Z</time>
      </trkpt>
      <trkpt lat="45.09249" lon="5.04957">
        <ele>205.72200012207</ele>
        <time>2011-01-22T12:49:48Z</time>
      </trkpt>
      <trkpt lat="45.09241" lon="5.04969">
        <ele>206.02799987793</ele>
        <time>2011-01-22T12:49:50Z</time>
      </trkpt>
      <trkpt lat="45.09233" lon="5.05005">
        <ele>206.82499694824</ele>
        <time>2011-01-22T12:49:55Z</time>
      </trkpt>
      <trkpt lat="45.09236" lon="5.05036">
        <ele>207.71000671387</ele>
        <time>2011-01-22T12:49:59Z</time>
      </trkpt>
      <trkpt lat="45.09238" lon="5.05044">
        <ele>207.83099365234</ele>
        <time>2011-01-22T12:50:00Z</time>
      </trkpt>
      <trkpt lat="45.09248" lon="5.05073">
        <ele>208.54200744629</ele>
        <time>2011-01-22T12:50:04Z</time>
      </trkpt>
      <trkpt lat="45.09257" lon="5.05094">
        <ele>209.24899291992</ele>
        <time>2011-01-22T12:50:07Z</time>
      </trkpt>
      <trkpt lat="45.09259" lon="5.051">
        <ele>209.35600280762</ele>
        <time>2011-01-22T12:50:08Z</time>
      </trkpt>
      <trkpt lat="45.0929" lon="5.05162">
        <ele>210.39700317383</ele>
        <time>2011-01-22T12:50:17Z</time>
      </trkpt>
      <trkpt lat="45.09328" lon="5.05227">
        <ele>210.38200378418</ele>
        <time>2011-01-22T12:50:26Z</time>
      </trkpt>
      <trkpt lat="45.09374" lon="5.05305">
        <ele>209.71800231934</ele>
        <time>2011-01-22T12:50:37Z</time>
      </trkpt>
      <trkpt lat="45.09393" lon="5.05343">
        <ele>209.80000305176</ele>
        <time>2011-01-22T12:50:42Z</time>
      </trkpt>
      <trkpt lat="45.09415" lon="5.05409">
        <ele>210.60400390625</ele>
        <time>2011-01-22T12:50:50Z</time>
      </trkpt>
      <trkpt lat="45.09424" lon="5.05471">
        <ele>210.68899536133</ele>
        <time>2011-01-22T12:50:57Z</time>
      </trkpt>
      <trkpt lat="45.09432" lon="5.05579">
        <ele>211.31300354004</ele>
        <time>2011-01-22T12:51:09Z</time>
      </trkpt>
      <trkpt lat="45.0943" lon="5.05642">
        <ele>211.5299987793</ele>
        <time>2011-01-22T12:51:16Z</time>
      </trkpt>
      <trkpt lat="45.0942" lon="5.05723">
        <ele>210.26499938965</ele>
        <time>2011-01-22T12:51:24Z</time>
      </trkpt>
      <trkpt lat="45.09414" lon="5.05753">
        <ele>209.62300109863</ele>
        <time>2011-01-22T12:51:27Z</time>
      </trkpt>
      <trkpt lat="45.09409" lon="5.05773">
        <ele>209.44400024414</ele>
        <time>2011-01-22T12:51:29Z</time>
      </trkpt>
      <trkpt lat="45.09388" lon="5.05851">
        <ele>209.23100280762</ele>
        <time>2011-01-22T12:51:37Z</time>
      </trkpt>
      <trkpt lat="45.09376" lon="5.05922">
        <ele>208.67300415039</ele>
        <time>2011-01-22T12:51:44Z</time>
      </trkpt>
      <trkpt lat="45.09366" lon="5.06031">
        <ele>209.2380065918</ele>
        <time>2011-01-22T12:51:55Z</time>
      </trkpt>
      <trkpt lat="45.09363" lon="5.06108">
        <ele>209.77200317383</ele>
        <time>2011-01-22T12:52:03Z</time>
      </trkpt>
      <trkpt lat="45.09363" lon="5.06137">
        <ele>209.41200256348</ele>
        <time>2011-01-22T12:52:06Z</time>
      </trkpt>
      <trkpt lat="45.09364" lon="5.06146">
        <ele>209.40100097656</ele>
        <time>2011-01-22T12:52:07Z</time>
      </trkpt>
      <trkpt lat="45.09367" lon="5.06271">
        <ele>211.25900268555</ele>
        <time>2011-01-22T12:52:20Z</time>
      </trkpt>
      <trkpt lat="45.09369" lon="5.0637">
        <ele>212.37800598144</ele>
        <time>2011-01-22T12:52:30Z</time>
      </trkpt>
      <trkpt lat="45.09371" lon="5.06409">
        <ele>212.46299743652</ele>
        <time>2011-01-22T12:52:34Z</time>
      </trkpt>
      <trkpt lat="45.09377" lon="5.06516">
        <ele>213.50799560547</ele>
        <time>2011-01-22T12:52:45Z</time>
      </trkpt>
      <trkpt lat="45.09378" lon="5.06591">
        <ele>214.06500244141</ele>
        <time>2011-01-22T12:52:53Z</time>
      </trkpt>
      <trkpt lat="45.09368" lon="5.06688">
        <ele>214.61399841309</ele>
        <time>2011-01-22T12:53:03Z</time>
      </trkpt>
      <trkpt lat="45.09364" lon="5.06768">
        <ele>216.05799865723</ele>
        <time>2011-01-22T12:53:11Z</time>
      </trkpt>
      <trkpt lat="45.09369" lon="5.06856">
        <ele>216.76699829102</ele>
        <time>2011-01-22T12:53:20Z</time>
      </trkpt>
      <trkpt lat="45.09375" lon="5.0697">
        <ele>217.93899536133</ele>
        <time>2011-01-22T12:53:32Z</time>
      </trkpt>
      <trkpt lat="45.09377" lon="5.07005">
        <ele>218.47500610352</ele>
        <time>2011-01-22T12:53:36Z</time>
      </trkpt>
      <trkpt lat="45.09379" lon="5.07041">
        <ele>219.19799804688</ele>
        <time>2011-01-22T12:53:40Z</time>
      </trkpt>
      <trkpt lat="45.09379" lon="5.0705">
        <ele>219.48399353027</ele>
        <time>2011-01-22T12:53:41Z</time>
      </trkpt>
      <trkpt lat="45.09383" lon="5.07137">
        <ele>221.66000366211</ele>
        <time>2011-01-22T12:53:51Z</time>
      </trkpt>
      <trkpt lat="45.09383" lon="5.07146">
        <ele>221.90400695801</ele>
        <time>2011-01-22T12:53:52Z</time>
      </trkpt>
      <trkpt lat="45.09374" lon="5.07186">
        <ele>222.59399414062</ele>
        <time>2011-01-22T12:53:57Z</time>
      </trkpt>
      <trkpt lat="45.09367" lon="5.07218">
        <ele>222.85600280762</ele>
        <time>2011-01-22T12:54:01Z</time>
      </trkpt>
      <trkpt lat="45.09368" lon="5.07279">
        <ele>221.04699707031</ele>
        <time>2011-01-22T12:54:07Z</time>
      </trkpt>
      <trkpt lat="45.09378" lon="5.07327">
        <ele>220.84599304199</ele>
        <time>2011-01-22T12:54:12Z</time>
      </trkpt>
      <trkpt lat="45.09394" lon="5.07382">
        <ele>221.22399902344</ele>
        <time>2011-01-22T12:54:19Z</time>
      </trkpt>
      <trkpt lat="45.09408" lon="5.0743">
        <ele>221.43200683594</ele>
        <time>2011-01-22T12:54:26Z</time>
      </trkpt>
      <trkpt lat="45.09426" lon="5.07467">
        <ele>221.96699523926</ele>
        <time>2011-01-22T12:54:32Z</time>
      </trkpt>
      <trkpt lat="45.09452" lon="5.07507">
        <ele>222.82899475098</ele>
        <time>2011-01-22T12:54:39Z</time>
      </trkpt>
      <trkpt lat="45.09459" lon="5.07518">
        <ele>223.09399414062</ele>
        <time>2011-01-22T12:54:41Z</time>
      </trkpt>
      <trkpt lat="45.09491" lon="5.07561">
        <ele>223.57899475098</ele>
        <time>2011-01-22T12:54:49Z</time>
      </trkpt>
      <trkpt lat="45.09529" lon="5.07607">
        <ele>224.73699951172</ele>
        <time>2011-01-22T12:54:58Z</time>
      </trkpt>
      <trkpt lat="45.09562" lon="5.07649">
        <ele>225.00999450684</ele>
        <time>2011-01-22T12:55:06Z</time>
      </trkpt>
      <trkpt lat="45.09584" lon="5.07687">
        <ele>225.52799987793</ele>
        <time>2011-01-22T12:55:12Z</time>
      </trkpt>
      <trkpt lat="45.09613" lon="5.07744">
        <ele>226.58999633789</ele>
        <time>2011-01-22T12:55:21Z</time>
      </trkpt>
      <trkpt lat="45.09649" lon="5.07807">
        <ele>227.11000061035</ele>
        <time>2011-01-22T12:55:31Z</time>
      </trkpt>
      <trkpt lat="45.09682" lon="5.07852">
        <ele>228.48899841309</ele>
        <time>2011-01-22T12:55:39Z</time>
      </trkpt>
      <trkpt lat="45.09721" lon="5.07889">
        <ele>228.73899841309</ele>
        <time>2011-01-22T12:55:47Z</time>
      </trkpt>
      <trkpt lat="45.09726" lon="5.07892">
        <ele>228.86700439453</ele>
        <time>2011-01-22T12:55:48Z</time>
      </trkpt>
      <trkpt lat="45.09771" lon="5.07904">
        <ele>230.10200500488</ele>
        <time>2011-01-22T12:55:56Z</time>
      </trkpt>
      <trkpt lat="45.09813" lon="5.07914">
        <ele>231.92599487305</ele>
        <time>2011-01-22T12:56:04Z</time>
      </trkpt>
      <trkpt lat="45.09822" lon="5.07916">
        <ele>232.30499267578</ele>
        <time>2011-01-22T12:56:06Z</time>
      </trkpt>
      <trkpt lat="45.09861" lon="5.07931">
        <ele>234.43499755859</ele>
        <time>2011-01-22T12:56:14Z</time>
      </trkpt>
      <trkpt lat="45.09896" lon="5.0795">
        <ele>234.45500183106</ele>
        <time>2011-01-22T12:56:21Z</time>
      </trkpt>
      <trkpt lat="45.09946" lon="5.07977">
        <ele>236.54600524902</ele>
        <time>2011-01-22T12:56:31Z</time>
      </trkpt>
      <trkpt lat="45.09998" lon="5.08006">
        <ele>236.82499694824</ele>
        <time>2011-01-22T12:56:41Z</time>
      </trkpt>
      <trkpt lat="45.10036" lon="5.0803">
        <ele>238.01899719238</ele>
        <time>2011-01-22T12:56:49Z</time>
      </trkpt>
      <trkpt lat="45.10069" lon="5.08048">
        <ele>238.61399841309</ele>
        <time>2011-01-22T12:56:56Z</time>
      </trkpt>
      <trkpt lat="45.10083" lon="5.08058">
        <ele>239.15699768066</ele>
        <time>2011-01-22T12:56:59Z</time>
      </trkpt>
      <trkpt lat="45.10104" lon="5.08084">
        <ele>238.90800476074</ele>
        <time>2011-01-22T12:57:04Z</time>
      </trkpt>
      <trkpt lat="45.10128" lon="5.08138">
        <ele>239.09100341797</ele>
        <time>2011-01-22T12:57:12Z</time>
      </trkpt>
      <trkpt lat="45.10165" lon="5.08201">
        <ele>239.08500671387</ele>
        <time>2011-01-22T12:57:22Z</time>
      </trkpt>
      <trkpt lat="45.10184" lon="5.08239">
        <ele>239.47599792481</ele>
        <time>2011-01-22T12:57:28Z</time>
      </trkpt>
      <trkpt lat="45.10201" lon="5.08283">
        <ele>240.21499633789</ele>
        <time>2011-01-22T12:57:35Z</time>
      </trkpt>
      <trkpt lat="45.10222" lon="5.08349">
        <ele>241.80200195312</ele>
        <time>2011-01-22T12:57:45Z</time>
      </trkpt>
      <trkpt lat="45.10242" lon="5.08416">
        <ele>242.90800476074</ele>
        <time>2011-01-22T12:57:55Z</time>
      </trkpt>
      <trkpt lat="45.10261" lon="5.08475">
        <ele>243.57800292969</ele>
        <time>2011-01-22T12:58:04Z</time>
      </trkpt>
      <trkpt lat="45.10287" lon="5.08541">
        <ele>243.87399291992</ele>
        <time>2011-01-22T12:58:14Z</time>
      </trkpt>
      <trkpt lat="45.10308" lon="5.08589">
        <ele>245.27799987793</ele>
        <time>2011-01-22T12:58:22Z</time>
      </trkpt>
      <trkpt lat="45.10325" lon="5.08645">
        <ele>246.87600708008</ele>
        <time>2011-01-22T12:58:31Z</time>
      </trkpt>
      <trkpt lat="45.10343" lon="5.08693">
        <ele>248.53300476074</ele>
        <time>2011-01-22T12:58:39Z</time>
      </trkpt>
      <trkpt lat="45.10362" lon="5.08719">
        <ele>249.69900512695</ele>
        <time>2011-01-22T12:58:45Z</time>
      </trkpt>
      <trkpt lat="45.10381" lon="5.08738">
        <ele>251.2140045166</ele>
        <time>2011-01-22T12:58:51Z</time>
      </trkpt>
      <trkpt lat="45.10411" lon="5.08763">
        <ele>253.67900085449</ele>
        <time>2011-01-22T12:59:00Z</time>
      </trkpt>
      <trkpt lat="45.10436" lon="5.08788">
        <ele>255.3390045166</ele>
        <time>2011-01-22T12:59:08Z</time>
      </trkpt>
      <trkpt lat="45.10442" lon="5.08795">
        <ele>255.68200683594</ele>
        <time>2011-01-22T12:59:10Z</time>
      </trkpt>
      <trkpt lat="45.10463" lon="5.08836">
        <ele>258.36401367188</ele>
        <time>2011-01-22T12:59:18Z</time>
      </trkpt>
      <trkpt lat="45.1047" lon="5.08858">
        <ele>260.42999267578</ele>
        <time>2011-01-22T12:59:22Z</time>
      </trkpt>
      <trkpt lat="45.10479" lon="5.08887">
        <ele>262.96798706055</ele>
        <time>2011-01-22T12:59:27Z</time>
      </trkpt>
      <trkpt lat="45.10491" lon="5.08925">
        <ele>265.6960144043</ele>
        <time>2011-01-22T12:59:34Z</time>
      </trkpt>
      <trkpt lat="45.10508" lon="5.08978">
        <ele>266.59399414062</ele>
        <time>2011-01-22T12:59:43Z</time>
      </trkpt>
      <trkpt lat="45.10529" lon="5.09044">
        <ele>266.97698974609</ele>
        <time>2011-01-22T12:59:53Z</time>
      </trkpt>
      <trkpt lat="45.10542" lon="5.09084">
        <ele>266.98999023438</ele>
        <time>2011-01-22T13:00:00Z</time>
      </trkpt>
      <trkpt lat="45.10556" lon="5.09127">
        <ele>266.94100952148</ele>
        <time>2011-01-22T13:00:07Z</time>
      </trkpt>
      <trkpt lat="45.10568" lon="5.09174">
        <ele>267.04501342773</ele>
        <time>2011-01-22T13:00:15Z</time>
      </trkpt>
      <trkpt lat="45.10583" lon="5.0923">
        <ele>267.15600585938</ele>
        <time>2011-01-22T13:00:24Z</time>
      </trkpt>
      <trkpt lat="45.10597" lon="5.0928">
        <ele>268.24301147461</ele>
        <time>2011-01-22T13:00:32Z</time>
      </trkpt>
      <trkpt lat="45.10612" lon="5.09331">
        <ele>268.52099609375</ele>
        <time>2011-01-22T13:00:40Z</time>
      </trkpt>
      <trkpt lat="45.10626" lon="5.0938">
        <ele>266.87399291992</ele>
        <time>2011-01-22T13:00:46Z</time>
      </trkpt>
      <trkpt lat="45.10643" lon="5.09425">
        <ele>266.40301513672</ele>
        <time>2011-01-22T13:00:52Z</time>
      </trkpt>
      <trkpt lat="45.10649" lon="5.09439">
        <ele>266.31399536133</ele>
        <time>2011-01-22T13:00:54Z</time>
      </trkpt>
      <trkpt lat="45.10672" lon="5.09464">
        <ele>266.43899536133</ele>
        <time>2011-01-22T13:00:59Z</time>
      </trkpt>
      <trkpt lat="45.10692" lon="5.09478">
        <ele>266.90301513672</ele>
        <time>2011-01-22T13:01:03Z</time>
      </trkpt>
      <trkpt lat="45.10719" lon="5.09488">
        <ele>267.6669921875</ele>
        <time>2011-01-22T13:01:09Z</time>
      </trkpt>
      <trkpt lat="45.10736" lon="5.09492">
        <ele>267.83200073242</ele>
        <time>2011-01-22T13:01:13Z</time>
      </trkpt>
      <trkpt lat="45.10758" lon="5.09492">
        <ele>266.92599487305</ele>
        <time>2011-01-22T13:01:17Z</time>
      </trkpt>
      <trkpt lat="45.10796" lon="5.09484">
        <ele>263.49798583984</ele>
        <time>2011-01-22T13:01:22Z</time>
      </trkpt>
      <trkpt lat="45.1083" lon="5.09482">
        <ele>260.20001220703</ele>
        <time>2011-01-22T13:01:26Z</time>
      </trkpt>
      <trkpt lat="45.10847" lon="5.09481">
        <ele>259.25698852539</ele>
        <time>2011-01-22T13:01:28Z</time>
      </trkpt>
      <trkpt lat="45.1087" lon="5.09491">
        <ele>259.3210144043</ele>
        <time>2011-01-22T13:01:31Z</time>
      </trkpt>
      <trkpt lat="45.10878" lon="5.09517">
        <ele>259.14700317383</ele>
        <time>2011-01-22T13:01:34Z</time>
      </trkpt>
      <trkpt lat="45.10879" lon="5.09525">
        <ele>259.00399780273</ele>
        <time>2011-01-22T13:01:35Z</time>
      </trkpt>
      <trkpt lat="45.1088" lon="5.09538">
        <ele>258.82998657227</ele>
        <time>2011-01-22T13:01:37Z</time>
      </trkpt>
      <trkpt lat="45.10867" lon="5.09552">
        <ele>258.8330078125</ele>
        <time>2011-01-22T13:01:42Z</time>
      </trkpt>
      <trkpt lat="45.1086" lon="5.09556">
        <ele>258.82501220703</ele>
        <time>2011-01-22T13:01:44Z</time>
      </trkpt>
      <trkpt lat="45.10826" lon="5.09577">
        <ele>258.78298950195</ele>
        <time>2011-01-22T13:01:52Z</time>
      </trkpt>
      <trkpt lat="45.10793" lon="5.09611">
        <ele>259.11199951172</ele>
        <time>2011-01-22T13:02:00Z</time>
      </trkpt>
      <trkpt lat="45.10758" lon="5.09645">
        <ele>258.16400146484</ele>
        <time>2011-01-22T13:02:07Z</time>
      </trkpt>
      <trkpt lat="45.10722" lon="5.09669">
        <ele>257.03399658203</ele>
        <time>2011-01-22T13:02:13Z</time>
      </trkpt>
      <trkpt lat="45.1068" lon="5.09683">
        <ele>255.88200378418</ele>
        <time>2011-01-22T13:02:19Z</time>
      </trkpt>
      <trkpt lat="45.10638" lon="5.09683">
        <ele>255.45700073242</ele>
        <time>2011-01-22T13:02:25Z</time>
      </trkpt>
      <trkpt lat="45.10587" lon="5.09679">
        <ele>255.06100463867</ele>
        <time>2011-01-22T13:02:33Z</time>
      </trkpt>
      <trkpt lat="45.10529" lon="5.09676">
        <ele>254.87199401856</ele>
        <time>2011-01-22T13:02:42Z</time>
      </trkpt>
      <trkpt lat="45.10478" lon="5.09672">
        <ele>255.42100524902</ele>
        <time>2011-01-22T13:02:50Z</time>
      </trkpt>
      <trkpt lat="45.10428" lon="5.0967">
        <ele>256.36999511719</ele>
        <time>2011-01-22T13:02:58Z</time>
      </trkpt>
      <trkpt lat="45.104" lon="5.09668">
        <ele>256.44000244141</ele>
        <time>2011-01-22T13:03:03Z</time>
      </trkpt>
      <trkpt lat="45.10376" lon="5.09668">
        <ele>257.71301269531</ele>
        <time>2011-01-22T13:03:08Z</time>
      </trkpt>
      <trkpt lat="45.10346" lon="5.09668">
        <ele>259.07598876953</ele>
        <time>2011-01-22T13:03:14Z</time>
      </trkpt>
      <trkpt lat="45.10328" lon="5.09664">
        <ele>260.15301513672</ele>
        <time>2011-01-22T13:03:18Z</time>
      </trkpt>
      <trkpt lat="45.1032" lon="5.09671">
        <ele>260.46200561523</ele>
        <time>2011-01-22T13:03:21Z</time>
      </trkpt>
      <trkpt lat="45.10329" lon="5.0968">
        <ele>260.9280090332</ele>
        <time>2011-01-22T13:03:24Z</time>
      </trkpt>
      <trkpt lat="45.10336" lon="5.09686">
        <ele>261.07598876953</ele>
        <time>2011-01-22T13:03:26Z</time>
      </trkpt>
      <trkpt lat="45.10369" lon="5.09711">
        <ele>261.40798950195</ele>
        <time>2011-01-22T13:03:34Z</time>
      </trkpt>
      <trkpt lat="45.10404" lon="5.09737">
        <ele>262.37100219727</ele>
        <time>2011-01-22T13:03:42Z</time>
      </trkpt>
      <trkpt lat="45.10434" lon="5.09758">
        <ele>262.76000976562</ele>
        <time>2011-01-22T13:03:49Z</time>
      </trkpt>
      <trkpt lat="45.10472" lon="5.09785">
        <ele>263.24398803711</ele>
        <time>2011-01-22T13:03:58Z</time>
      </trkpt>
      <trkpt lat="45.10505" lon="5.09807">
        <ele>264.38400268555</ele>
        <time>2011-01-22T13:04:06Z</time>
      </trkpt>
      <trkpt lat="45.10541" lon="5.09841">
        <ele>264.75100708008</ele>
        <time>2011-01-22T13:04:15Z</time>
      </trkpt>
      <trkpt lat="45.10577" lon="5.0986">
        <ele>264.31600952148</ele>
        <time>2011-01-22T13:04:22Z</time>
      </trkpt>
      <trkpt lat="45.10612" lon="5.09869">
        <ele>264.20001220703</ele>
        <time>2011-01-22T13:04:28Z</time>
      </trkpt>
      <trkpt lat="45.10656" lon="5.09883">
        <ele>263.59698486328</ele>
        <time>2011-01-22T13:04:36Z</time>
      </trkpt>
      <trkpt lat="45.10693" lon="5.09898">
        <ele>264.61599731445</ele>
        <time>2011-01-22T13:04:44Z</time>
      </trkpt>
      <trkpt lat="45.10727" lon="5.09922">
        <ele>265.34399414062</ele>
        <time>2011-01-22T13:04:52Z</time>
      </trkpt>
      <trkpt lat="45.10757" lon="5.0995">
        <ele>266.36599731445</ele>
        <time>2011-01-22T13:05:00Z</time>
      </trkpt>
      <trkpt lat="45.10785" lon="5.09984">
        <ele>268.49700927734</ele>
        <time>2011-01-22T13:05:09Z</time>
      </trkpt>
      <trkpt lat="45.10807" lon="5.1002">
        <ele>270.15600585938</ele>
        <time>2011-01-22T13:05:18Z</time>
      </trkpt>
      <trkpt lat="45.10813" lon="5.10031">
        <ele>270.31100463867</ele>
        <time>2011-01-22T13:05:20Z</time>
      </trkpt>
      <trkpt lat="45.10831" lon="5.10089">
        <ele>270.02801513672</ele>
        <time>2011-01-22T13:05:29Z</time>
      </trkpt>
      <trkpt lat="45.10848" lon="5.10139">
        <ele>270.58200073242</ele>
        <time>2011-01-22T13:05:37Z</time>
      </trkpt>
      <trkpt lat="45.10868" lon="5.10171">
        <ele>271.27200317383</ele>
        <time>2011-01-22T13:05:44Z</time>
      </trkpt>
      <trkpt lat="45.10891" lon="5.102">
        <ele>273.0539855957</ele>
        <time>2011-01-22T13:05:52Z</time>
      </trkpt>
      <trkpt lat="45.10913" lon="5.10233">
        <ele>275.59100341797</ele>
        <time>2011-01-22T13:06:01Z</time>
      </trkpt>
      <trkpt lat="45.1092" lon="5.10257">
        <ele>277.91400146484</ele>
        <time>2011-01-22T13:06:06Z</time>
      </trkpt>
      <trkpt lat="45.10929" lon="5.10302">
        <ele>282.52499389648</ele>
        <time>2011-01-22T13:06:14Z</time>
      </trkpt>
      <trkpt lat="45.10936" lon="5.10335">
        <ele>286.12899780273</ele>
        <time>2011-01-22T13:06:20Z</time>
      </trkpt>
      <trkpt lat="45.10943" lon="5.10363">
        <ele>290.53900146484</ele>
        <time>2011-01-22T13:06:27Z</time>
      </trkpt>
      <trkpt lat="45.10947" lon="5.10382">
        <ele>293.25900268555</ele>
        <time>2011-01-22T13:06:33Z</time>
      </trkpt>
      <trkpt lat="45.10947" lon="5.10385">
        <ele>293.52099609375</ele>
        <time>2011-01-22T13:06:34Z</time>
      </trkpt>
      <trkpt lat="45.10952" lon="5.10403">
        <ele>295.75399780273</ele>
        <time>2011-01-22T13:06:40Z</time>
      </trkpt>
      <trkpt lat="45.10959" lon="5.10421">
        <ele>297.39099121094</ele>
        <time>2011-01-22T13:06:46Z</time>
      </trkpt>
      <trkpt lat="45.10972" lon="5.10446">
        <ele>299.08801269531</ele>
        <time>2011-01-22T13:06:54Z</time>
      </trkpt>
      <trkpt lat="45.10987" lon="5.10471">
        <ele>300.55099487305</ele>
        <time>2011-01-22T13:07:02Z</time>
      </trkpt>
      <trkpt lat="45.11005" lon="5.10505">
        <ele>303.55700683594</ele>
        <time>2011-01-22T13:07:12Z</time>
      </trkpt>
      <trkpt lat="45.1102" lon="5.10537">
        <ele>305.31298828125</ele>
        <time>2011-01-22T13:07:21Z</time>
      </trkpt>
      <trkpt lat="45.11032" lon="5.10566">
        <ele>306.93701171875</ele>
        <time>2011-01-22T13:07:29Z</time>
      </trkpt>
      <trkpt lat="45.11032" lon="5.10576">
        <ele>307.6549987793</ele>
        <time>2011-01-22T13:07:32Z</time>
      </trkpt>
      <trkpt lat="45.11029" lon="5.10579">
        <ele>308.46798706055</ele>
        <time>2011-01-22T13:07:37Z</time>
      </trkpt>
      <trkpt lat="45.11027" lon="5.10578">
        <ele>308.42498779297</ele>
        <time>2011-01-22T13:07:39Z</time>
      </trkpt>
      <trkpt lat="45.11023" lon="5.10578">
        <ele>308.62799072266</ele>
        <time>2011-01-22T13:07:44Z</time>
      </trkpt>
      <trkpt lat="45.11013" lon="5.10574">
        <ele>308.52099609375</ele>
        <time>2011-01-22T13:07:52Z</time>
      </trkpt>
      <trkpt lat="45.10996" lon="5.10567">
        <ele>308.41198730469</ele>
        <time>2011-01-22T13:08:00Z</time>
      </trkpt>
      <trkpt lat="45.10973" lon="5.10559">
        <ele>307.71200561523</ele>
        <time>2011-01-22T13:08:07Z</time>
      </trkpt>
      <trkpt lat="45.10957" lon="5.10553">
        <ele>307.34698486328</ele>
        <time>2011-01-22T13:08:11Z</time>
      </trkpt>
      <trkpt lat="45.10931" lon="5.10543">
        <ele>306.64898681641</ele>
        <time>2011-01-22T13:08:17Z</time>
      </trkpt>
      <trkpt lat="45.10919" lon="5.10552">
        <ele>307.10998535156</ele>
        <time>2011-01-22T13:08:21Z</time>
      </trkpt>
      <trkpt lat="45.10914" lon="5.10576">
        <ele>307.09698486328</ele>
        <time>2011-01-22T13:08:25Z</time>
      </trkpt>
      <trkpt lat="45.1091" lon="5.10625">
        <ele>307.84298706055</ele>
        <time>2011-01-22T13:08:32Z</time>
      </trkpt>
      <trkpt lat="45.10907" lon="5.10681">
        <ele>308.01098632812</ele>
        <time>2011-01-22T13:08:40Z</time>
      </trkpt>
      <trkpt lat="45.10904" lon="5.10735">
        <ele>306.83200073242</ele>
        <time>2011-01-22T13:08:47Z</time>
      </trkpt>
      <trkpt lat="45.10901" lon="5.10771">
        <ele>305.04699707031</ele>
        <time>2011-01-22T13:08:51Z</time>
      </trkpt>
      <trkpt lat="45.109" lon="5.10808">
        <ele>303.7919921875</ele>
        <time>2011-01-22T13:08:55Z</time>
      </trkpt>
      <trkpt lat="45.10912" lon="5.10862">
        <ele>301.95599365234</ele>
        <time>2011-01-22T13:09:01Z</time>
      </trkpt>
      <trkpt lat="45.10921" lon="5.10901">
        <ele>302.53100585938</ele>
        <time>2011-01-22T13:09:06Z</time>
      </trkpt>
      <trkpt lat="45.10925" lon="5.10914">
        <ele>302.37600708008</ele>
        <time>2011-01-22T13:09:08Z</time>
      </trkpt>
      <trkpt lat="45.10939" lon="5.10952">
        <ele>300.68499755859</ele>
        <time>2011-01-22T13:09:13Z</time>
      </trkpt>
      <trkpt lat="45.10962" lon="5.10973">
        <ele>300.36599731445</ele>
        <time>2011-01-22T13:09:18Z</time>
      </trkpt>
      <trkpt lat="45.10975" lon="5.10991">
        <ele>300.20498657227</ele>
        <time>2011-01-22T13:09:22Z</time>
      </trkpt>
      <trkpt lat="45.1097" lon="5.11004">
        <ele>300.125</ele>
        <time>2011-01-22T13:09:24Z</time>
      </trkpt>
      <trkpt lat="45.10954" lon="5.11057">
        <ele>300.39099121094</ele>
        <time>2011-01-22T13:09:32Z</time>
      </trkpt>
      <trkpt lat="45.10942" lon="5.11096">
        <ele>297.78298950195</ele>
        <time>2011-01-22T13:09:36Z</time>
      </trkpt>
      <trkpt lat="45.10936" lon="5.11137">
        <ele>295.10101318359</ele>
        <time>2011-01-22T13:09:39Z</time>
      </trkpt>
      <trkpt lat="45.10941" lon="5.11209">
        <ele>291.10598754883</ele>
        <time>2011-01-22T13:09:44Z</time>
      </trkpt>
      <trkpt lat="45.10946" lon="5.11237">
        <ele>289.60299682617</ele>
        <time>2011-01-22T13:09:47Z</time>
      </trkpt>
      <trkpt lat="45.10946" lon="5.11244">
        <ele>289.07000732422</ele>
        <time>2011-01-22T13:09:48Z</time>
      </trkpt>
      <trkpt lat="45.10936" lon="5.11261">
        <ele>288.61999511719</ele>
        <time>2011-01-22T13:09:52Z</time>
      </trkpt>
      <trkpt lat="45.10927" lon="5.11268">
        <ele>288.66198730469</ele>
        <time>2011-01-22T13:09:54Z</time>
      </trkpt>
      <trkpt lat="45.10909" lon="5.11302">
        <ele>288.86801147461</ele>
        <time>2011-01-22T13:10:00Z</time>
      </trkpt>
      <trkpt lat="45.10907" lon="5.11309">
        <ele>288.86801147461</ele>
        <time>2011-01-22T13:10:01Z</time>
      </trkpt>
      <trkpt lat="45.10898" lon="5.11367">
        <ele>290.20498657227</ele>
        <time>2011-01-22T13:10:09Z</time>
      </trkpt>
      <trkpt lat="45.10885" lon="5.11411">
        <ele>292.60699462891</ele>
        <time>2011-01-22T13:10:16Z</time>
      </trkpt>
      <trkpt lat="45.1087" lon="5.1146">
        <ele>293.85198974609</ele>
        <time>2011-01-22T13:10:24Z</time>
      </trkpt>
      <trkpt lat="45.10859" lon="5.11503">
        <ele>293.20498657227</ele>
        <time>2011-01-22T13:10:30Z</time>
      </trkpt>
      <trkpt lat="45.10843" lon="5.11552">
        <ele>291.67001342773</ele>
        <time>2011-01-22T13:10:36Z</time>
      </trkpt>
      <trkpt lat="45.10833" lon="5.1158">
        <ele>290.63800048828</ele>
        <time>2011-01-22T13:10:39Z</time>
      </trkpt>
      <trkpt lat="45.10818" lon="5.11618">
        <ele>289.48699951172</ele>
        <time>2011-01-22T13:10:43Z</time>
      </trkpt>
      <trkpt lat="45.108" lon="5.11669">
        <ele>287.48999023438</ele>
        <time>2011-01-22T13:10:48Z</time>
      </trkpt>
      <trkpt lat="45.10782" lon="5.11715">
        <ele>286.75</ele>
        <time>2011-01-22T13:10:53Z</time>
      </trkpt>
      <trkpt lat="45.1076" lon="5.11765">
        <ele>286.09600830078</ele>
        <time>2011-01-22T13:10:59Z</time>
      </trkpt>
      <trkpt lat="45.10757" lon="5.11773">
        <ele>285.96099853516</ele>
        <time>2011-01-22T13:11:00Z</time>
      </trkpt>
      <trkpt lat="45.10737" lon="5.11795">
        <ele>285.70001220703</ele>
        <time>2011-01-22T13:11:04Z</time>
      </trkpt>
      <trkpt lat="45.10731" lon="5.11798">
        <ele>285.78298950195</ele>
        <time>2011-01-22T13:11:05Z</time>
      </trkpt>
      <trkpt lat="45.10692" lon="5.11814">
        <ele>285.88500976562</ele>
        <time>2011-01-22T13:11:12Z</time>
      </trkpt>
      <trkpt lat="45.10677" lon="5.11834">
        <ele>285.6789855957</ele>
        <time>2011-01-22T13:11:16Z</time>
      </trkpt>
      <trkpt lat="45.10652" lon="5.11863">
        <ele>283.30499267578</ele>
        <time>2011-01-22T13:11:21Z</time>
      </trkpt>
      <trkpt lat="45.10644" lon="5.11864">
        <ele>282.84799194336</ele>
        <time>2011-01-22T13:11:22Z</time>
      </trkpt>
      <trkpt lat="45.10599" lon="5.11869">
        <ele>280.05801391602</ele>
        <time>2011-01-22T13:11:27Z</time>
      </trkpt>
      <trkpt lat="45.1058" lon="5.11876">
        <ele>278.8219909668</ele>
        <time>2011-01-22T13:11:29Z</time>
      </trkpt>
      <trkpt lat="45.10563" lon="5.11889">
        <ele>278.07998657227</ele>
        <time>2011-01-22T13:11:31Z</time>
      </trkpt>
      <trkpt lat="45.10545" lon="5.11919">
        <ele>277.15600585938</ele>
        <time>2011-01-22T13:11:34Z</time>
      </trkpt>
      <trkpt lat="45.10541" lon="5.11947">
        <ele>276.39099121094</ele>
        <time>2011-01-22T13:11:36Z</time>
      </trkpt>
      <trkpt lat="45.1054" lon="5.11992">
        <ele>272.60800170898</ele>
        <time>2011-01-22T13:11:39Z</time>
      </trkpt>
      <trkpt lat="45.10547" lon="5.12031">
        <ele>270.0539855957</ele>
        <time>2011-01-22T13:11:42Z</time>
      </trkpt>
      <trkpt lat="45.10564" lon="5.12046">
        <ele>268.76501464844</ele>
        <time>2011-01-22T13:11:44Z</time>
      </trkpt>
      <trkpt lat="45.10599" lon="5.12048">
        <ele>265.98901367188</ele>
        <time>2011-01-22T13:11:47Z</time>
      </trkpt>
      <trkpt lat="45.1061" lon="5.12044">
        <ele>264.95199584961</ele>
        <time>2011-01-22T13:11:48Z</time>
      </trkpt>
      <trkpt lat="45.10668" lon="5.12041">
        <ele>260.29299926758</ele>
        <time>2011-01-22T13:11:53Z</time>
      </trkpt>
      <trkpt lat="45.10701" lon="5.12061">
        <ele>256.89700317383</ele>
        <time>2011-01-22T13:11:56Z</time>
      </trkpt>
      <trkpt lat="45.10724" lon="5.12091">
        <ele>254.43299865723</ele>
        <time>2011-01-22T13:11:59Z</time>
      </trkpt>
      <trkpt lat="45.10733" lon="5.12107">
        <ele>252.4880065918</ele>
        <time>2011-01-22T13:12:01Z</time>
      </trkpt>
      <trkpt lat="45.10738" lon="5.1212">
        <ele>251.56199645996</ele>
        <time>2011-01-22T13:12:03Z</time>
      </trkpt>
      <trkpt lat="45.10741" lon="5.12134">
        <ele>250.90100097656</ele>
        <time>2011-01-22T13:12:07Z</time>
      </trkpt>
      <trkpt lat="45.1074" lon="5.12148">
        <ele>250.66299438477</ele>
        <time>2011-01-22T13:12:13Z</time>
      </trkpt>
      <trkpt lat="45.10731" lon="5.12164">
        <ele>249.92799377441</ele>
        <time>2011-01-22T13:12:19Z</time>
      </trkpt>
      <trkpt lat="45.10725" lon="5.12171">
        <ele>250.04200744629</ele>
        <time>2011-01-22T13:12:21Z</time>
      </trkpt>
      <trkpt lat="45.10719" lon="5.12177">
        <ele>250.02000427246</ele>
        <time>2011-01-22T13:12:23Z</time>
      </trkpt>
      <trkpt lat="45.10686" lon="5.12193">
        <ele>249.55700683594</ele>
        <time>2011-01-22T13:12:30Z</time>
      </trkpt>
      <trkpt lat="45.10645" lon="5.12203">
        <ele>248.28100585938</ele>
        <time>2011-01-22T13:12:37Z</time>
      </trkpt>
      <trkpt lat="45.10599" lon="5.12213">
        <ele>247.01100158691</ele>
        <time>2011-01-22T13:12:44Z</time>
      </trkpt>
      <trkpt lat="45.10553" lon="5.12231">
        <ele>246.39799499512</ele>
        <time>2011-01-22T13:12:51Z</time>
      </trkpt>
      <trkpt lat="45.10527" lon="5.12257">
        <ele>246.28500366211</ele>
        <time>2011-01-22T13:12:56Z</time>
      </trkpt>
      <trkpt lat="45.10522" lon="5.12273">
        <ele>246.06700134277</ele>
        <time>2011-01-22T13:12:58Z</time>
      </trkpt>
      <trkpt lat="45.10519" lon="5.12289">
        <ele>245.94299316406</ele>
        <time>2011-01-22T13:13:00Z</time>
      </trkpt>
      <trkpt lat="45.10521" lon="5.12326">
        <ele>245.82800292969</ele>
        <time>2011-01-22T13:13:04Z</time>
      </trkpt>
      <trkpt lat="45.10542" lon="5.12383">
        <ele>244.53999328613</ele>
        <time>2011-01-22T13:13:11Z</time>
      </trkpt>
      <trkpt lat="45.10579" lon="5.12466">
        <ele>242.93099975586</ele>
        <time>2011-01-22T13:13:22Z</time>
      </trkpt>
      <trkpt lat="45.10593" lon="5.12497">
        <ele>242.45100402832</ele>
        <time>2011-01-22T13:13:26Z</time>
      </trkpt>
      <trkpt lat="45.10598" lon="5.12513">
        <ele>242.01600646973</ele>
        <time>2011-01-22T13:13:28Z</time>
      </trkpt>
      <trkpt lat="45.10604" lon="5.12559">
        <ele>240.6609954834</ele>
        <time>2011-01-22T13:13:33Z</time>
      </trkpt>
      <trkpt lat="45.10602" lon="5.1257">
        <ele>239.91799926758</ele>
        <time>2011-01-22T13:13:34Z</time>
      </trkpt>
      <trkpt lat="45.10588" lon="5.12629">
        <ele>235.71499633789</ele>
        <time>2011-01-22T13:13:39Z</time>
      </trkpt>
      <trkpt lat="45.10566" lon="5.12658">
        <ele>233.01100158691</ele>
        <time>2011-01-22T13:13:43Z</time>
      </trkpt>
      <trkpt lat="45.10551" lon="5.12683">
        <ele>231.60000610352</ele>
        <time>2011-01-22T13:13:46Z</time>
      </trkpt>
      <trkpt lat="45.10545" lon="5.12701">
        <ele>230.6549987793</ele>
        <time>2011-01-22T13:13:48Z</time>
      </trkpt>
      <trkpt lat="45.10543" lon="5.12736">
        <ele>229.36700439453</ele>
        <time>2011-01-22T13:13:53Z</time>
      </trkpt>
      <trkpt lat="45.10553" lon="5.12749">
        <ele>229.06100463867</ele>
        <time>2011-01-22T13:13:56Z</time>
      </trkpt>
      <trkpt lat="45.1056" lon="5.12767">
        <ele>229.02900695801</ele>
        <time>2011-01-22T13:13:59Z</time>
      </trkpt>
      <trkpt lat="45.10571" lon="5.12807">
        <ele>229.77600097656</ele>
        <time>2011-01-22T13:14:05Z</time>
      </trkpt>
      <trkpt lat="45.10584" lon="5.1283">
        <ele>229.15100097656</ele>
        <time>2011-01-22T13:14:09Z</time>
      </trkpt>
      <trkpt lat="45.10604" lon="5.12835">
        <ele>228.87800598144</ele>
        <time>2011-01-22T13:14:13Z</time>
      </trkpt>
      <trkpt lat="45.10657" lon="5.12829">
        <ele>228.8390045166</ele>
        <time>2011-01-22T13:14:24Z</time>
      </trkpt>
      <trkpt lat="45.10701" lon="5.12824">
        <ele>229.45100402832</ele>
        <time>2011-01-22T13:14:33Z</time>
      </trkpt>
      <trkpt lat="45.10725" lon="5.12822">
        <ele>230.21200561523</ele>
        <time>2011-01-22T13:14:38Z</time>
      </trkpt>
      <trkpt lat="45.1073" lon="5.12821">
        <ele>230.25500488281</ele>
        <time>2011-01-22T13:14:39Z</time>
      </trkpt>
      <trkpt lat="45.10764" lon="5.12816">
        <ele>230.90800476074</ele>
        <time>2011-01-22T13:14:46Z</time>
      </trkpt>
      <trkpt lat="45.10799" lon="5.12801">
        <ele>232.05599975586</ele>
        <time>2011-01-22T13:14:54Z</time>
      </trkpt>
      <trkpt lat="45.10832" lon="5.12781">
        <ele>233.31100463867</ele>
        <time>2011-01-22T13:15:02Z</time>
      </trkpt>
      <trkpt lat="45.10865" lon="5.1276">
        <ele>234.55999755859</ele>
        <time>2011-01-22T13:15:10Z</time>
      </trkpt>
      <trkpt lat="45.10907" lon="5.12733">
        <ele>236.13600158691</ele>
        <time>2011-01-22T13:15:20Z</time>
      </trkpt>
      <trkpt lat="45.10949" lon="5.12704">
        <ele>237.3690032959</ele>
        <time>2011-01-22T13:15:30Z</time>
      </trkpt>
      <trkpt lat="45.10992" lon="5.12684">
        <ele>238.97399902344</ele>
        <time>2011-01-22T13:15:40Z</time>
      </trkpt>
      <trkpt lat="45.11034" lon="5.12665">
        <ele>240.45199584961</ele>
        <time>2011-01-22T13:15:50Z</time>
      </trkpt>
      <trkpt lat="45.11086" lon="5.12642">
        <ele>240.2440032959</ele>
        <time>2011-01-22T13:16:01Z</time>
      </trkpt>
      <trkpt lat="45.11117" lon="5.12621">
        <ele>240.80200195312</ele>
        <time>2011-01-22T13:16:08Z</time>
      </trkpt>
      <trkpt lat="45.11156" lon="5.1258">
        <ele>241.81599426269</ele>
        <time>2011-01-22T13:16:18Z</time>
      </trkpt>
      <trkpt lat="45.11185" lon="5.12551">
        <ele>242.33999633789</ele>
        <time>2011-01-22T13:16:25Z</time>
      </trkpt>
      <trkpt lat="45.11211" lon="5.12534">
        <ele>242.87199401856</ele>
        <time>2011-01-22T13:16:31Z</time>
      </trkpt>
      <trkpt lat="45.1126" lon="5.12527">
        <ele>245.14999389648</ele>
        <time>2011-01-22T13:16:42Z</time>
      </trkpt>
      <trkpt lat="45.11297" lon="5.12518">
        <ele>247.42599487305</ele>
        <time>2011-01-22T13:16:51Z</time>
      </trkpt>
      <trkpt lat="45.11331" lon="5.12504">
        <ele>249.66600036621</ele>
        <time>2011-01-22T13:17:00Z</time>
      </trkpt>
      <trkpt lat="45.11375" lon="5.12485">
        <ele>251.21499633789</ele>
        <time>2011-01-22T13:17:11Z</time>
      </trkpt>
      <trkpt lat="45.11392" lon="5.12477">
        <ele>251.59199523926</ele>
        <time>2011-01-22T13:17:15Z</time>
      </trkpt>
      <trkpt lat="45.1141" lon="5.12466">
        <ele>251.42999267578</ele>
        <time>2011-01-22T13:17:19Z</time>
      </trkpt>
      <trkpt lat="45.11452" lon="5.12448">
        <ele>250.20199584961</ele>
        <time>2011-01-22T13:17:28Z</time>
      </trkpt>
      <trkpt lat="45.11488" lon="5.12434">
        <ele>249.95199584961</ele>
        <time>2011-01-22T13:17:35Z</time>
      </trkpt>
      <trkpt lat="45.11514" lon="5.12441">
        <ele>249.63900756836</ele>
        <time>2011-01-22T13:17:40Z</time>
      </trkpt>
      <trkpt lat="45.11522" lon="5.12449">
        <ele>249.50399780273</ele>
        <time>2011-01-22T13:17:42Z</time>
      </trkpt>
      <trkpt lat="45.11553" lon="5.12496">
        <ele>250.04699707031</ele>
        <time>2011-01-22T13:17:51Z</time>
      </trkpt>
      <trkpt lat="45.11571" lon="5.12522">
        <ele>251.30499267578</ele>
        <time>2011-01-22T13:17:57Z</time>
      </trkpt>
      <trkpt lat="45.11589" lon="5.12533">
        <ele>252.52900695801</ele>
        <time>2011-01-22T13:18:02Z</time>
      </trkpt>
      <trkpt lat="45.11603" lon="5.12525">
        <ele>253.66400146484</ele>
        <time>2011-01-22T13:18:06Z</time>
      </trkpt>
      <trkpt lat="45.11608" lon="5.12518">
        <ele>254.47200012207</ele>
        <time>2011-01-22T13:18:08Z</time>
      </trkpt>
      <trkpt lat="45.1163" lon="5.12492">
        <ele>256.57299804688</ele>
        <time>2011-01-22T13:18:16Z</time>
      </trkpt>
      <trkpt lat="45.11654" lon="5.12478">
        <ele>258.52600097656</ele>
        <time>2011-01-22T13:18:23Z</time>
      </trkpt>
      <trkpt lat="45.11674" lon="5.12467">
        <ele>259.75601196289</ele>
        <time>2011-01-22T13:18:29Z</time>
      </trkpt>
      <trkpt lat="45.117" lon="5.12453">
        <ele>262.2080078125</ele>
        <time>2011-01-22T13:18:37Z</time>
      </trkpt>
      <trkpt lat="45.11722" lon="5.12438">
        <ele>263.94400024414</ele>
        <time>2011-01-22T13:18:44Z</time>
      </trkpt>
      <trkpt lat="45.11744" lon="5.12419">
        <ele>265.70001220703</ele>
        <time>2011-01-22T13:18:51Z</time>
      </trkpt>
      <trkpt lat="45.11753" lon="5.12405">
        <ele>266.48400878906</ele>
        <time>2011-01-22T13:18:55Z</time>
      </trkpt>
      <trkpt lat="45.11775" lon="5.12379">
        <ele>268.12298583984</ele>
        <time>2011-01-22T13:19:03Z</time>
      </trkpt>
      <trkpt lat="45.11789" lon="5.1235">
        <ele>270.03399658203</ele>
        <time>2011-01-22T13:19:10Z</time>
      </trkpt>
      <trkpt lat="45.11805" lon="5.12298">
        <ele>272.55999755859</ele>
        <time>2011-01-22T13:19:20Z</time>
      </trkpt>
      <trkpt lat="45.11816" lon="5.12253">
        <ele>274.82998657227</ele>
        <time>2011-01-22T13:19:28Z</time>
      </trkpt>
      <trkpt lat="45.11822" lon="5.12213">
        <ele>276.83200073242</ele>
        <time>2011-01-22T13:19:35Z</time>
      </trkpt>
      <trkpt lat="45.11826" lon="5.12163">
        <ele>278.98400878906</ele>
        <time>2011-01-22T13:19:43Z</time>
      </trkpt>
      <trkpt lat="45.11835" lon="5.12132">
        <ele>280.80499267578</ele>
        <time>2011-01-22T13:19:48Z</time>
      </trkpt>
      <trkpt lat="45.11852" lon="5.1212">
        <ele>281.80099487305</ele>
        <time>2011-01-22T13:19:52Z</time>
      </trkpt>
      <trkpt lat="45.11871" lon="5.12125">
        <ele>282.8039855957</ele>
        <time>2011-01-22T13:19:56Z</time>
      </trkpt>
      <trkpt lat="45.11879" lon="5.1213">
        <ele>283.05801391602</ele>
        <time>2011-01-22T13:19:58Z</time>
      </trkpt>
      <trkpt lat="45.1191" lon="5.12165">
        <ele>284.76300048828</ele>
        <time>2011-01-22T13:20:07Z</time>
      </trkpt>
      <trkpt lat="45.11938" lon="5.12203">
        <ele>284.87701416016</ele>
        <time>2011-01-22T13:20:16Z</time>
      </trkpt>
      <trkpt lat="45.11958" lon="5.12232">
        <ele>284.83898925781</ele>
        <time>2011-01-22T13:20:23Z</time>
      </trkpt>
      <trkpt lat="45.11986" lon="5.12267">
        <ele>285.00201416016</ele>
        <time>2011-01-22T13:20:31Z</time>
      </trkpt>
      <trkpt lat="45.12003" lon="5.12289">
        <ele>285.14801025391</ele>
        <time>2011-01-22T13:20:36Z</time>
      </trkpt>
      <trkpt lat="45.12024" lon="5.12298">
        <ele>285.17199707031</ele>
        <time>2011-01-22T13:20:41Z</time>
      </trkpt>
      <trkpt lat="45.12057" lon="5.12296">
        <ele>286.24600219727</ele>
        <time>2011-01-22T13:20:49Z</time>
      </trkpt>
      <trkpt lat="45.1209" lon="5.12292">
        <ele>287.78601074219</ele>
        <time>2011-01-22T13:20:58Z</time>
      </trkpt>
      <trkpt lat="45.12117" lon="5.12298">
        <ele>290.00601196289</ele>
        <time>2011-01-22T13:21:06Z</time>
      </trkpt>
      <trkpt lat="45.12144" lon="5.12312">
        <ele>291.3450012207</ele>
        <time>2011-01-22T13:21:14Z</time>
      </trkpt>
      <trkpt lat="45.12176" lon="5.12327">
        <ele>291.04299926758</ele>
        <time>2011-01-22T13:21:22Z</time>
      </trkpt>
      <trkpt lat="45.12216" lon="5.12348">
        <ele>291.32998657227</ele>
        <time>2011-01-22T13:21:32Z</time>
      </trkpt>
      <trkpt lat="45.12251" lon="5.12363">
        <ele>290.71200561523</ele>
        <time>2011-01-22T13:21:40Z</time>
      </trkpt>
      <trkpt lat="45.12287" lon="5.1237">
        <ele>289.48699951172</ele>
        <time>2011-01-22T13:21:46Z</time>
      </trkpt>
      <trkpt lat="45.12293" lon="5.1237">
        <ele>288.97399902344</ele>
        <time>2011-01-22T13:21:47Z</time>
      </trkpt>
      <trkpt lat="45.12313" lon="5.12361">
        <ele>287.65600585938</ele>
        <time>2011-01-22T13:21:50Z</time>
      </trkpt>
      <trkpt lat="45.12328" lon="5.12338">
        <ele>286.98400878906</ele>
        <time>2011-01-22T13:21:53Z</time>
      </trkpt>
      <trkpt lat="45.1234" lon="5.12326">
        <ele>287.39498901367</ele>
        <time>2011-01-22T13:21:55Z</time>
      </trkpt>
      <trkpt lat="45.12353" lon="5.12325">
        <ele>287.11801147461</ele>
        <time>2011-01-22T13:21:57Z</time>
      </trkpt>
      <trkpt lat="45.12385" lon="5.12333">
        <ele>287.22299194336</ele>
        <time>2011-01-22T13:22:04Z</time>
      </trkpt>
      <trkpt lat="45.12411" lon="5.12337">
        <ele>289.30599975586</ele>
        <time>2011-01-22T13:22:11Z</time>
      </trkpt>
      <trkpt lat="45.12434" lon="5.1233">
        <ele>291.56799316406</ele>
        <time>2011-01-22T13:22:18Z</time>
      </trkpt>
      <trkpt lat="45.12455" lon="5.12324">
        <ele>293.71600341797</ele>
        <time>2011-01-22T13:22:25Z</time>
      </trkpt>
      <trkpt lat="45.12474" lon="5.12317">
        <ele>295.70498657227</ele>
        <time>2011-01-22T13:22:31Z</time>
      </trkpt>
      <trkpt lat="45.12497" lon="5.12309">
        <ele>297.90899658203</ele>
        <time>2011-01-22T13:22:39Z</time>
      </trkpt>
      <trkpt lat="45.12517" lon="5.12303">
        <ele>300.09201049805</ele>
        <time>2011-01-22T13:22:46Z</time>
      </trkpt>
      <trkpt lat="45.12534" lon="5.12297">
        <ele>301.81600952148</ele>
        <time>2011-01-22T13:22:52Z</time>
      </trkpt>
      <trkpt lat="45.12554" lon="5.1229">
        <ele>303.64801025391</ele>
        <time>2011-01-22T13:22:59Z</time>
      </trkpt>
      <trkpt lat="45.12579" lon="5.12283">
        <ele>305.21499633789</ele>
        <time>2011-01-22T13:23:07Z</time>
      </trkpt>
      <trkpt lat="45.12603" lon="5.12278">
        <ele>306.77099609375</ele>
        <time>2011-01-22T13:23:15Z</time>
      </trkpt>
      <trkpt lat="45.12626" lon="5.12276">
        <ele>307.9580078125</ele>
        <time>2011-01-22T13:23:22Z</time>
      </trkpt>
      <trkpt lat="45.12648" lon="5.12274">
        <ele>309.34298706055</ele>
        <time>2011-01-22T13:23:29Z</time>
      </trkpt>
      <trkpt lat="45.12669" lon="5.1226">
        <ele>310.76901245117</ele>
        <time>2011-01-22T13:23:36Z</time>
      </trkpt>
      <trkpt lat="45.12684" lon="5.12238">
        <ele>312.20498657227</ele>
        <time>2011-01-22T13:23:43Z</time>
      </trkpt>
      <trkpt lat="45.12703" lon="5.12213">
        <ele>313.6369934082</ele>
        <time>2011-01-22T13:23:51Z</time>
      </trkpt>
      <trkpt lat="45.12727" lon="5.1219">
        <ele>315.39801025391</ele>
        <time>2011-01-22T13:24:00Z</time>
      </trkpt>
      <trkpt lat="45.12753" lon="5.12176">
        <ele>316.89999389648</ele>
        <time>2011-01-22T13:24:09Z</time>
      </trkpt>
      <trkpt lat="45.12781" lon="5.12167">
        <ele>318.68301391602</ele>
        <time>2011-01-22T13:24:18Z</time>
      </trkpt>
      <trkpt lat="45.12806" lon="5.12159">
        <ele>320.98098754883</ele>
        <time>2011-01-22T13:24:26Z</time>
      </trkpt>
      <trkpt lat="45.12826" lon="5.12147">
        <ele>322.86499023438</ele>
        <time>2011-01-22T13:24:33Z</time>
      </trkpt>
      <trkpt lat="45.12854" lon="5.12132">
        <ele>325.81100463867</ele>
        <time>2011-01-22T13:24:43Z</time>
      </trkpt>
      <trkpt lat="45.12876" lon="5.12121">
        <ele>328.0950012207</ele>
        <time>2011-01-22T13:24:50Z</time>
      </trkpt>
      <trkpt lat="45.12901" lon="5.12106">
        <ele>331.68701171875</ele>
        <time>2011-01-22T13:24:58Z</time>
      </trkpt>
      <trkpt lat="45.12917" lon="5.12097">
        <ele>333.61801147461</ele>
        <time>2011-01-22T13:25:03Z</time>
      </trkpt>
      <trkpt lat="45.12938" lon="5.121">
        <ele>335.33898925781</ele>
        <time>2011-01-22T13:25:09Z</time>
      </trkpt>
      <trkpt lat="45.12944" lon="5.12105">
        <ele>336.01699829102</ele>
        <time>2011-01-22T13:25:11Z</time>
      </trkpt>
      <trkpt lat="45.12957" lon="5.1212">
        <ele>338.33499145508</ele>
        <time>2011-01-22T13:25:16Z</time>
      </trkpt>
      <trkpt lat="45.12976" lon="5.12142">
        <ele>340.09600830078</ele>
        <time>2011-01-22T13:25:24Z</time>
      </trkpt>
      <trkpt lat="45.12983" lon="5.12148">
        <ele>341.47100830078</ele>
        <time>2011-01-22T13:25:29Z</time>
      </trkpt>
      <trkpt lat="45.12985" lon="5.1215">
        <ele>341.49600219727</ele>
        <time>2011-01-22T13:25:31Z</time>
      </trkpt>
      <trkpt lat="45.12988" lon="5.12145">
        <ele>341.35101318359</ele>
        <time>2011-01-22T13:25:35Z</time>
      </trkpt>
      <trkpt lat="45.12985" lon="5.12145">
        <ele>341.30200195312</ele>
        <time>2011-01-22T13:25:37Z</time>
      </trkpt>
      <trkpt lat="45.12983" lon="5.12146">
        <ele>341.14898681641</ele>
        <time>2011-01-22T13:25:39Z</time>
      </trkpt>
      <trkpt lat="45.12983" lon="5.12154">
        <ele>340.8219909668</ele>
        <time>2011-01-22T13:25:45Z</time>
      </trkpt>
      <trkpt lat="45.12983" lon="5.12155">
        <ele>340.74798583984</ele>
        <time>2011-01-22T13:25:46Z</time>
      </trkpt>
      <trkpt lat="45.12983" lon="5.12158">
        <ele>340.79901123047</ele>
        <time>2011-01-22T13:25:50Z</time>
      </trkpt>
      <trkpt lat="45.12979" lon="5.12166">
        <ele>340.59201049805</ele>
        <time>2011-01-22T13:26:39Z</time>
      </trkpt>
      <trkpt lat="45.12976" lon="5.12183">
        <ele>339.73199462891</ele>
        <time>2011-01-22T13:26:43Z</time>
      </trkpt>
      <trkpt lat="45.12972" lon="5.12221">
        <ele>337.69900512695</ele>
        <time>2011-01-22T13:26:48Z</time>
      </trkpt>
      <trkpt lat="45.12965" lon="5.12285">
        <ele>335.98599243164</ele>
        <time>2011-01-22T13:26:55Z</time>
      </trkpt>
      <trkpt lat="45.12962" lon="5.12314">
        <ele>335.69400024414</ele>
        <time>2011-01-22T13:26:58Z</time>
      </trkpt>
      <trkpt lat="45.12962" lon="5.12343">
        <ele>335.59799194336</ele>
        <time>2011-01-22T13:27:01Z</time>
      </trkpt>
      <trkpt lat="45.12974" lon="5.12413">
        <ele>334.47399902344</ele>
        <time>2011-01-22T13:27:08Z</time>
      </trkpt>
      <trkpt lat="45.12978" lon="5.12431">
        <ele>334.52099609375</ele>
        <time>2011-01-22T13:27:10Z</time>
      </trkpt>
      <trkpt lat="45.12978" lon="5.12469">
        <ele>334.43798828125</ele>
        <time>2011-01-22T13:27:14Z</time>
      </trkpt>
      <trkpt lat="45.12967" lon="5.12489">
        <ele>334.77600097656</ele>
        <time>2011-01-22T13:27:17Z</time>
      </trkpt>
      <trkpt lat="45.12947" lon="5.12511">
        <ele>337.02301025391</ele>
        <time>2011-01-22T13:27:22Z</time>
      </trkpt>
      <trkpt lat="45.12926" lon="5.12531">
        <ele>338.5530090332</ele>
        <time>2011-01-22T13:27:28Z</time>
      </trkpt>
      <trkpt lat="45.12906" lon="5.12555">
        <ele>340.76400756836</ele>
        <time>2011-01-22T13:27:35Z</time>
      </trkpt>
      <trkpt lat="45.12901" lon="5.12564">
        <ele>341.11401367188</ele>
        <time>2011-01-22T13:27:37Z</time>
      </trkpt>
      <trkpt lat="45.12892" lon="5.12586">
        <ele>341.68798828125</ele>
        <time>2011-01-22T13:27:41Z</time>
      </trkpt>
      <trkpt lat="45.12891" lon="5.12608">
        <ele>341.88900756836</ele>
        <time>2011-01-22T13:27:45Z</time>
      </trkpt>
      <trkpt lat="45.129" lon="5.12645">
        <ele>343.50500488281</ele>
        <time>2011-01-22T13:27:52Z</time>
      </trkpt>
      <trkpt lat="45.1291" lon="5.12669">
        <ele>343.57000732422</ele>
        <time>2011-01-22T13:27:57Z</time>
      </trkpt>
      <trkpt lat="45.12918" lon="5.1269">
        <ele>344.15899658203</ele>
        <time>2011-01-22T13:28:01Z</time>
      </trkpt>
      <trkpt lat="45.12929" lon="5.12723">
        <ele>345.23999023438</ele>
        <time>2011-01-22T13:28:07Z</time>
      </trkpt>
      <trkpt lat="45.12931" lon="5.12741">
        <ele>345.57800292969</ele>
        <time>2011-01-22T13:28:10Z</time>
      </trkpt>
      <trkpt lat="45.12932" lon="5.12753">
        <ele>345.93200683594</ele>
        <time>2011-01-22T13:28:12Z</time>
      </trkpt>
      <trkpt lat="45.12924" lon="5.12782">
        <ele>345.10598754883</ele>
        <time>2011-01-22T13:28:17Z</time>
      </trkpt>
      <trkpt lat="45.12909" lon="5.1279">
        <ele>344.31500244141</ele>
        <time>2011-01-22T13:28:20Z</time>
      </trkpt>
      <trkpt lat="45.12902" lon="5.12791">
        <ele>343.92498779297</ele>
        <time>2011-01-22T13:28:21Z</time>
      </trkpt>
      <trkpt lat="45.12857" lon="5.12806">
        <ele>342.10699462891</ele>
        <time>2011-01-22T13:28:28Z</time>
      </trkpt>
      <trkpt lat="45.12819" lon="5.12824">
        <ele>341.54000854492</ele>
        <time>2011-01-22T13:28:34Z</time>
      </trkpt>
      <trkpt lat="45.12784" lon="5.1284">
        <ele>340.47198486328</ele>
        <time>2011-01-22T13:28:40Z</time>
      </trkpt>
      <trkpt lat="45.12778" lon="5.12843">
        <ele>340.76599121094</ele>
        <time>2011-01-22T13:28:41Z</time>
      </trkpt>
      <trkpt lat="45.12763" lon="5.12846">
        <ele>341.53698730469</ele>
        <time>2011-01-22T13:28:44Z</time>
      </trkpt>
      <trkpt lat="45.12745" lon="5.1284">
        <ele>342.49398803711</ele>
        <time>2011-01-22T13:28:48Z</time>
      </trkpt>
      <trkpt lat="45.12709" lon="5.128">
        <ele>343.77600097656</ele>
        <time>2011-01-22T13:28:57Z</time>
      </trkpt>
      <trkpt lat="45.12691" lon="5.12781">
        <ele>343.82699584961</ele>
        <time>2011-01-22T13:29:01Z</time>
      </trkpt>
      <trkpt lat="45.12676" lon="5.12768">
        <ele>343.57598876953</ele>
        <time>2011-01-22T13:29:04Z</time>
      </trkpt>
      <trkpt lat="45.12633" lon="5.1274">
        <ele>342.26599121094</ele>
        <time>2011-01-22T13:29:11Z</time>
      </trkpt>
      <trkpt lat="45.12613" lon="5.1273">
        <ele>341.76599121094</ele>
        <time>2011-01-22T13:29:14Z</time>
      </trkpt>
      <trkpt lat="45.12583" lon="5.12705">
        <ele>341.96899414062</ele>
        <time>2011-01-22T13:29:20Z</time>
      </trkpt>
      <trkpt lat="45.12578" lon="5.12701">
        <ele>341.84298706055</ele>
        <time>2011-01-22T13:29:21Z</time>
      </trkpt>
      <trkpt lat="45.12561" lon="5.12686">
        <ele>342.35101318359</ele>
        <time>2011-01-22T13:29:25Z</time>
      </trkpt>
      <trkpt lat="45.12538" lon="5.12683">
        <ele>344.23001098633</ele>
        <time>2011-01-22T13:29:30Z</time>
      </trkpt>
      <trkpt lat="45.12526" lon="5.12697">
        <ele>346.00500488281</ele>
        <time>2011-01-22T13:29:34Z</time>
      </trkpt>
      <trkpt lat="45.12516" lon="5.12723">
        <ele>347.19799804688</ele>
        <time>2011-01-22T13:29:39Z</time>
      </trkpt>
      <trkpt lat="45.12515" lon="5.1273">
        <ele>347.31100463867</ele>
        <time>2011-01-22T13:29:40Z</time>
      </trkpt>
      <trkpt lat="45.12511" lon="5.12776">
        <ele>346.15399169922</ele>
        <time>2011-01-22T13:29:46Z</time>
      </trkpt>
      <trkpt lat="45.12511" lon="5.12785">
        <ele>345.83898925781</ele>
        <time>2011-01-22T13:29:47Z</time>
      </trkpt>
      <trkpt lat="45.12511" lon="5.12803">
        <ele>345.51800537109</ele>
        <time>2011-01-22T13:29:49Z</time>
      </trkpt>
      <trkpt lat="45.12522" lon="5.12848">
        <ele>344.81298828125</ele>
        <time>2011-01-22T13:29:54Z</time>
      </trkpt>
      <trkpt lat="45.12548" lon="5.12906">
        <ele>344.85900878906</ele>
        <time>2011-01-22T13:30:02Z</time>
      </trkpt>
      <trkpt lat="45.12554" lon="5.12921">
        <ele>344.79901123047</ele>
        <time>2011-01-22T13:30:04Z</time>
      </trkpt>
      <trkpt lat="45.12561" lon="5.12974">
        <ele>344.36898803711</ele>
        <time>2011-01-22T13:30:10Z</time>
      </trkpt>
      <trkpt lat="45.12562" lon="5.12992">
        <ele>344.38000488281</ele>
        <time>2011-01-22T13:30:12Z</time>
      </trkpt>
      <trkpt lat="45.12554" lon="5.13027">
        <ele>343.97698974609</ele>
        <time>2011-01-22T13:30:16Z</time>
      </trkpt>
      <trkpt lat="45.1255" lon="5.13034">
        <ele>343.89199829102</ele>
        <time>2011-01-22T13:30:17Z</time>
      </trkpt>
      <trkpt lat="45.12523" lon="5.13088">
        <ele>341.61099243164</ele>
        <time>2011-01-22T13:30:23Z</time>
      </trkpt>
      <trkpt lat="45.12519" lon="5.13098">
        <ele>341.2080078125</ele>
        <time>2011-01-22T13:30:24Z</time>
      </trkpt>
      <trkpt lat="45.12498" lon="5.13126">
        <ele>340.35800170898</ele>
        <time>2011-01-22T13:30:28Z</time>
      </trkpt>
      <trkpt lat="45.12486" lon="5.13127">
        <ele>340.8630065918</ele>
        <time>2011-01-22T13:30:30Z</time>
      </trkpt>
      <trkpt lat="45.12439" lon="5.13123">
        <ele>342.26000976562</ele>
        <time>2011-01-22T13:30:38Z</time>
      </trkpt>
      <trkpt lat="45.12398" lon="5.13117">
        <ele>342.21301269531</ele>
        <time>2011-01-22T13:30:45Z</time>
      </trkpt>
      <trkpt lat="45.12364" lon="5.13098">
        <ele>342.5119934082</ele>
        <time>2011-01-22T13:30:51Z</time>
      </trkpt>
      <trkpt lat="45.12333" lon="5.13066">
        <ele>342.09698486328</ele>
        <time>2011-01-22T13:30:57Z</time>
      </trkpt>
      <trkpt lat="45.12295" lon="5.13026">
        <ele>342.54901123047</ele>
        <time>2011-01-22T13:31:04Z</time>
      </trkpt>
      <trkpt lat="45.12285" lon="5.13017">
        <ele>343.27899169922</ele>
        <time>2011-01-22T13:31:06Z</time>
      </trkpt>
      <trkpt lat="45.12274" lon="5.13011">
        <ele>344.20401000977</ele>
        <time>2011-01-22T13:31:08Z</time>
      </trkpt>
      <trkpt lat="45.12258" lon="5.13014">
        <ele>346.33499145508</ele>
        <time>2011-01-22T13:31:11Z</time>
      </trkpt>
      <trkpt lat="45.12249" lon="5.13022">
        <ele>347.31201171875</ele>
        <time>2011-01-22T13:31:13Z</time>
      </trkpt>
      <trkpt lat="45.1223" lon="5.13051">
        <ele>351.46398925781</ele>
        <time>2011-01-22T13:31:19Z</time>
      </trkpt>
      <trkpt lat="45.12226" lon="5.13059">
        <ele>352.81298828125</ele>
        <time>2011-01-22T13:31:21Z</time>
      </trkpt>
      <trkpt lat="45.12224" lon="5.13062">
        <ele>353.04501342773</ele>
        <time>2011-01-22T13:31:22Z</time>
      </trkpt>
      <trkpt lat="45.12215" lon="5.13079">
        <ele>355.61401367188</ele>
        <time>2011-01-22T13:31:27Z</time>
      </trkpt>
      <trkpt lat="45.12212" lon="5.13086">
        <ele>356.48699951172</ele>
        <time>2011-01-22T13:31:29Z</time>
      </trkpt>
      <trkpt lat="45.1221" lon="5.1309">
        <ele>357.07299804688</ele>
        <time>2011-01-22T13:31:30Z</time>
      </trkpt>
      <trkpt lat="45.12206" lon="5.13105">
        <ele>359.58200073242</ele>
        <time>2011-01-22T13:31:35Z</time>
      </trkpt>
      <trkpt lat="45.12205" lon="5.13108">
        <ele>359.83099365234</ele>
        <time>2011-01-22T13:31:36Z</time>
      </trkpt>
      <trkpt lat="45.12201" lon="5.13127">
        <ele>361.35900878906</ele>
        <time>2011-01-22T13:31:42Z</time>
      </trkpt>
      <trkpt lat="45.12198" lon="5.13152">
        <ele>360.49899291992</ele>
        <time>2011-01-22T13:31:47Z</time>
      </trkpt>
      <trkpt lat="45.12191" lon="5.1319">
        <ele>359.35101318359</ele>
        <time>2011-01-22T13:31:53Z</time>
      </trkpt>
      <trkpt lat="45.1218" lon="5.1324">
        <ele>358.95999145508</ele>
        <time>2011-01-22T13:32:01Z</time>
      </trkpt>
      <trkpt lat="45.12167" lon="5.13284">
        <ele>358.70001220703</ele>
        <time>2011-01-22T13:32:08Z</time>
      </trkpt>
      <trkpt lat="45.12146" lon="5.13336">
        <ele>359.62600708008</ele>
        <time>2011-01-22T13:32:17Z</time>
      </trkpt>
      <trkpt lat="45.12128" lon="5.13365">
        <ele>359.88800048828</ele>
        <time>2011-01-22T13:32:23Z</time>
      </trkpt>
      <trkpt lat="45.12094" lon="5.13397">
        <ele>360.04598999023</ele>
        <time>2011-01-22T13:32:31Z</time>
      </trkpt>
      <trkpt lat="45.12074" lon="5.13412">
        <ele>359.90399169922</ele>
        <time>2011-01-22T13:32:36Z</time>
      </trkpt>
      <trkpt lat="45.12056" lon="5.13418">
        <ele>358.09298706055</ele>
        <time>2011-01-22T13:32:41Z</time>
      </trkpt>
      <trkpt lat="45.12056" lon="5.13425">
        <ele>357.625</ele>
        <time>2011-01-22T13:32:44Z</time>
      </trkpt>
      <trkpt lat="45.12065" lon="5.13437">
        <ele>356.39300537109</ele>
        <time>2011-01-22T13:32:48Z</time>
      </trkpt>
      <trkpt lat="45.1209" lon="5.13482">
        <ele>351.18301391602</ele>
        <time>2011-01-22T13:32:55Z</time>
      </trkpt>
      <trkpt lat="45.12116" lon="5.13528">
        <ele>345.61999511719</ele>
        <time>2011-01-22T13:33:00Z</time>
      </trkpt>
      <trkpt lat="45.12121" lon="5.13566">
        <ele>341.44000244141</ele>
        <time>2011-01-22T13:33:04Z</time>
      </trkpt>
      <trkpt lat="45.12121" lon="5.13575">
        <ele>340.3219909668</ele>
        <time>2011-01-22T13:33:05Z</time>
      </trkpt>
      <trkpt lat="45.12128" lon="5.1363">
        <ele>336.55599975586</ele>
        <time>2011-01-22T13:33:10Z</time>
      </trkpt>
      <trkpt lat="45.12152" lon="5.13707">
        <ele>333.23699951172</ele>
        <time>2011-01-22T13:33:17Z</time>
      </trkpt>
      <trkpt lat="45.12156" lon="5.13718">
        <ele>333.05200195312</ele>
        <time>2011-01-22T13:33:18Z</time>
      </trkpt>
      <trkpt lat="45.12185" lon="5.13766">
        <ele>332.61199951172</ele>
        <time>2011-01-22T13:33:24Z</time>
      </trkpt>
      <trkpt lat="45.12204" lon="5.13796">
        <ele>332.99499511719</ele>
        <time>2011-01-22T13:33:29Z</time>
      </trkpt>
      <trkpt lat="45.12229" lon="5.13838">
        <ele>332.96200561523</ele>
        <time>2011-01-22T13:33:37Z</time>
      </trkpt>
      <trkpt lat="45.12241" lon="5.13858">
        <ele>334.01400756836</ele>
        <time>2011-01-22T13:33:42Z</time>
      </trkpt>
      <trkpt lat="45.12244" lon="5.13863">
        <ele>334.23400878906</ele>
        <time>2011-01-22T13:33:47Z</time>
      </trkpt>
      <trkpt lat="45.12238" lon="5.13869">
        <ele>333.10501098633</ele>
        <time>2011-01-22T13:34:12Z</time>
      </trkpt>
      <trkpt lat="45.12225" lon="5.13883">
        <ele>331.12200927734</ele>
        <time>2011-01-22T13:34:15Z</time>
      </trkpt>
      <trkpt lat="45.12205" lon="5.13905">
        <ele>328.0950012207</ele>
        <time>2011-01-22T13:34:18Z</time>
      </trkpt>
      <trkpt lat="45.12183" lon="5.13931">
        <ele>322.57998657227</ele>
        <time>2011-01-22T13:34:22Z</time>
      </trkpt>
      <trkpt lat="45.12152" lon="5.13969">
        <ele>317.11499023438</ele>
        <time>2011-01-22T13:34:27Z</time>
      </trkpt>
      <trkpt lat="45.12139" lon="5.13985">
        <ele>313.61099243164</ele>
        <time>2011-01-22T13:34:29Z</time>
      </trkpt>
      <trkpt lat="45.12117" lon="5.13994">
        <ele>309.92999267578</ele>
        <time>2011-01-22T13:34:32Z</time>
      </trkpt>
      <trkpt lat="45.12108" lon="5.13991">
        <ele>308.69198608398</ele>
        <time>2011-01-22T13:34:33Z</time>
      </trkpt>
      <trkpt lat="45.12061" lon="5.13966">
        <ele>305.36801147461</ele>
        <time>2011-01-22T13:34:38Z</time>
      </trkpt>
      <trkpt lat="45.12042" lon="5.13956">
        <ele>305.35299682617</ele>
        <time>2011-01-22T13:34:40Z</time>
      </trkpt>
      <trkpt lat="45.12019" lon="5.13957">
        <ele>303.00201416016</ele>
        <time>2011-01-22T13:34:43Z</time>
      </trkpt>
      <trkpt lat="45.12012" lon="5.13963">
        <ele>302.06900024414</ele>
        <time>2011-01-22T13:34:44Z</time>
      </trkpt>
      <trkpt lat="45.11953" lon="5.14025">
        <ele>299.22399902344</ele>
        <time>2011-01-22T13:34:53Z</time>
      </trkpt>
      <trkpt lat="45.11908" lon="5.14075">
        <ele>295.625</ele>
        <time>2011-01-22T13:34:59Z</time>
      </trkpt>
      <trkpt lat="45.11892" lon="5.14093">
        <ele>294.36599731445</ele>
        <time>2011-01-22T13:35:01Z</time>
      </trkpt>
      <trkpt lat="45.11878" lon="5.14114">
        <ele>293.60000610352</ele>
        <time>2011-01-22T13:35:03Z</time>
      </trkpt>
      <trkpt lat="45.11852" lon="5.14172">
        <ele>291.97100830078</ele>
        <time>2011-01-22T13:35:08Z</time>
      </trkpt>
      <trkpt lat="45.11833" lon="5.14227">
        <ele>292.21099853516</ele>
        <time>2011-01-22T13:35:13Z</time>
      </trkpt>
      <trkpt lat="45.11828" lon="5.14247">
        <ele>292.49700927734</ele>
        <time>2011-01-22T13:35:15Z</time>
      </trkpt>
      <trkpt lat="45.11811" lon="5.14292">
        <ele>293.79998779297</ele>
        <time>2011-01-22T13:35:21Z</time>
      </trkpt>
      <trkpt lat="45.11789" lon="5.14324">
        <ele>295.43200683594</ele>
        <time>2011-01-22T13:35:27Z</time>
      </trkpt>
      <trkpt lat="45.11766" lon="5.14346">
        <ele>295.23199462891</ele>
        <time>2011-01-22T13:35:32Z</time>
      </trkpt>
      <trkpt lat="45.11725" lon="5.14374">
        <ele>293.7380065918</ele>
        <time>2011-01-22T13:35:39Z</time>
      </trkpt>
      <trkpt lat="45.1168" lon="5.14395">
        <ele>293.05899047852</ele>
        <time>2011-01-22T13:35:46Z</time>
      </trkpt>
      <trkpt lat="45.11645" lon="5.14416">
        <ele>291.16299438477</ele>
        <time>2011-01-22T13:35:51Z</time>
      </trkpt>
      <trkpt lat="45.11604" lon="5.14446">
        <ele>287.74700927734</ele>
        <time>2011-01-22T13:35:56Z</time>
      </trkpt>
      <trkpt lat="45.11576" lon="5.14491">
        <ele>283.21099853516</ele>
        <time>2011-01-22T13:36:00Z</time>
      </trkpt>
      <trkpt lat="45.11544" lon="5.14536">
        <ele>277.41900634766</ele>
        <time>2011-01-22T13:36:05Z</time>
      </trkpt>
      <trkpt lat="45.11535" lon="5.1454">
        <ele>276.70001220703</ele>
        <time>2011-01-22T13:36:06Z</time>
      </trkpt>
      <trkpt lat="45.11515" lon="5.14547">
        <ele>275.38598632812</ele>
        <time>2011-01-22T13:36:08Z</time>
      </trkpt>
      <trkpt lat="45.11487" lon="5.14564">
        <ele>274.12298583984</ele>
        <time>2011-01-22T13:36:11Z</time>
      </trkpt>
      <trkpt lat="45.11448" lon="5.14577">
        <ele>273.3210144043</ele>
        <time>2011-01-22T13:36:15Z</time>
      </trkpt>
      <trkpt lat="45.11383" lon="5.14589">
        <ele>268.64401245117</ele>
        <time>2011-01-22T13:36:21Z</time>
      </trkpt>
      <trkpt lat="45.11338" lon="5.14612">
        <ele>263.50601196289</ele>
        <time>2011-01-22T13:36:25Z</time>
      </trkpt>
      <trkpt lat="45.11303" lon="5.14632">
        <ele>260.93399047852</ele>
        <time>2011-01-22T13:36:28Z</time>
      </trkpt>
      <trkpt lat="45.11256" lon="5.14635">
        <ele>258.51800537109</ele>
        <time>2011-01-22T13:36:32Z</time>
      </trkpt>
      <trkpt lat="45.11234" lon="5.14623">
        <ele>257.60900878906</ele>
        <time>2011-01-22T13:36:34Z</time>
      </trkpt>
      <trkpt lat="45.11213" lon="5.14611">
        <ele>256.85800170898</ele>
        <time>2011-01-22T13:36:36Z</time>
      </trkpt>
      <trkpt lat="45.1115" lon="5.14594">
        <ele>254.28700256348</ele>
        <time>2011-01-22T13:36:42Z</time>
      </trkpt>
      <trkpt lat="45.1108" lon="5.1458">
        <ele>250.88600158691</ele>
        <time>2011-01-22T13:36:49Z</time>
      </trkpt>
      <trkpt lat="45.11072" lon="5.14579">
        <ele>250.3809967041</ele>
        <time>2011-01-22T13:36:50Z</time>
      </trkpt>
      <trkpt lat="45.11045" lon="5.14557">
        <ele>247.39399719238</ele>
        <time>2011-01-22T13:36:54Z</time>
      </trkpt>
      <trkpt lat="45.11029" lon="5.14537">
        <ele>243.70599365234</ele>
        <time>2011-01-22T13:36:57Z</time>
      </trkpt>
      <trkpt lat="45.11025" lon="5.14516">
        <ele>240.70700073242</ele>
        <time>2011-01-22T13:37:00Z</time>
      </trkpt>
      <trkpt lat="45.11031" lon="5.14497">
        <ele>238.93600463867</ele>
        <time>2011-01-22T13:37:02Z</time>
      </trkpt>
      <trkpt lat="45.1104" lon="5.14461">
        <ele>235.52900695801</ele>
        <time>2011-01-22T13:37:05Z</time>
      </trkpt>
      <trkpt lat="45.11033" lon="5.14431">
        <ele>231.94700622559</ele>
        <time>2011-01-22T13:37:08Z</time>
      </trkpt>
      <trkpt lat="45.11008" lon="5.14411">
        <ele>229.9049987793</ele>
        <time>2011-01-22T13:37:11Z</time>
      </trkpt>
      <trkpt lat="45.10991" lon="5.144">
        <ele>228.97399902344</ele>
        <time>2011-01-22T13:37:13Z</time>
      </trkpt>
      <trkpt lat="45.10957" lon="5.14388">
        <ele>227.65800476074</ele>
        <time>2011-01-22T13:37:17Z</time>
      </trkpt>
      <trkpt lat="45.10933" lon="5.14395">
        <ele>227.85899353027</ele>
        <time>2011-01-22T13:37:20Z</time>
      </trkpt>
      <trkpt lat="45.10892" lon="5.14394">
        <ele>227.6549987793</ele>
        <time>2011-01-22T13:37:26Z</time>
      </trkpt>
      <trkpt lat="45.10873" lon="5.14403">
        <ele>226.55999755859</ele>
        <time>2011-01-22T13:37:30Z</time>
      </trkpt>
      <trkpt lat="45.10874" lon="5.14424">
        <ele>225.5890045166</ele>
        <time>2011-01-22T13:37:33Z</time>
      </trkpt>
      <trkpt lat="45.10891" lon="5.14465">
        <ele>224.83200073242</ele>
        <time>2011-01-22T13:37:39Z</time>
      </trkpt>
      <trkpt lat="45.10894" lon="5.14481">
        <ele>224.49000549316</ele>
        <time>2011-01-22T13:37:43Z</time>
      </trkpt>
      <trkpt lat="45.10894" lon="5.14484">
        <ele>223.83299255371</ele>
        <time>2011-01-22T13:37:45Z</time>
      </trkpt>
      <trkpt lat="45.10899" lon="5.14498">
        <ele>223.97700500488</ele>
        <time>2011-01-22T13:37:51Z</time>
      </trkpt>
      <trkpt lat="45.10903" lon="5.14494">
        <ele>224.4940032959</ele>
        <time>2011-01-22T13:37:55Z</time>
      </trkpt>
      <trkpt lat="45.10901" lon="5.1449">
        <ele>224.77099609375</ele>
        <time>2011-01-22T13:37:59Z</time>
      </trkpt>
      <trkpt lat="45.10893" lon="5.14497">
        <ele>224.08599853516</ele>
        <time>2011-01-22T13:38:32Z</time>
      </trkpt>
      <trkpt lat="45.10885" lon="5.14491">
        <ele>223.64999389648</ele>
        <time>2011-01-22T13:38:35Z</time>
      </trkpt>
      <trkpt lat="45.1086" lon="5.14466">
        <ele>223.19599914551</ele>
        <time>2011-01-22T13:38:42Z</time>
      </trkpt>
      <trkpt lat="45.10827" lon="5.14435">
        <ele>222.32400512695</ele>
        <time>2011-01-22T13:38:49Z</time>
      </trkpt>
      <trkpt lat="45.10782" lon="5.14397">
        <ele>220.88000488281</ele>
        <time>2011-01-22T13:38:57Z</time>
      </trkpt>
      <trkpt lat="45.10725" lon="5.14348">
        <ele>219.68699645996</ele>
        <time>2011-01-22T13:39:07Z</time>
      </trkpt>
      <trkpt lat="45.10674" lon="5.14305">
        <ele>218.82499694824</ele>
        <time>2011-01-22T13:39:16Z</time>
      </trkpt>
      <trkpt lat="45.10643" lon="5.14279">
        <ele>218.42199707031</ele>
        <time>2011-01-22T13:39:22Z</time>
      </trkpt>
      <trkpt lat="45.10604" lon="5.14244">
        <ele>217.56199645996</ele>
        <time>2011-01-22T13:39:29Z</time>
      </trkpt>
      <trkpt lat="45.10556" lon="5.14203">
        <ele>216.68800354004</ele>
        <time>2011-01-22T13:39:37Z</time>
      </trkpt>
      <trkpt lat="45.10512" lon="5.14165">
        <ele>215.96299743652</ele>
        <time>2011-01-22T13:39:45Z</time>
      </trkpt>
      <trkpt lat="45.10478" lon="5.14137">
        <ele>215.51699829102</ele>
        <time>2011-01-22T13:39:51Z</time>
      </trkpt>
      <trkpt lat="45.10425" lon="5.14094">
        <ele>215.05000305176</ele>
        <time>2011-01-22T13:40:00Z</time>
      </trkpt>
      <trkpt lat="45.10373" lon="5.14056">
        <ele>215.06199645996</ele>
        <time>2011-01-22T13:40:08Z</time>
      </trkpt>
      <trkpt lat="45.10348" lon="5.14035">
        <ele>215.09700012207</ele>
        <time>2011-01-22T13:40:12Z</time>
      </trkpt>
      <trkpt lat="45.10298" lon="5.13992">
        <ele>213.88499450684</ele>
        <time>2011-01-22T13:40:20Z</time>
      </trkpt>
      <trkpt lat="45.10286" lon="5.13981">
        <ele>212.86399841309</ele>
        <time>2011-01-22T13:40:22Z</time>
      </trkpt>
      <trkpt lat="45.10251" lon="5.13952">
        <ele>212.94299316406</ele>
        <time>2011-01-22T13:40:28Z</time>
      </trkpt>
      <trkpt lat="45.10216" lon="5.1392">
        <ele>212.99099731445</ele>
        <time>2011-01-22T13:40:34Z</time>
      </trkpt>
      <trkpt lat="45.10191" lon="5.13899">
        <ele>212.85200500488</ele>
        <time>2011-01-22T13:40:38Z</time>
      </trkpt>
      <trkpt lat="45.10143" lon="5.13858">
        <ele>212.90800476074</ele>
        <time>2011-01-22T13:40:46Z</time>
      </trkpt>
      <trkpt lat="45.10098" lon="5.13806">
        <ele>212.24899291992</ele>
        <time>2011-01-22T13:40:54Z</time>
      </trkpt>
      <trkpt lat="45.10071" lon="5.13769">
        <ele>212.17900085449</ele>
        <time>2011-01-22T13:40:59Z</time>
      </trkpt>
      <trkpt lat="45.1003" lon="5.13716">
        <ele>211.83700561523</ele>
        <time>2011-01-22T13:41:06Z</time>
      </trkpt>
      <trkpt lat="45.09995" lon="5.13672">
        <ele>211.62699890137</ele>
        <time>2011-01-22T13:41:12Z</time>
      </trkpt>
      <trkpt lat="45.09966" lon="5.13634">
        <ele>211.52799987793</ele>
        <time>2011-01-22T13:41:18Z</time>
      </trkpt>
      <trkpt lat="45.09916" lon="5.1357">
        <ele>212.75100708008</ele>
        <time>2011-01-22T13:41:29Z</time>
      </trkpt>
      <trkpt lat="45.09912" lon="5.13564">
        <ele>212.82099914551</ele>
        <time>2011-01-22T13:41:30Z</time>
      </trkpt>
      <trkpt lat="45.09909" lon="5.13538">
        <ele>212.77200317383</ele>
        <time>2011-01-22T13:41:34Z</time>
      </trkpt>
      <trkpt lat="45.09921" lon="5.13527">
        <ele>213.51699829102</ele>
        <time>2011-01-22T13:41:37Z</time>
      </trkpt>
      <trkpt lat="45.09925" lon="5.13525">
        <ele>213.49600219727</ele>
        <time>2011-01-22T13:41:38Z</time>
      </trkpt>
      <trkpt lat="45.09933" lon="5.13519">
        <ele>213.57800292969</ele>
        <time>2011-01-22T13:41:40Z</time>
      </trkpt>
      <trkpt lat="45.09959" lon="5.1348">
        <ele>214.48599243164</ele>
        <time>2011-01-22T13:41:48Z</time>
      </trkpt>
      <trkpt lat="45.09976" lon="5.13431">
        <ele>215.64199829102</ele>
        <time>2011-01-22T13:41:56Z</time>
      </trkpt>
      <trkpt lat="45.0999" lon="5.13381">
        <ele>215.98399353027</ele>
        <time>2011-01-22T13:42:04Z</time>
      </trkpt>
      <trkpt lat="45.09995" lon="5.13353">
        <ele>215.98399353027</ele>
        <time>2011-01-22T13:42:08Z</time>
      </trkpt>
      <trkpt lat="45.09999" lon="5.13309">
        <ele>215.98699951172</ele>
        <time>2011-01-22T13:42:14Z</time>
      </trkpt>
      <trkpt lat="45.10009" lon="5.13275">
        <ele>216.12199401856</ele>
        <time>2011-01-22T13:42:19Z</time>
      </trkpt>
      <trkpt lat="45.10023" lon="5.13254">
        <ele>217.92199707031</ele>
        <time>2011-01-22T13:42:23Z</time>
      </trkpt>
      <trkpt lat="45.10044" lon="5.13236">
        <ele>217.18499755859</ele>
        <time>2011-01-22T13:42:28Z</time>
      </trkpt>
      <trkpt lat="45.10069" lon="5.13221">
        <ele>216.17900085449</ele>
        <time>2011-01-22T13:42:34Z</time>
      </trkpt>
      <trkpt lat="45.10088" lon="5.13209">
        <ele>216.59399414062</ele>
        <time>2011-01-22T13:42:40Z</time>
      </trkpt>
      <trkpt lat="45.10106" lon="5.13198">
        <ele>217.78999328613</ele>
        <time>2011-01-22T13:42:46Z</time>
      </trkpt>
      <trkpt lat="45.10119" lon="5.13187">
        <ele>218.14300537109</ele>
        <time>2011-01-22T13:42:50Z</time>
      </trkpt>
      <trkpt lat="45.10131" lon="5.13179">
        <ele>218.16999816894</ele>
        <time>2011-01-22T13:42:53Z</time>
      </trkpt>
      <trkpt lat="45.10155" lon="5.13161">
        <ele>218.75100708008</ele>
        <time>2011-01-22T13:43:00Z</time>
      </trkpt>
      <trkpt lat="45.10162" lon="5.13151">
        <ele>219.14500427246</ele>
        <time>2011-01-22T13:43:04Z</time>
      </trkpt>
      <trkpt lat="45.1016" lon="5.13156">
        <ele>218.74800109863</ele>
        <time>2011-01-22T13:43:09Z</time>
      </trkpt>
      <trkpt lat="45.10159" lon="5.13158">
        <ele>218.64599609375</ele>
        <time>2011-01-22T13:43:10Z</time>
      </trkpt>
      <trkpt lat="45.10145" lon="5.1317">
        <ele>218.56900024414</ele>
        <time>2011-01-22T13:43:15Z</time>
      </trkpt>
      <trkpt lat="45.10138" lon="5.13176">
        <ele>218.62399291992</ele>
        <time>2011-01-22T13:43:17Z</time>
      </trkpt>
      <trkpt lat="45.10111" lon="5.13196">
        <ele>218.24099731445</ele>
        <time>2011-01-22T13:43:23Z</time>
      </trkpt>
      <trkpt lat="45.10106" lon="5.132">
        <ele>218.1369934082</ele>
        <time>2011-01-22T13:43:24Z</time>
      </trkpt>
      <trkpt lat="45.10065" lon="5.13228">
        <ele>217.94900512695</ele>
        <time>2011-01-22T13:43:32Z</time>
      </trkpt>
      <trkpt lat="45.1005" lon="5.13237">
        <ele>217.56399536133</ele>
        <time>2011-01-22T13:43:35Z</time>
      </trkpt>
      <trkpt lat="45.10035" lon="5.13248">
        <ele>217.35600280762</ele>
        <time>2011-01-22T13:43:38Z</time>
      </trkpt>
      <trkpt lat="45.10022" lon="5.1326">
        <ele>217.16600036621</ele>
        <time>2011-01-22T13:43:41Z</time>
      </trkpt>
      <trkpt lat="45.10009" lon="5.13281">
        <ele>216.76600646973</ele>
        <time>2011-01-22T13:43:45Z</time>
      </trkpt>
      <trkpt lat="45.10003" lon="5.13299">
        <ele>216.86199951172</ele>
        <time>2011-01-22T13:43:48Z</time>
      </trkpt>
      <trkpt lat="45.09999" lon="5.13337">
        <ele>216.54499816894</ele>
        <time>2011-01-22T13:43:53Z</time>
      </trkpt>
      <trkpt lat="45.09989" lon="5.13392">
        <ele>216.02099609375</ele>
        <time>2011-01-22T13:44:00Z</time>
      </trkpt>
      <trkpt lat="45.09977" lon="5.13437">
        <ele>215.73300170898</ele>
        <time>2011-01-22T13:44:06Z</time>
      </trkpt>
      <trkpt lat="45.0996" lon="5.13486">
        <ele>215.13800048828</ele>
        <time>2011-01-22T13:44:12Z</time>
      </trkpt>
      <trkpt lat="45.09953" lon="5.13503">
        <ele>215.09399414062</ele>
        <time>2011-01-22T13:44:14Z</time>
      </trkpt>
      <trkpt lat="45.09923" lon="5.13534">
        <ele>214.00199890137</ele>
        <time>2011-01-22T13:44:19Z</time>
      </trkpt>
      <trkpt lat="45.09891" lon="5.13538">
        <ele>213.00900268555</ele>
        <time>2011-01-22T13:44:23Z</time>
      </trkpt>
      <trkpt lat="45.09875" lon="5.13529">
        <ele>212.57400512695</ele>
        <time>2011-01-22T13:44:25Z</time>
      </trkpt>
      <trkpt lat="45.09798" lon="5.13471">
        <ele>210</ele>
        <time>2011-01-22T13:44:35Z</time>
      </trkpt>
      <trkpt lat="45.09732" lon="5.13423">
        <ele>207.57899475098</ele>
        <time>2011-01-22T13:44:43Z</time>
      </trkpt>
      <trkpt lat="45.09654" lon="5.13368">
        <ele>205.22900390625</ele>
        <time>2011-01-22T13:44:52Z</time>
      </trkpt>
      <trkpt lat="45.09589" lon="5.13321">
        <ele>203.47200012207</ele>
        <time>2011-01-22T13:45:00Z</time>
      </trkpt>
      <trkpt lat="45.09536" lon="5.13284">
        <ele>201.63499450684</ele>
        <time>2011-01-22T13:45:07Z</time>
      </trkpt>
      <trkpt lat="45.09488" lon="5.13251">
        <ele>201.05900573731</ele>
        <time>2011-01-22T13:45:14Z</time>
      </trkpt>
      <trkpt lat="45.09473" lon="5.13244">
        <ele>200.7859954834</ele>
        <time>2011-01-22T13:45:16Z</time>
      </trkpt>
      <trkpt lat="45.09444" lon="5.13239">
        <ele>200.75700378418</ele>
        <time>2011-01-22T13:45:20Z</time>
      </trkpt>
      <trkpt lat="45.09386" lon="5.13251">
        <ele>200.36999511719</ele>
        <time>2011-01-22T13:45:28Z</time>
      </trkpt>
      <trkpt lat="45.09333" lon="5.1326">
        <ele>199.6309967041</ele>
        <time>2011-01-22T13:45:35Z</time>
      </trkpt>
      <trkpt lat="45.09301" lon="5.13264">
        <ele>199.35699462891</ele>
        <time>2011-01-22T13:45:39Z</time>
      </trkpt>
      <trkpt lat="45.09245" lon="5.13274">
        <ele>198.90400695801</ele>
        <time>2011-01-22T13:45:46Z</time>
      </trkpt>
      <trkpt lat="45.09182" lon="5.13276">
        <ele>198.64399719238</ele>
        <time>2011-01-22T13:45:54Z</time>
      </trkpt>
      <trkpt lat="45.0913" lon="5.13266">
        <ele>198.58000183106</ele>
        <time>2011-01-22T13:46:01Z</time>
      </trkpt>
      <trkpt lat="45.09101" lon="5.13256">
        <ele>198.42700195312</ele>
        <time>2011-01-22T13:46:05Z</time>
      </trkpt>
      <trkpt lat="45.09074" lon="5.13261">
        <ele>198.16000366211</ele>
        <time>2011-01-22T13:46:09Z</time>
      </trkpt>
      <trkpt lat="45.0902" lon="5.13291">
        <ele>198.01800537109</ele>
        <time>2011-01-22T13:46:17Z</time>
      </trkpt>
      <trkpt lat="45.08959" lon="5.13328">
        <ele>197.5950012207</ele>
        <time>2011-01-22T13:46:26Z</time>
      </trkpt>
      <trkpt lat="45.08932" lon="5.13331">
        <ele>197.58700561523</ele>
        <time>2011-01-22T13:46:30Z</time>
      </trkpt>
      <trkpt lat="45.08919" lon="5.13327">
        <ele>197.48899841309</ele>
        <time>2011-01-22T13:46:32Z</time>
      </trkpt>
      <trkpt lat="45.08888" lon="5.1334">
        <ele>197.1190032959</ele>
        <time>2011-01-22T13:46:37Z</time>
      </trkpt>
      <trkpt lat="45.08858" lon="5.13359">
        <ele>196.58999633789</ele>
        <time>2011-01-22T13:46:42Z</time>
      </trkpt>
      <trkpt lat="45.08804" lon="5.13385">
        <ele>196.52600097656</ele>
        <time>2011-01-22T13:46:50Z</time>
      </trkpt>
      <trkpt lat="45.08752" lon="5.1341">
        <ele>195.91200256348</ele>
        <time>2011-01-22T13:46:57Z</time>
      </trkpt>
      <trkpt lat="45.08705" lon="5.13434">
        <ele>195.50300598144</ele>
        <time>2011-01-22T13:47:04Z</time>
      </trkpt>
      <trkpt lat="45.08669" lon="5.13458">
        <ele>195.24699401856</ele>
        <time>2011-01-22T13:47:10Z</time>
      </trkpt>
      <trkpt lat="45.08651" lon="5.13473">
        <ele>195.14599609375</ele>
        <time>2011-01-22T13:47:14Z</time>
      </trkpt>
      <trkpt lat="45.08639" lon="5.13475">
        <ele>194.88400268555</ele>
        <time>2011-01-22T13:47:18Z</time>
      </trkpt>
      <trkpt lat="45.08635" lon="5.13461">
        <ele>195.05400085449</ele>
        <time>2011-01-22T13:47:22Z</time>
      </trkpt>
      <trkpt lat="45.08636" lon="5.13457">
        <ele>195.13200378418</ele>
        <time>2011-01-22T13:47:23Z</time>
      </trkpt>
      <trkpt lat="45.08654" lon="5.13415">
        <ele>195.31399536133</ele>
        <time>2011-01-22T13:47:31Z</time>
      </trkpt>
      <trkpt lat="45.08672" lon="5.13369">
        <ele>194.89199829102</ele>
        <time>2011-01-22T13:47:38Z</time>
      </trkpt>
      <trkpt lat="45.08698" lon="5.1331">
        <ele>194.74600219727</ele>
        <time>2011-01-22T13:47:46Z</time>
      </trkpt>
      <trkpt lat="45.08724" lon="5.13252">
        <ele>194.82600402832</ele>
        <time>2011-01-22T13:47:54Z</time>
      </trkpt>
      <trkpt lat="45.08743" lon="5.13207">
        <ele>194.58999633789</ele>
        <time>2011-01-22T13:48:00Z</time>
      </trkpt>
      <trkpt lat="45.08765" lon="5.13162">
        <ele>194.58999633789</ele>
        <time>2011-01-22T13:48:07Z</time>
      </trkpt>
      <trkpt lat="45.08775" lon="5.13144">
        <ele>194.39100646973</ele>
        <time>2011-01-22T13:48:12Z</time>
      </trkpt>
      <trkpt lat="45.08778" lon="5.13135">
        <ele>194.4049987793</ele>
        <time>2011-01-22T13:48:14Z</time>
      </trkpt>
      <trkpt lat="45.08789" lon="5.13077">
        <ele>194.33799743652</ele>
        <time>2011-01-22T13:48:23Z</time>
      </trkpt>
      <trkpt lat="45.08799" lon="5.1303">
        <ele>194.29699707031</ele>
        <time>2011-01-22T13:48:30Z</time>
      </trkpt>
      <trkpt lat="45.08798" lon="5.12993">
        <ele>194.34800720215</ele>
        <time>2011-01-22T13:48:36Z</time>
      </trkpt>
      <trkpt lat="45.08797" lon="5.12964">
        <ele>195.09599304199</ele>
        <time>2011-01-22T13:48:42Z</time>
      </trkpt>
      <trkpt lat="45.08799" lon="5.1294">
        <ele>195.21099853516</ele>
        <time>2011-01-22T13:48:47Z</time>
      </trkpt>
      <trkpt lat="45.08804" lon="5.12911">
        <ele>195.92199707031</ele>
        <time>2011-01-22T13:48:52Z</time>
      </trkpt>
      <trkpt lat="45.08808" lon="5.1289">
        <ele>196.47200012207</ele>
        <time>2011-01-22T13:48:56Z</time>
      </trkpt>
      <trkpt lat="45.08815" lon="5.12845">
        <ele>197.64500427246</ele>
        <time>2011-01-22T13:49:03Z</time>
      </trkpt>
      <trkpt lat="45.08825" lon="5.12797">
        <ele>198.41900634766</ele>
        <time>2011-01-22T13:49:11Z</time>
      </trkpt>
      <trkpt lat="45.08838" lon="5.12746">
        <ele>198.75500488281</ele>
        <time>2011-01-22T13:49:19Z</time>
      </trkpt>
      <trkpt lat="45.08855" lon="5.12689">
        <ele>199.35899353027</ele>
        <time>2011-01-22T13:49:28Z</time>
      </trkpt>
      <trkpt lat="45.08881" lon="5.1261">
        <ele>200.53799438477</ele>
        <time>2011-01-22T13:49:40Z</time>
      </trkpt>
      <trkpt lat="45.089" lon="5.12557">
        <ele>201.6190032959</ele>
        <time>2011-01-22T13:49:48Z</time>
      </trkpt>
      <trkpt lat="45.08915" lon="5.12499">
        <ele>201.02499389648</ele>
        <time>2011-01-22T13:49:56Z</time>
      </trkpt>
      <trkpt lat="45.0892" lon="5.12442">
        <ele>200.36199951172</ele>
        <time>2011-01-22T13:50:03Z</time>
      </trkpt>
      <trkpt lat="45.08917" lon="5.12367">
        <ele>199.22200012207</ele>
        <time>2011-01-22T13:50:11Z</time>
      </trkpt>
      <trkpt lat="45.08916" lon="5.12328">
        <ele>198.67599487305</ele>
        <time>2011-01-22T13:50:15Z</time>
      </trkpt>
      <trkpt lat="45.08916" lon="5.12289">
        <ele>197.07600402832</ele>
        <time>2011-01-22T13:50:19Z</time>
      </trkpt>
      <trkpt lat="45.08915" lon="5.1225">
        <ele>197.1549987793</ele>
        <time>2011-01-22T13:50:23Z</time>
      </trkpt>
      <trkpt lat="45.08915" lon="5.12231">
        <ele>197.57299804688</ele>
        <time>2011-01-22T13:50:25Z</time>
      </trkpt>
      <trkpt lat="45.08912" lon="5.12175">
        <ele>196.92500305176</ele>
        <time>2011-01-22T13:50:31Z</time>
      </trkpt>
      <trkpt lat="45.08903" lon="5.12088">
        <ele>196.75799560547</ele>
        <time>2011-01-22T13:50:40Z</time>
      </trkpt>
      <trkpt lat="45.08895" lon="5.11999">
        <ele>196.09300231934</ele>
        <time>2011-01-22T13:50:49Z</time>
      </trkpt>
      <trkpt lat="45.08889" lon="5.11912">
        <ele>194.67500305176</ele>
        <time>2011-01-22T13:50:58Z</time>
      </trkpt>
      <trkpt lat="45.08888" lon="5.11892">
        <ele>193.82499694824</ele>
        <time>2011-01-22T13:51:00Z</time>
      </trkpt>
      <trkpt lat="45.08881" lon="5.11793">
        <ele>193.69700622559</ele>
        <time>2011-01-22T13:51:10Z</time>
      </trkpt>
      <trkpt lat="45.08876" lon="5.11727">
        <ele>193.91299438477</ele>
        <time>2011-01-22T13:51:17Z</time>
      </trkpt>
      <trkpt lat="45.08871" lon="5.11654">
        <ele>193.69099426269</ele>
        <time>2011-01-22T13:51:25Z</time>
      </trkpt>
      <trkpt lat="45.08867" lon="5.11592">
        <ele>193.65299987793</ele>
        <time>2011-01-22T13:51:32Z</time>
      </trkpt>
      <trkpt lat="45.0886" lon="5.11507">
        <ele>193.47700500488</ele>
        <time>2011-01-22T13:51:41Z</time>
      </trkpt>
      <trkpt lat="45.08853" lon="5.11428">
        <ele>192.13999938965</ele>
        <time>2011-01-22T13:51:49Z</time>
      </trkpt>
      <trkpt lat="45.08844" lon="5.11328">
        <ele>190.17199707031</ele>
        <time>2011-01-22T13:51:59Z</time>
      </trkpt>
      <trkpt lat="45.08837" lon="5.11248">
        <ele>189.92300415039</ele>
        <time>2011-01-22T13:52:07Z</time>
      </trkpt>
      <trkpt lat="45.08827" lon="5.1115">
        <ele>189.66299438477</ele>
        <time>2011-01-22T13:52:17Z</time>
      </trkpt>
      <trkpt lat="45.08812" lon="5.11071">
        <ele>188.74499511719</ele>
        <time>2011-01-22T13:52:25Z</time>
      </trkpt>
      <trkpt lat="45.08793" lon="5.1097">
        <ele>188.89300537109</ele>
        <time>2011-01-22T13:52:35Z</time>
      </trkpt>
      <trkpt lat="45.08786" lon="5.10888">
        <ele>187.54100036621</ele>
        <time>2011-01-22T13:52:43Z</time>
      </trkpt>
      <trkpt lat="45.08782" lon="5.10767">
        <ele>188.13400268555</ele>
        <time>2011-01-22T13:52:55Z</time>
      </trkpt>
      <trkpt lat="45.08775" lon="5.10686">
        <ele>187.75799560547</ele>
        <time>2011-01-22T13:53:03Z</time>
      </trkpt>
      <trkpt lat="45.08762" lon="5.10616">
        <ele>188.67500305176</ele>
        <time>2011-01-22T13:53:10Z</time>
      </trkpt>
      <trkpt lat="45.08732" lon="5.10501">
        <ele>189.72999572754</ele>
        <time>2011-01-22T13:53:22Z</time>
      </trkpt>
      <trkpt lat="45.08708" lon="5.10412">
        <ele>189.80099487305</ele>
        <time>2011-01-22T13:53:32Z</time>
      </trkpt>
      <trkpt lat="45.08687" lon="5.10338">
        <ele>189.53999328613</ele>
        <time>2011-01-22T13:53:40Z</time>
      </trkpt>
      <trkpt lat="45.08663" lon="5.10255">
        <ele>191.62300109863</ele>
        <time>2011-01-22T13:53:49Z</time>
      </trkpt>
      <trkpt lat="45.08647" lon="5.10184">
        <ele>190.66000366211</ele>
        <time>2011-01-22T13:53:57Z</time>
      </trkpt>
      <trkpt lat="45.08628" lon="5.10089">
        <ele>191.71600341797</ele>
        <time>2011-01-22T13:54:07Z</time>
      </trkpt>
      <trkpt lat="45.08607" lon="5.10009">
        <ele>190.46600341797</ele>
        <time>2011-01-22T13:54:15Z</time>
      </trkpt>
      <trkpt lat="45.08585" lon="5.09927">
        <ele>188.91799926758</ele>
        <time>2011-01-22T13:54:23Z</time>
      </trkpt>
      <trkpt lat="45.08554" lon="5.09815">
        <ele>189.16299438477</ele>
        <time>2011-01-22T13:54:34Z</time>
      </trkpt>
      <trkpt lat="45.08544" lon="5.09778">
        <ele>187.79200744629</ele>
        <time>2011-01-22T13:54:38Z</time>
      </trkpt>
      <trkpt lat="45.08517" lon="5.09704">
        <ele>187.21899414062</ele>
        <time>2011-01-22T13:54:46Z</time>
      </trkpt>
      <trkpt lat="45.0849" lon="5.09634">
        <ele>186.39199829102</ele>
        <time>2011-01-22T13:54:54Z</time>
      </trkpt>
      <trkpt lat="45.08478" lon="5.09602">
        <ele>185.68800354004</ele>
        <time>2011-01-22T13:54:58Z</time>
      </trkpt>
      <trkpt lat="45.08472" lon="5.09587">
        <ele>185.70500183106</ele>
        <time>2011-01-22T13:55:00Z</time>
      </trkpt>
      <trkpt lat="45.08455" lon="5.09537">
        <ele>185.9940032959</ele>
        <time>2011-01-22T13:55:07Z</time>
      </trkpt>
      <trkpt lat="45.08437" lon="5.09517">
        <ele>186.31300354004</ele>
        <time>2011-01-22T13:55:11Z</time>
      </trkpt>
      <trkpt lat="45.0843" lon="5.09513">
        <ele>186.1609954834</ele>
        <time>2011-01-22T13:55:12Z</time>
      </trkpt>
      <trkpt lat="45.08399" lon="5.09482">
        <ele>183.54200744629</ele>
        <time>2011-01-22T13:55:17Z</time>
      </trkpt>
      <trkpt lat="45.08345" lon="5.09416">
        <ele>181.78500366211</ele>
        <time>2011-01-22T13:55:26Z</time>
      </trkpt>
      <trkpt lat="45.08305" lon="5.09362">
        <ele>181.70300292969</ele>
        <time>2011-01-22T13:55:33Z</time>
      </trkpt>
      <trkpt lat="45.08278" lon="5.09307">
        <ele>181.73100280762</ele>
        <time>2011-01-22T13:55:39Z</time>
      </trkpt>
      <trkpt lat="45.08259" lon="5.09251">
        <ele>181.8630065918</ele>
        <time>2011-01-22T13:55:45Z</time>
      </trkpt>
      <trkpt lat="45.08241" lon="5.09173">
        <ele>182.59399414062</ele>
        <time>2011-01-22T13:55:53Z</time>
      </trkpt>
      <trkpt lat="45.08232" lon="5.09103">
        <ele>182.52000427246</ele>
        <time>2011-01-22T13:56:00Z</time>
      </trkpt>
      <trkpt lat="45.08227" lon="5.09044">
        <ele>181.73199462891</ele>
        <time>2011-01-22T13:56:06Z</time>
      </trkpt>
      <trkpt lat="45.08224" lon="5.08986">
        <ele>181.75900268555</ele>
        <time>2011-01-22T13:56:12Z</time>
      </trkpt>
      <trkpt lat="45.08221" lon="5.08911">
        <ele>180.88600158691</ele>
        <time>2011-01-22T13:56:20Z</time>
      </trkpt>
      <trkpt lat="45.08217" lon="5.08838">
        <ele>181.02600097656</ele>
        <time>2011-01-22T13:56:28Z</time>
      </trkpt>
      <trkpt lat="45.08214" lon="5.08788">
        <ele>181.56300354004</ele>
        <time>2011-01-22T13:56:34Z</time>
      </trkpt>
      <trkpt lat="45.08209" lon="5.0874">
        <ele>181.67700195312</ele>
        <time>2011-01-22T13:56:41Z</time>
      </trkpt>
      <trkpt lat="45.08204" lon="5.08716">
        <ele>181.7440032959</ele>
        <time>2011-01-22T13:56:45Z</time>
      </trkpt>
      <trkpt lat="45.08197" lon="5.08698">
        <ele>181.72099304199</ele>
        <time>2011-01-22T13:56:48Z</time>
      </trkpt>
      <trkpt lat="45.08186" lon="5.08647">
        <ele>180.26800537109</ele>
        <time>2011-01-22T13:56:54Z</time>
      </trkpt>
      <trkpt lat="45.08175" lon="5.08571">
        <ele>180.49000549316</ele>
        <time>2011-01-22T13:57:02Z</time>
      </trkpt>
      <trkpt lat="45.08163" lon="5.08489">
        <ele>180.06700134277</ele>
        <time>2011-01-22T13:57:11Z</time>
      </trkpt>
      <trkpt lat="45.08155" lon="5.08425">
        <ele>180.63200378418</ele>
        <time>2011-01-22T13:57:19Z</time>
      </trkpt>
      <trkpt lat="45.0815" lon="5.08365">
        <ele>180.18200683594</ele>
        <time>2011-01-22T13:57:26Z</time>
      </trkpt>
      <trkpt lat="45.0814" lon="5.08313">
        <ele>180.30599975586</ele>
        <time>2011-01-22T13:57:32Z</time>
      </trkpt>
      <trkpt lat="45.08117" lon="5.0823">
        <ele>181.10000610352</ele>
        <time>2011-01-22T13:57:42Z</time>
      </trkpt>
      <trkpt lat="45.0809" lon="5.0818">
        <ele>181.74200439453</ele>
        <time>2011-01-22T13:57:49Z</time>
      </trkpt>
      <trkpt lat="45.0806" lon="5.0814">
        <ele>182.59199523926</ele>
        <time>2011-01-22T13:57:56Z</time>
      </trkpt>
      <trkpt lat="45.08025" lon="5.08103">
        <ele>181.80499267578</ele>
        <time>2011-01-22T13:58:03Z</time>
      </trkpt>
      <trkpt lat="45.07979" lon="5.08053">
        <ele>180.49499511719</ele>
        <time>2011-01-22T13:58:11Z</time>
      </trkpt>
      <trkpt lat="45.07929" lon="5.07989">
        <ele>179.37399291992</ele>
        <time>2011-01-22T13:58:20Z</time>
      </trkpt>
      <trkpt lat="45.07883" lon="5.0792">
        <ele>178.79899597168</ele>
        <time>2011-01-22T13:58:29Z</time>
      </trkpt>
      <trkpt lat="45.07838" lon="5.07852">
        <ele>178.05299377441</ele>
        <time>2011-01-22T13:58:38Z</time>
      </trkpt>
      <trkpt lat="45.07792" lon="5.07784">
        <ele>178.42100524902</ele>
        <time>2011-01-22T13:58:47Z</time>
      </trkpt>
      <trkpt lat="45.07751" lon="5.07713">
        <ele>178.95700073242</ele>
        <time>2011-01-22T13:58:56Z</time>
      </trkpt>
      <trkpt lat="45.07733" lon="5.07656">
        <ele>180.25199890137</ele>
        <time>2011-01-22T13:59:02Z</time>
      </trkpt>
      <trkpt lat="45.07718" lon="5.07597">
        <ele>178.52900695801</ele>
        <time>2011-01-22T13:59:08Z</time>
      </trkpt>
      <trkpt lat="45.07696" lon="5.07524">
        <ele>177.58799743652</ele>
        <time>2011-01-22T13:59:16Z</time>
      </trkpt>
      <trkpt lat="45.07672" lon="5.07475">
        <ele>177.36799621582</ele>
        <time>2011-01-22T13:59:22Z</time>
      </trkpt>
      <trkpt lat="45.07639" lon="5.07413">
        <ele>177.85200500488</ele>
        <time>2011-01-22T13:59:30Z</time>
      </trkpt>
      <trkpt lat="45.07615" lon="5.07363">
        <ele>178.72700500488</ele>
        <time>2011-01-22T13:59:37Z</time>
      </trkpt>
      <trkpt lat="45.07584" lon="5.07296">
        <ele>177.26800537109</ele>
        <time>2011-01-22T13:59:45Z</time>
      </trkpt>
      <trkpt lat="45.07557" lon="5.07233">
        <ele>177.19299316406</ele>
        <time>2011-01-22T13:59:53Z</time>
      </trkpt>
      <trkpt lat="45.07541" lon="5.07179">
        <ele>176.87899780273</ele>
        <time>2011-01-22T13:59:59Z</time>
      </trkpt>
      <trkpt lat="45.07524" lon="5.07114">
        <ele>176.76499938965</ele>
        <time>2011-01-22T14:00:06Z</time>
      </trkpt>
      <trkpt lat="45.07502" lon="5.07031">
        <ele>177.32499694824</ele>
        <time>2011-01-22T14:00:15Z</time>
      </trkpt>
      <trkpt lat="45.07478" lon="5.0694">
        <ele>177.27499389648</ele>
        <time>2011-01-22T14:00:25Z</time>
      </trkpt>
      <trkpt lat="45.07465" lon="5.06878">
        <ele>178.66299438477</ele>
        <time>2011-01-22T14:00:32Z</time>
      </trkpt>
      <trkpt lat="45.07452" lon="5.06807">
        <ele>179.35499572754</ele>
        <time>2011-01-22T14:00:40Z</time>
      </trkpt>
      <trkpt lat="45.07436" lon="5.06731">
        <ele>179.43099975586</ele>
        <time>2011-01-22T14:00:49Z</time>
      </trkpt>
      <trkpt lat="45.07423" lon="5.06674">
        <ele>177.96600341797</ele>
        <time>2011-01-22T14:00:55Z</time>
      </trkpt>
      <trkpt lat="45.07421" lon="5.06664">
        <ele>177.80599975586</ele>
        <time>2011-01-22T14:00:56Z</time>
      </trkpt>
      <trkpt lat="45.07403" lon="5.06584">
        <ele>178.67799377441</ele>
        <time>2011-01-22T14:01:04Z</time>
      </trkpt>
      <trkpt lat="45.07395" lon="5.06544">
        <ele>176.47300720215</ele>
        <time>2011-01-22T14:01:08Z</time>
      </trkpt>
      <trkpt lat="45.07383" lon="5.06488">
        <ele>176.08299255371</ele>
        <time>2011-01-22T14:01:14Z</time>
      </trkpt>
      <trkpt lat="45.07372" lon="5.06438">
        <ele>176.17300415039</ele>
        <time>2011-01-22T14:01:20Z</time>
      </trkpt>
      <trkpt lat="45.07358" lon="5.06384">
        <ele>176.91400146484</ele>
        <time>2011-01-22T14:01:27Z</time>
      </trkpt>
      <trkpt lat="45.07342" lon="5.06323">
        <ele>178.2200012207</ele>
        <time>2011-01-22T14:01:35Z</time>
      </trkpt>
      <trkpt lat="45.07327" lon="5.06268">
        <ele>177.41900634766</ele>
        <time>2011-01-22T14:01:42Z</time>
      </trkpt>
      <trkpt lat="45.07311" lon="5.06212">
        <ele>177.16400146484</ele>
        <time>2011-01-22T14:01:49Z</time>
      </trkpt>
      <trkpt lat="45.07293" lon="5.06146">
        <ele>177.64500427246</ele>
        <time>2011-01-22T14:01:57Z</time>
      </trkpt>
      <trkpt lat="45.07277" lon="5.06093">
        <ele>177.86599731445</ele>
        <time>2011-01-22T14:02:04Z</time>
      </trkpt>
      <trkpt lat="45.07256" lon="5.06022">
        <ele>178.79100036621</ele>
        <time>2011-01-22T14:02:14Z</time>
      </trkpt>
      <trkpt lat="45.07234" lon="5.05943">
        <ele>179.42399597168</ele>
        <time>2011-01-22T14:02:25Z</time>
      </trkpt>
      <trkpt lat="45.07226" lon="5.05917">
        <ele>179.17100524902</ele>
        <time>2011-01-22T14:02:29Z</time>
      </trkpt>
      <trkpt lat="45.07217" lon="5.05867">
        <ele>179.63900756836</ele>
        <time>2011-01-22T14:02:36Z</time>
      </trkpt>
      <trkpt lat="45.0721" lon="5.05805">
        <ele>178.77499389648</ele>
        <time>2011-01-22T14:02:44Z</time>
      </trkpt>
      <trkpt lat="45.07204" lon="5.05734">
        <ele>178.03300476074</ele>
        <time>2011-01-22T14:02:53Z</time>
      </trkpt>
      <trkpt lat="45.07198" lon="5.05677">
        <ele>177.66299438477</ele>
        <time>2011-01-22T14:03:00Z</time>
      </trkpt>
      <trkpt lat="45.07182" lon="5.05627">
        <ele>177.99000549316</ele>
        <time>2011-01-22T14:03:07Z</time>
      </trkpt>
      <trkpt lat="45.07178" lon="5.05613">
        <ele>177.5890045166</ele>
        <time>2011-01-22T14:03:09Z</time>
      </trkpt>
      <trkpt lat="45.0717" lon="5.05577">
        <ele>177.16499328613</ele>
        <time>2011-01-22T14:03:14Z</time>
      </trkpt>
      <trkpt lat="45.0716" lon="5.05558">
        <ele>177.11799621582</ele>
        <time>2011-01-22T14:03:17Z</time>
      </trkpt>
      <trkpt lat="45.07156" lon="5.05553">
        <ele>176.98100280762</ele>
        <time>2011-01-22T14:03:18Z</time>
      </trkpt>
      <trkpt lat="45.07135" lon="5.05524">
        <ele>175.90100097656</ele>
        <time>2011-01-22T14:03:23Z</time>
      </trkpt>
      <trkpt lat="45.07112" lon="5.05477">
        <ele>174.14900207519</ele>
        <time>2011-01-22T14:03:29Z</time>
      </trkpt>
      <trkpt lat="45.07097" lon="5.05441">
        <ele>172.78300476074</ele>
        <time>2011-01-22T14:03:33Z</time>
      </trkpt>
      <trkpt lat="45.07093" lon="5.0541">
        <ele>172.00100708008</ele>
        <time>2011-01-22T14:03:37Z</time>
      </trkpt>
      <trkpt lat="45.07094" lon="5.0538">
        <ele>172.29299926758</ele>
        <time>2011-01-22T14:03:41Z</time>
      </trkpt>
      <trkpt lat="45.07096" lon="5.05366">
        <ele>172.84800720215</ele>
        <time>2011-01-22T14:03:43Z</time>
      </trkpt>
      <trkpt lat="45.07098" lon="5.05337">
        <ele>173.43800354004</ele>
        <time>2011-01-22T14:03:47Z</time>
      </trkpt>
      <trkpt lat="45.07099" lon="5.05316">
        <ele>173.88200378418</ele>
        <time>2011-01-22T14:03:50Z</time>
      </trkpt>
      <trkpt lat="45.07098" lon="5.05302">
        <ele>174.27299499512</ele>
        <time>2011-01-22T14:03:52Z</time>
      </trkpt>
      <trkpt lat="45.07096" lon="5.05288">
        <ele>174.31500244141</ele>
        <time>2011-01-22T14:03:54Z</time>
      </trkpt>
      <trkpt lat="45.07079" lon="5.0524">
        <ele>173.64199829102</ele>
        <time>2011-01-22T14:04:01Z</time>
      </trkpt>
      <trkpt lat="45.07055" lon="5.05186">
        <ele>173.50799560547</ele>
        <time>2011-01-22T14:04:08Z</time>
      </trkpt>
      <trkpt lat="45.0704" lon="5.05145">
        <ele>172.22999572754</ele>
        <time>2011-01-22T14:04:13Z</time>
      </trkpt>
      <trkpt lat="45.07034" lon="5.05109">
        <ele>172.25</ele>
        <time>2011-01-22T14:04:17Z</time>
      </trkpt>
      <trkpt lat="45.07024" lon="5.05063">
        <ele>171.8690032959</ele>
        <time>2011-01-22T14:04:23Z</time>
      </trkpt>
      <trkpt lat="45.07009" lon="5.05001">
        <ele>170.40199279785</ele>
        <time>2011-01-22T14:04:30Z</time>
      </trkpt>
      <trkpt lat="45.06992" lon="5.04937">
        <ele>169.5950012207</ele>
        <time>2011-01-22T14:04:37Z</time>
      </trkpt>
      <trkpt lat="45.06979" lon="5.04878">
        <ele>169.125</ele>
        <time>2011-01-22T14:04:44Z</time>
      </trkpt>
      <trkpt lat="45.06966" lon="5.04804">
        <ele>168.8869934082</ele>
        <time>2011-01-22T14:04:53Z</time>
      </trkpt>
      <trkpt lat="45.06955" lon="5.04725">
        <ele>169.39500427246</ele>
        <time>2011-01-22T14:05:02Z</time>
      </trkpt>
      <trkpt lat="45.06944" lon="5.04647">
        <ele>170.07800292969</ele>
        <time>2011-01-22T14:05:11Z</time>
      </trkpt>
      <trkpt lat="45.0694" lon="5.04612">
        <ele>170.98899841309</ele>
        <time>2011-01-22T14:05:15Z</time>
      </trkpt>
      <trkpt lat="45.06916" lon="5.04541">
        <ele>171.17300415039</ele>
        <time>2011-01-22T14:05:24Z</time>
      </trkpt>
      <trkpt lat="45.06897" lon="5.04476">
        <ele>171.79600524902</ele>
        <time>2011-01-22T14:05:32Z</time>
      </trkpt>
      <trkpt lat="45.06887" lon="5.04413">
        <ele>171.62300109863</ele>
        <time>2011-01-22T14:05:39Z</time>
      </trkpt>
      <trkpt lat="45.06885" lon="5.04393">
        <ele>171.39300537109</ele>
        <time>2011-01-22T14:05:41Z</time>
      </trkpt>
      <trkpt lat="45.06889" lon="5.04314">
        <ele>171.04800415039</ele>
        <time>2011-01-22T14:05:49Z</time>
      </trkpt>
      <trkpt lat="45.0689" lon="5.04244">
        <ele>172.30700683594</ele>
        <time>2011-01-22T14:05:56Z</time>
      </trkpt>
      <trkpt lat="45.06882" lon="5.04168">
        <ele>171.67599487305</ele>
        <time>2011-01-22T14:06:04Z</time>
      </trkpt>
      <trkpt lat="45.06881" lon="5.04159">
        <ele>171.38900756836</ele>
        <time>2011-01-22T14:06:05Z</time>
      </trkpt>
      <trkpt lat="45.06873" lon="5.04083">
        <ele>173.50300598144</ele>
        <time>2011-01-22T14:06:14Z</time>
      </trkpt>
      <trkpt lat="45.06865" lon="5.04015">
        <ele>173.27200317383</ele>
        <time>2011-01-22T14:06:22Z</time>
      </trkpt>
      <trkpt lat="45.0685" lon="5.03971">
        <ele>173.86399841309</ele>
        <time>2011-01-22T14:06:28Z</time>
      </trkpt>
      <trkpt lat="45.06847" lon="5.03965">
        <ele>174.20899963379</ele>
        <time>2011-01-22T14:06:29Z</time>
      </trkpt>
      <trkpt lat="45.06847" lon="5.03943">
        <ele>175.13200378418</ele>
        <time>2011-01-22T14:06:33Z</time>
      </trkpt>
      <trkpt lat="45.06851" lon="5.03932">
        <ele>175.32499694824</ele>
        <time>2011-01-22T14:06:35Z</time>
      </trkpt>
      <trkpt lat="45.06851" lon="5.03896">
        <ele>175.81500244141</ele>
        <time>2011-01-22T14:06:41Z</time>
      </trkpt>
      <trkpt lat="45.06849" lon="5.0389">
        <ele>175.40299987793</ele>
        <time>2011-01-22T14:06:42Z</time>
      </trkpt>
      <trkpt lat="45.06838" lon="5.03874">
        <ele>174.37100219727</ele>
        <time>2011-01-22T14:06:45Z</time>
      </trkpt>
      <trkpt lat="45.06821" lon="5.03839">
        <ele>172.47700500488</ele>
        <time>2011-01-22T14:06:50Z</time>
      </trkpt>
      <trkpt lat="45.06798" lon="5.03788">
        <ele>170.98599243164</ele>
        <time>2011-01-22T14:06:56Z</time>
      </trkpt>
      <trkpt lat="45.06782" lon="5.03736">
        <ele>170.72799682617</ele>
        <time>2011-01-22T14:07:02Z</time>
      </trkpt>
      <trkpt lat="45.06775" lon="5.03713">
        <ele>170.72900390625</ele>
        <time>2011-01-22T14:07:05Z</time>
      </trkpt>
      <trkpt lat="45.06757" lon="5.03651">
        <ele>171.4640045166</ele>
        <time>2011-01-22T14:07:13Z</time>
      </trkpt>
      <trkpt lat="45.06732" lon="5.03587">
        <ele>170.41900634766</ele>
        <time>2011-01-22T14:07:21Z</time>
      </trkpt>
      <trkpt lat="45.06697" lon="5.03497">
        <ele>170.30599975586</ele>
        <time>2011-01-22T14:07:32Z</time>
      </trkpt>
      <trkpt lat="45.06672" lon="5.03435">
        <ele>170.5059967041</ele>
        <time>2011-01-22T14:07:40Z</time>
      </trkpt>
      <trkpt lat="45.06659" lon="5.03389">
        <ele>170.19099426269</ele>
        <time>2011-01-22T14:07:46Z</time>
      </trkpt>
      <trkpt lat="45.06646" lon="5.03334">
        <ele>169.76800537109</ele>
        <time>2011-01-22T14:07:52Z</time>
      </trkpt>
      <trkpt lat="45.06618" lon="5.03236">
        <ele>170.09700012207</ele>
        <time>2011-01-22T14:08:03Z</time>
      </trkpt>
      <trkpt lat="45.06595" lon="5.03149">
        <ele>170.91499328613</ele>
        <time>2011-01-22T14:08:13Z</time>
      </trkpt>
      <trkpt lat="45.06583" lon="5.03078">
        <ele>168.99000549316</ele>
        <time>2011-01-22T14:08:21Z</time>
      </trkpt>
      <trkpt lat="45.06575" lon="5.03009">
        <ele>169.28900146484</ele>
        <time>2011-01-22T14:08:29Z</time>
      </trkpt>
      <trkpt lat="45.06574" lon="5.02999">
        <ele>168.87300109863</ele>
        <time>2011-01-22T14:08:30Z</time>
      </trkpt>
      <trkpt lat="45.06575" lon="5.0296">
        <ele>168.66200256348</ele>
        <time>2011-01-22T14:08:34Z</time>
      </trkpt>
      <trkpt lat="45.06574" lon="5.02951">
        <ele>168.30900573731</ele>
        <time>2011-01-22T14:08:35Z</time>
      </trkpt>
      <trkpt lat="45.06567" lon="5.02901">
        <ele>168.74200439453</ele>
        <time>2011-01-22T14:08:42Z</time>
      </trkpt>
      <trkpt lat="45.06567" lon="5.02894">
        <ele>168.86799621582</ele>
        <time>2011-01-22T14:08:43Z</time>
      </trkpt>
      <trkpt lat="45.06562" lon="5.02864">
        <ele>169.05700683594</ele>
        <time>2011-01-22T14:08:47Z</time>
      </trkpt>
      <trkpt lat="45.06551" lon="5.02792">
        <ele>169.12600708008</ele>
        <time>2011-01-22T14:08:56Z</time>
      </trkpt>
      <trkpt lat="45.06538" lon="5.02717">
        <ele>169.30700683594</ele>
        <time>2011-01-22T14:09:05Z</time>
      </trkpt>
      <trkpt lat="45.06525" lon="5.02634">
        <ele>169.76400756836</ele>
        <time>2011-01-22T14:09:15Z</time>
      </trkpt>
      <trkpt lat="45.06512" lon="5.02556">
        <ele>171.14799499512</ele>
        <time>2011-01-22T14:09:25Z</time>
      </trkpt>
      <trkpt lat="45.06505" lon="5.0251">
        <ele>172.37100219727</ele>
        <time>2011-01-22T14:09:31Z</time>
      </trkpt>
      <trkpt lat="45.06493" lon="5.02476">
        <ele>173.53399658203</ele>
        <time>2011-01-22T14:09:36Z</time>
      </trkpt>
      <trkpt lat="45.06458" lon="5.02427">
        <ele>174.9700012207</ele>
        <time>2011-01-22T14:09:45Z</time>
      </trkpt>
      <trkpt lat="45.06433" lon="5.02388">
        <ele>176.36799621582</ele>
        <time>2011-01-22T14:09:52Z</time>
      </trkpt>
      <trkpt lat="45.06419" lon="5.02349">
        <ele>177.27699279785</ele>
        <time>2011-01-22T14:09:58Z</time>
      </trkpt>
      <trkpt lat="45.06413" lon="5.02324">
        <ele>177.12300109863</ele>
        <time>2011-01-22T14:10:02Z</time>
      </trkpt>
      <trkpt lat="45.06406" lon="5.02305">
        <ele>176.89399719238</ele>
        <time>2011-01-22T14:10:05Z</time>
      </trkpt>
      <trkpt lat="45.06384" lon="5.02264">
        <ele>175.70300292969</ele>
        <time>2011-01-22T14:10:11Z</time>
      </trkpt>
      <trkpt lat="45.06364" lon="5.02216">
        <ele>175.45199584961</ele>
        <time>2011-01-22T14:10:17Z</time>
      </trkpt>
      <trkpt lat="45.0635" lon="5.02174">
        <ele>177.10099792481</ele>
        <time>2011-01-22T14:10:23Z</time>
      </trkpt>
      <trkpt lat="45.06333" lon="5.02146">
        <ele>177.69299316406</ele>
        <time>2011-01-22T14:10:28Z</time>
      </trkpt>
      <trkpt lat="45.06313" lon="5.02098">
        <ele>176.61799621582</ele>
        <time>2011-01-22T14:10:34Z</time>
      </trkpt>
      <trkpt lat="45.06295" lon="5.02042">
        <ele>175.10899353027</ele>
        <time>2011-01-22T14:10:40Z</time>
      </trkpt>
      <trkpt lat="45.06268" lon="5.01977">
        <ele>174.12300109863</ele>
        <time>2011-01-22T14:10:47Z</time>
      </trkpt>
      <trkpt lat="45.06236" lon="5.01903">
        <ele>174.00399780273</ele>
        <time>2011-01-22T14:10:56Z</time>
      </trkpt>
      <trkpt lat="45.06222" lon="5.01858">
        <ele>173.40400695801</ele>
        <time>2011-01-22T14:11:01Z</time>
      </trkpt>
      <trkpt lat="45.06219" lon="5.01849">
        <ele>173.24000549316</ele>
        <time>2011-01-22T14:11:02Z</time>
      </trkpt>
      <trkpt lat="45.06202" lon="5.01787">
        <ele>173.06799316406</ele>
        <time>2011-01-22T14:11:09Z</time>
      </trkpt>
      <trkpt lat="45.06185" lon="5.01715">
        <ele>173.55700683594</ele>
        <time>2011-01-22T14:11:17Z</time>
      </trkpt>
      <trkpt lat="45.06174" lon="5.01662">
        <ele>173.58799743652</ele>
        <time>2011-01-22T14:11:23Z</time>
      </trkpt>
      <trkpt lat="45.06166" lon="5.01609">
        <ele>173.66600036621</ele>
        <time>2011-01-22T14:11:29Z</time>
      </trkpt>
      <trkpt lat="45.06163" lon="5.01592">
        <ele>174.09300231934</ele>
        <time>2011-01-22T14:11:31Z</time>
      </trkpt>
      <trkpt lat="45.06146" lon="5.01526">
        <ele>172.98500061035</ele>
        <time>2011-01-22T14:11:39Z</time>
      </trkpt>
      <trkpt lat="45.06134" lon="5.01471">
        <ele>172.65699768066</ele>
        <time>2011-01-22T14:11:46Z</time>
      </trkpt>
      <trkpt lat="45.06133" lon="5.01463">
        <ele>172.70199584961</ele>
        <time>2011-01-22T14:11:47Z</time>
      </trkpt>
      <trkpt lat="45.0612" lon="5.01403">
        <ele>173.52799987793</ele>
        <time>2011-01-22T14:11:55Z</time>
      </trkpt>
      <trkpt lat="45.06109" lon="5.01336">
        <ele>173.30099487305</ele>
        <time>2011-01-22T14:12:03Z</time>
      </trkpt>
      <trkpt lat="45.06102" lon="5.01276">
        <ele>173.20700073242</ele>
        <time>2011-01-22T14:12:10Z</time>
      </trkpt>
      <trkpt lat="45.061" lon="5.01227">
        <ele>172.83299255371</ele>
        <time>2011-01-22T14:12:16Z</time>
      </trkpt>
      <trkpt lat="45.06099" lon="5.01186">
        <ele>171.98699951172</ele>
        <time>2011-01-22T14:12:21Z</time>
      </trkpt>
      <trkpt lat="45.06096" lon="5.01146">
        <ele>171.00100708008</ele>
        <time>2011-01-22T14:12:26Z</time>
      </trkpt>
      <trkpt lat="45.06097" lon="5.01112">
        <ele>170.52400207519</ele>
        <time>2011-01-22T14:12:31Z</time>
      </trkpt>
      <trkpt lat="45.06096" lon="5.01055">
        <ele>169.00399780273</ele>
        <time>2011-01-22T14:12:38Z</time>
      </trkpt>
      <trkpt lat="45.06096" lon="5.00992">
        <ele>168.85600280762</ele>
        <time>2011-01-22T14:12:45Z</time>
      </trkpt>
      <trkpt lat="45.061" lon="5.00927">
        <ele>168.80499267578</ele>
        <time>2011-01-22T14:12:53Z</time>
      </trkpt>
      <trkpt lat="45.06097" lon="5.00875">
        <ele>169.02299499512</ele>
        <time>2011-01-22T14:13:00Z</time>
      </trkpt>
      <trkpt lat="45.0609" lon="5.008">
        <ele>169.95100402832</ele>
        <time>2011-01-22T14:13:09Z</time>
      </trkpt>
      <trkpt lat="45.06084" lon="5.0075">
        <ele>168.98699951172</ele>
        <time>2011-01-22T14:13:16Z</time>
      </trkpt>
      <trkpt lat="45.06084" lon="5.00744">
        <ele>168.99600219727</ele>
        <time>2011-01-22T14:13:17Z</time>
      </trkpt>
      <trkpt lat="45.06079" lon="5.00701">
        <ele>168.83799743652</ele>
        <time>2011-01-22T14:13:23Z</time>
      </trkpt>
      <trkpt lat="45.06075" lon="5.00641">
        <ele>167.47900390625</ele>
        <time>2011-01-22T14:13:29Z</time>
      </trkpt>
      <trkpt lat="45.06075" lon="5.00562">
        <ele>167.04400634766</ele>
        <time>2011-01-22T14:13:37Z</time>
      </trkpt>
      <trkpt lat="45.06072" lon="5.0047">
        <ele>167.24600219727</ele>
        <time>2011-01-22T14:13:47Z</time>
      </trkpt>
      <trkpt lat="45.06065" lon="5.00391">
        <ele>167.40400695801</ele>
        <time>2011-01-22T14:13:56Z</time>
      </trkpt>
      <trkpt lat="45.0606" lon="5.00312">
        <ele>166.36399841309</ele>
        <time>2011-01-22T14:14:04Z</time>
      </trkpt>
      <trkpt lat="45.06058" lon="5.00246">
        <ele>166.12800598144</ele>
        <time>2011-01-22T14:14:11Z</time>
      </trkpt>
      <trkpt lat="45.0606" lon="5.00161">
        <ele>165.63800048828</ele>
        <time>2011-01-22T14:14:20Z</time>
      </trkpt>
      <trkpt lat="45.06071" lon="5.00074">
        <ele>164.92300415039</ele>
        <time>2011-01-22T14:14:29Z</time>
      </trkpt>
      <trkpt lat="45.06082" lon="4.99981">
        <ele>165.32800292969</ele>
        <time>2011-01-22T14:14:39Z</time>
      </trkpt>
      <trkpt lat="45.06083" lon="4.99972">
        <ele>165.2619934082</ele>
        <time>2011-01-22T14:14:40Z</time>
      </trkpt>
      <trkpt lat="45.06078" lon="4.99906">
        <ele>164.68899536133</ele>
        <time>2011-01-22T14:14:47Z</time>
      </trkpt>
      <trkpt lat="45.0606" lon="4.99814">
        <ele>163.46099853516</ele>
        <time>2011-01-22T14:14:56Z</time>
      </trkpt>
      <trkpt lat="45.06054" lon="4.99785">
        <ele>162.14599609375</ele>
        <time>2011-01-22T14:14:59Z</time>
      </trkpt>
      <trkpt lat="45.06047" lon="4.99757">
        <ele>161.7200012207</ele>
        <time>2011-01-22T14:15:02Z</time>
      </trkpt>
      <trkpt lat="45.06026" lon="4.99722">
        <ele>161.33599853516</ele>
        <time>2011-01-22T14:15:07Z</time>
      </trkpt>
      <trkpt lat="45.0602" lon="4.99719">
        <ele>161.16600036621</ele>
        <time>2011-01-22T14:15:08Z</time>
      </trkpt>
      <trkpt lat="45.06002" lon="4.99712">
        <ele>160.72500610352</ele>
        <time>2011-01-22T14:15:11Z</time>
      </trkpt>
      <trkpt lat="45.05987" lon="4.99694">
        <ele>161.2619934082</ele>
        <time>2011-01-22T14:15:15Z</time>
      </trkpt>
      <trkpt lat="45.05989" lon="4.99681">
        <ele>162.20500183106</ele>
        <time>2011-01-22T14:15:17Z</time>
      </trkpt>
      <trkpt lat="45.06002" lon="4.99634">
        <ele>163.32699584961</ele>
        <time>2011-01-22T14:15:24Z</time>
      </trkpt>
      <trkpt lat="45.06008" lon="4.99613">
        <ele>163.61000061035</ele>
        <time>2011-01-22T14:15:27Z</time>
      </trkpt>
      <trkpt lat="45.06022" lon="4.99548">
        <ele>165.08500671387</ele>
        <time>2011-01-22T14:15:36Z</time>
      </trkpt>
      <trkpt lat="45.06034" lon="4.9948">
        <ele>164.89199829102</ele>
        <time>2011-01-22T14:15:44Z</time>
      </trkpt>
      <trkpt lat="45.06049" lon="4.99401">
        <ele>163.3390045166</ele>
        <time>2011-01-22T14:15:52Z</time>
      </trkpt>
      <trkpt lat="45.06065" lon="4.9932">
        <ele>161.95399475098</ele>
        <time>2011-01-22T14:16:00Z</time>
      </trkpt>
      <trkpt lat="45.06082" lon="4.9923">
        <ele>162.08399963379</ele>
        <time>2011-01-22T14:16:09Z</time>
      </trkpt>
      <trkpt lat="45.06098" lon="4.99137">
        <ele>163.11000061035</ele>
        <time>2011-01-22T14:16:19Z</time>
      </trkpt>
      <trkpt lat="45.06107" lon="4.99058">
        <ele>164.62399291992</ele>
        <time>2011-01-22T14:16:28Z</time>
      </trkpt>
      <trkpt lat="45.06106" lon="4.98984">
        <ele>165.24600219727</ele>
        <time>2011-01-22T14:16:36Z</time>
      </trkpt>
      <trkpt lat="45.061" lon="4.98893">
        <ele>166.09700012207</ele>
        <time>2011-01-22T14:16:46Z</time>
      </trkpt>
      <trkpt lat="45.06098" lon="4.98875">
        <ele>166.0890045166</ele>
        <time>2011-01-22T14:16:48Z</time>
      </trkpt>
      <trkpt lat="45.06102" lon="4.98831">
        <ele>166.65299987793</ele>
        <time>2011-01-22T14:16:53Z</time>
      </trkpt>
      <trkpt lat="45.06107" lon="4.98816">
        <ele>167.05599975586</ele>
        <time>2011-01-22T14:16:55Z</time>
      </trkpt>
      <trkpt lat="45.06127" lon="4.9877">
        <ele>168.59300231934</ele>
        <time>2011-01-22T14:17:02Z</time>
      </trkpt>
      <trkpt lat="45.06147" lon="4.98745">
        <ele>170.125</ele>
        <time>2011-01-22T14:17:07Z</time>
      </trkpt>
      <trkpt lat="45.06168" lon="4.98727">
        <ele>171.79800415039</ele>
        <time>2011-01-22T14:17:12Z</time>
      </trkpt>
      <trkpt lat="45.06172" lon="4.98723">
        <ele>172.22099304199</ele>
        <time>2011-01-22T14:17:13Z</time>
      </trkpt>
      <trkpt lat="45.062" lon="4.98701">
        <ele>172.39500427246</ele>
        <time>2011-01-22T14:17:19Z</time>
      </trkpt>
      <trkpt lat="45.06227" lon="4.98682">
        <ele>171.70399475098</ele>
        <time>2011-01-22T14:17:24Z</time>
      </trkpt>
      <trkpt lat="45.06262" lon="4.98658">
        <ele>170.69299316406</ele>
        <time>2011-01-22T14:17:30Z</time>
      </trkpt>
      <trkpt lat="45.06311" lon="4.98647">
        <ele>168.27200317383</ele>
        <time>2011-01-22T14:17:37Z</time>
      </trkpt>
      <trkpt lat="45.06319" lon="4.98645">
        <ele>167.94400024414</ele>
        <time>2011-01-22T14:17:38Z</time>
      </trkpt>
      <trkpt lat="45.06351" lon="4.98619">
        <ele>169.56199645996</ele>
        <time>2011-01-22T14:17:43Z</time>
      </trkpt>
      <trkpt lat="45.06361" lon="4.98604">
        <ele>168.12600708008</ele>
        <time>2011-01-22T14:17:45Z</time>
      </trkpt>
      <trkpt lat="45.06371" lon="4.98588">
        <ele>167.38999938965</ele>
        <time>2011-01-22T14:17:47Z</time>
      </trkpt>
      <trkpt lat="45.06404" lon="4.98526">
        <ele>167.89900207519</ele>
        <time>2011-01-22T14:17:55Z</time>
      </trkpt>
      <trkpt lat="45.06429" lon="4.98475">
        <ele>168.03900146484</ele>
        <time>2011-01-22T14:18:02Z</time>
      </trkpt>
      <trkpt lat="45.06451" lon="4.98429">
        <ele>166.29299926758</ele>
        <time>2011-01-22T14:18:08Z</time>
      </trkpt>
      <trkpt lat="45.06474" lon="4.98397">
        <ele>166.71099853516</ele>
        <time>2011-01-22T14:18:13Z</time>
      </trkpt>
      <trkpt lat="45.06488" lon="4.98375">
        <ele>167.19999694824</ele>
        <time>2011-01-22T14:18:17Z</time>
      </trkpt>
      <trkpt lat="45.0649" lon="4.98352">
        <ele>167.73599243164</ele>
        <time>2011-01-22T14:18:21Z</time>
      </trkpt>
      <trkpt lat="45.06487" lon="4.98347">
        <ele>167.78700256348</ele>
        <time>2011-01-22T14:18:22Z</time>
      </trkpt>
      <trkpt lat="45.06461" lon="4.98303">
        <ele>169.13800048828</ele>
        <time>2011-01-22T14:18:30Z</time>
      </trkpt>
      <trkpt lat="45.06432" lon="4.98264">
        <ele>168.56300354004</ele>
        <time>2011-01-22T14:18:37Z</time>
      </trkpt>
      <trkpt lat="45.06415" lon="4.9824">
        <ele>168.44900512695</ele>
        <time>2011-01-22T14:18:41Z</time>
      </trkpt>
      <trkpt lat="45.06381" lon="4.98195">
        <ele>166.98100280762</ele>
        <time>2011-01-22T14:18:48Z</time>
      </trkpt>
      <trkpt lat="45.0634" lon="4.98146">
        <ele>166.18299865723</ele>
        <time>2011-01-22T14:18:56Z</time>
      </trkpt>
      <trkpt lat="45.06288" lon="4.98101">
        <ele>165.50900268555</ele>
        <time>2011-01-22T14:19:05Z</time>
      </trkpt>
      <trkpt lat="45.06263" lon="4.98068">
        <ele>165.38900756836</ele>
        <time>2011-01-22T14:19:10Z</time>
      </trkpt>
      <trkpt lat="45.06226" lon="4.98001">
        <ele>165.16400146484</ele>
        <time>2011-01-22T14:19:19Z</time>
      </trkpt>
      <trkpt lat="45.06196" lon="4.97946">
        <ele>165.62800598144</ele>
        <time>2011-01-22T14:19:27Z</time>
      </trkpt>
      <trkpt lat="45.06166" lon="4.97889">
        <ele>165.26800537109</ele>
        <time>2011-01-22T14:19:35Z</time>
      </trkpt>
      <trkpt lat="45.06138" lon="4.97829">
        <ele>164.74099731445</ele>
        <time>2011-01-22T14:19:43Z</time>
      </trkpt>
      <trkpt lat="45.06113" lon="4.9778">
        <ele>163.36199951172</ele>
        <time>2011-01-22T14:19:49Z</time>
      </trkpt>
      <trkpt lat="45.06075" lon="4.97718">
        <ele>162.59700012207</ele>
        <time>2011-01-22T14:19:57Z</time>
      </trkpt>
      <trkpt lat="45.0604" lon="4.97663">
        <ele>161.89999389648</ele>
        <time>2011-01-22T14:20:04Z</time>
      </trkpt>
      <trkpt lat="45.06014" lon="4.9762">
        <ele>161.68099975586</ele>
        <time>2011-01-22T14:20:10Z</time>
      </trkpt>
      <trkpt lat="45.06006" lon="4.97607">
        <ele>161.79800415039</ele>
        <time>2011-01-22T14:20:12Z</time>
      </trkpt>
      <trkpt lat="45.05993" lon="4.97559">
        <ele>162.25500488281</ele>
        <time>2011-01-22T14:20:18Z</time>
      </trkpt>
      <trkpt lat="45.0598" lon="4.97503">
        <ele>161.97399902344</ele>
        <time>2011-01-22T14:20:25Z</time>
      </trkpt>
      <trkpt lat="45.05966" lon="4.97437">
        <ele>161.48699951172</ele>
        <time>2011-01-22T14:20:33Z</time>
      </trkpt>
      <trkpt lat="45.05949" lon="4.97359">
        <ele>161.38600158691</ele>
        <time>2011-01-22T14:20:42Z</time>
      </trkpt>
      <trkpt lat="45.05934" lon="4.97299">
        <ele>161.0359954834</ele>
        <time>2011-01-22T14:20:49Z</time>
      </trkpt>
      <trkpt lat="45.05911" lon="4.97251">
        <ele>160.29299926758</ele>
        <time>2011-01-22T14:20:55Z</time>
      </trkpt>
      <trkpt lat="45.05875" lon="4.97179">
        <ele>159.57099914551</ele>
        <time>2011-01-22T14:21:04Z</time>
      </trkpt>
      <trkpt lat="45.05837" lon="4.97105">
        <ele>158.71600341797</ele>
        <time>2011-01-22T14:21:13Z</time>
      </trkpt>
      <trkpt lat="45.05812" lon="4.97051">
        <ele>158.80400085449</ele>
        <time>2011-01-22T14:21:20Z</time>
      </trkpt>
      <trkpt lat="45.0579" lon="4.96997">
        <ele>159.09899902344</ele>
        <time>2011-01-22T14:21:27Z</time>
      </trkpt>
      <trkpt lat="45.05769" lon="4.96938">
        <ele>159.49800109863</ele>
        <time>2011-01-22T14:21:35Z</time>
      </trkpt>
      <trkpt lat="45.05764" lon="4.96913">
        <ele>159.16700744629</ele>
        <time>2011-01-22T14:21:38Z</time>
      </trkpt>
      <trkpt lat="45.05769" lon="4.96881">
        <ele>159.31799316406</ele>
        <time>2011-01-22T14:21:42Z</time>
      </trkpt>
      <trkpt lat="45.05787" lon="4.9682">
        <ele>160.81399536133</ele>
        <time>2011-01-22T14:21:51Z</time>
      </trkpt>
      <trkpt lat="45.05805" lon="4.96769">
        <ele>162.21499633789</ele>
        <time>2011-01-22T14:21:59Z</time>
      </trkpt>
      <trkpt lat="45.0582" lon="4.96729">
        <ele>162.94900512695</ele>
        <time>2011-01-22T14:22:05Z</time>
      </trkpt>
      <trkpt lat="45.05844" lon="4.96674">
        <ele>164.30599975586</ele>
        <time>2011-01-22T14:22:14Z</time>
      </trkpt>
      <trkpt lat="45.05865" lon="4.96633">
        <ele>165.62100219727</ele>
        <time>2011-01-22T14:22:21Z</time>
      </trkpt>
      <trkpt lat="45.05889" lon="4.96594">
        <ele>166.27900695801</ele>
        <time>2011-01-22T14:22:28Z</time>
      </trkpt>
      <trkpt lat="45.05908" lon="4.96568">
        <ele>166.43600463867</ele>
        <time>2011-01-22T14:22:33Z</time>
      </trkpt>
      <trkpt lat="45.05944" lon="4.96526">
        <ele>165.57899475098</ele>
        <time>2011-01-22T14:22:41Z</time>
      </trkpt>
      <trkpt lat="45.05977" lon="4.96489">
        <ele>164.98599243164</ele>
        <time>2011-01-22T14:22:48Z</time>
      </trkpt>
      <trkpt lat="45.05986" lon="4.96481">
        <ele>164.77299499512</ele>
        <time>2011-01-22T14:22:50Z</time>
      </trkpt>
      <trkpt lat="45.05996" lon="4.96456">
        <ele>163.7140045166</ele>
        <time>2011-01-22T14:22:55Z</time>
      </trkpt>
      <trkpt lat="45.06004" lon="4.96443">
        <ele>162.75700378418</ele>
        <time>2011-01-22T14:22:58Z</time>
      </trkpt>
      <trkpt lat="45.06009" lon="4.96443">
        <ele>162.63600158691</ele>
        <time>2011-01-22T14:22:59Z</time>
      </trkpt>
      <trkpt lat="45.06052" lon="4.96443">
        <ele>162.375</ele>
        <time>2011-01-22T14:23:07Z</time>
      </trkpt>
      <trkpt lat="45.06102" lon="4.96438">
        <ele>162.36999511719</ele>
        <time>2011-01-22T14:23:16Z</time>
      </trkpt>
      <trkpt lat="45.06163" lon="4.96425">
        <ele>163.14500427246</ele>
        <time>2011-01-22T14:23:27Z</time>
      </trkpt>
      <trkpt lat="45.06199" lon="4.96413">
        <ele>163.24099731445</ele>
        <time>2011-01-22T14:23:33Z</time>
      </trkpt>
      <trkpt lat="45.06252" lon="4.96387">
        <ele>163.16999816894</ele>
        <time>2011-01-22T14:23:42Z</time>
      </trkpt>
      <trkpt lat="45.06297" lon="4.96372">
        <ele>162.80200195312</ele>
        <time>2011-01-22T14:23:49Z</time>
      </trkpt>
      <trkpt lat="45.0635" lon="4.96368">
        <ele>162.04299926758</ele>
        <time>2011-01-22T14:23:57Z</time>
      </trkpt>
      <trkpt lat="45.06412" lon="4.96366">
        <ele>160.53199768066</ele>
        <time>2011-01-22T14:24:06Z</time>
      </trkpt>
      <trkpt lat="45.06481" lon="4.96364">
        <ele>158.60000610352</ele>
        <time>2011-01-22T14:24:15Z</time>
      </trkpt>
      <trkpt lat="45.06538" lon="4.96354">
        <ele>157.10800170898</ele>
        <time>2011-01-22T14:24:22Z</time>
      </trkpt>
      <trkpt lat="45.0658" lon="4.96336">
        <ele>156.73500061035</ele>
        <time>2011-01-22T14:24:28Z</time>
      </trkpt>
      <trkpt lat="45.06634" lon="4.96303">
        <ele>155.9049987793</ele>
        <time>2011-01-22T14:24:36Z</time>
      </trkpt>
      <trkpt lat="45.06691" lon="4.96268">
        <ele>156.19900512695</ele>
        <time>2011-01-22T14:24:45Z</time>
      </trkpt>
      <trkpt lat="45.06756" lon="4.96242">
        <ele>157.00999450684</ele>
        <time>2011-01-22T14:24:55Z</time>
      </trkpt>
      <trkpt lat="45.06797" lon="4.96219">
        <ele>157.74499511719</ele>
        <time>2011-01-22T14:25:02Z</time>
      </trkpt>
      <trkpt lat="45.06807" lon="4.96209">
        <ele>157.99899291992</ele>
        <time>2011-01-22T14:25:04Z</time>
      </trkpt>
      <trkpt lat="45.06834" lon="4.96165">
        <ele>158.02499389648</ele>
        <time>2011-01-22T14:25:10Z</time>
      </trkpt>
      <trkpt lat="45.06872" lon="4.96096">
        <ele>156.96200561523</ele>
        <time>2011-01-22T14:25:18Z</time>
      </trkpt>
      <trkpt lat="45.06909" lon="4.96051">
        <ele>156.31500244141</ele>
        <time>2011-01-22T14:25:24Z</time>
      </trkpt>
      <trkpt lat="45.06958" lon="4.96015">
        <ele>156.37600708008</ele>
        <time>2011-01-22T14:25:31Z</time>
      </trkpt>
      <trkpt lat="45.07024" lon="4.95971">
        <ele>156.23399353027</ele>
        <time>2011-01-22T14:25:41Z</time>
      </trkpt>
      <trkpt lat="45.07074" lon="4.95935">
        <ele>156.59100341797</ele>
        <time>2011-01-22T14:25:49Z</time>
      </trkpt>
      <trkpt lat="45.07126" lon="4.95886">
        <ele>156.81599426269</ele>
        <time>2011-01-22T14:25:58Z</time>
      </trkpt>
      <trkpt lat="45.07156" lon="4.95866">
        <ele>157.52200317383</ele>
        <time>2011-01-22T14:26:03Z</time>
      </trkpt>
      <trkpt lat="45.07201" lon="4.9585">
        <ele>157.14700317383</ele>
        <time>2011-01-22T14:26:10Z</time>
      </trkpt>
      <trkpt lat="45.07247" lon="4.95839">
        <ele>158.05200195312</ele>
        <time>2011-01-22T14:26:18Z</time>
      </trkpt>
      <trkpt lat="45.07287" lon="4.95847">
        <ele>158.79100036621</ele>
        <time>2011-01-22T14:26:25Z</time>
      </trkpt>
      <trkpt lat="45.07339" lon="4.9586">
        <ele>159.39999389648</ele>
        <time>2011-01-22T14:26:34Z</time>
      </trkpt>
      <trkpt lat="45.07392" lon="4.95866">
        <ele>161.15100097656</ele>
        <time>2011-01-22T14:26:43Z</time>
      </trkpt>
      <trkpt lat="45.07441" lon="4.95863">
        <ele>161.81399536133</ele>
        <time>2011-01-22T14:26:51Z</time>
      </trkpt>
      <trkpt lat="45.07487" lon="4.95855">
        <ele>162.44599914551</ele>
        <time>2011-01-22T14:26:59Z</time>
      </trkpt>
      <trkpt lat="45.07539" lon="4.95845">
        <ele>161.89999389648</ele>
        <time>2011-01-22T14:27:08Z</time>
      </trkpt>
      <trkpt lat="45.07589" lon="4.95836">
        <ele>161.82200622559</ele>
        <time>2011-01-22T14:27:16Z</time>
      </trkpt>
      <trkpt lat="45.07629" lon="4.95832">
        <ele>162.16900634766</ele>
        <time>2011-01-22T14:27:22Z</time>
      </trkpt>
      <trkpt lat="45.07669" lon="4.95832">
        <ele>162.09100341797</ele>
        <time>2011-01-22T14:27:28Z</time>
      </trkpt>
      <trkpt lat="45.07716" lon="4.95832">
        <ele>162.08999633789</ele>
        <time>2011-01-22T14:27:35Z</time>
      </trkpt>
      <trkpt lat="45.07727" lon="4.95832">
        <ele>162.13900756836</ele>
        <time>2011-01-22T14:27:37Z</time>
      </trkpt>
      <trkpt lat="45.07747" lon="4.95827">
        <ele>162.23100280762</ele>
        <time>2011-01-22T14:27:40Z</time>
      </trkpt>
      <trkpt lat="45.07768" lon="4.95825">
        <ele>162.26100158691</ele>
        <time>2011-01-22T14:27:43Z</time>
      </trkpt>
      <trkpt lat="45.07823" lon="4.95833">
        <ele>162.62899780273</ele>
        <time>2011-01-22T14:27:51Z</time>
      </trkpt>
      <trkpt lat="45.07829" lon="4.95834">
        <ele>162.8630065918</ele>
        <time>2011-01-22T14:27:52Z</time>
      </trkpt>
      <trkpt lat="45.07886" lon="4.95852">
        <ele>162.92399597168</ele>
        <time>2011-01-22T14:28:01Z</time>
      </trkpt>
      <trkpt lat="45.07919" lon="4.95854">
        <ele>163.06399536133</ele>
        <time>2011-01-22T14:28:06Z</time>
      </trkpt>
      <trkpt lat="45.07954" lon="4.95861">
        <ele>163.43099975586</ele>
        <time>2011-01-22T14:28:12Z</time>
      </trkpt>
      <trkpt lat="45.07988" lon="4.95861">
        <ele>164.18600463867</ele>
        <time>2011-01-22T14:28:18Z</time>
      </trkpt>
      <trkpt lat="45.07998" lon="4.9586">
        <ele>164.22099304199</ele>
        <time>2011-01-22T14:28:20Z</time>
      </trkpt>
      <trkpt lat="45.08023" lon="4.95865">
        <ele>165.17399597168</ele>
        <time>2011-01-22T14:28:25Z</time>
      </trkpt>
      <trkpt lat="45.08062" lon="4.95864">
        <ele>166.09100341797</ele>
        <time>2011-01-22T14:28:33Z</time>
      </trkpt>
      <trkpt lat="45.08097" lon="4.95866">
        <ele>166.66000366211</ele>
        <time>2011-01-22T14:28:40Z</time>
      </trkpt>
      <trkpt lat="45.08119" lon="4.95868">
        <ele>166.90699768066</ele>
        <time>2011-01-22T14:28:44Z</time>
      </trkpt>
      <trkpt lat="45.08139" lon="4.95875">
        <ele>167.54499816894</ele>
        <time>2011-01-22T14:28:48Z</time>
      </trkpt>
      <trkpt lat="45.08183" lon="4.95893">
        <ele>169.27400207519</ele>
        <time>2011-01-22T14:28:57Z</time>
      </trkpt>
      <trkpt lat="45.08188" lon="4.95895">
        <ele>169.42100524902</ele>
        <time>2011-01-22T14:28:58Z</time>
      </trkpt>
      <trkpt lat="45.0824" lon="4.95904">
        <ele>170.71499633789</ele>
        <time>2011-01-22T14:29:08Z</time>
      </trkpt>
      <trkpt lat="45.08267" lon="4.95901">
        <ele>171.20599365234</ele>
        <time>2011-01-22T14:29:13Z</time>
      </trkpt>
      <trkpt lat="45.08288" lon="4.95888">
        <ele>171.17999267578</ele>
        <time>2011-01-22T14:29:17Z</time>
      </trkpt>
      <trkpt lat="45.08334" lon="4.95834">
        <ele>171.39100646973</ele>
        <time>2011-01-22T14:29:27Z</time>
      </trkpt>
      <trkpt lat="45.0834" lon="4.9583">
        <ele>171.37399291992</ele>
        <time>2011-01-22T14:29:28Z</time>
      </trkpt>
      <trkpt lat="45.08363" lon="4.9582">
        <ele>171.41999816894</ele>
        <time>2011-01-22T14:29:32Z</time>
      </trkpt>
      <trkpt lat="45.0841" lon="4.95805">
        <ele>171.43400573731</ele>
        <time>2011-01-22T14:29:40Z</time>
      </trkpt>
      <trkpt lat="45.08456" lon="4.95784">
        <ele>171.87600708008</ele>
        <time>2011-01-22T14:29:48Z</time>
      </trkpt>
      <trkpt lat="45.08511" lon="4.95763">
        <ele>172.24099731445</ele>
        <time>2011-01-22T14:29:57Z</time>
      </trkpt>
      <trkpt lat="45.08529" lon="4.95752">
        <ele>172.25</ele>
        <time>2011-01-22T14:30:00Z</time>
      </trkpt>
      <trkpt lat="45.08572" lon="4.95739">
        <ele>172.50799560547</ele>
        <time>2011-01-22T14:30:07Z</time>
      </trkpt>
      <trkpt lat="45.08636" lon="4.95734">
        <ele>172.6309967041</ele>
        <time>2011-01-22T14:30:17Z</time>
      </trkpt>
      <trkpt lat="45.08691" lon="4.95728">
        <ele>173.36000061035</ele>
        <time>2011-01-22T14:30:26Z</time>
      </trkpt>
      <trkpt lat="45.08738" lon="4.9572">
        <ele>174.35800170898</ele>
        <time>2011-01-22T14:30:34Z</time>
      </trkpt>
      <trkpt lat="45.08772" lon="4.95722">
        <ele>174.60000610352</ele>
        <time>2011-01-22T14:30:40Z</time>
      </trkpt>
      <trkpt lat="45.0881" lon="4.95713">
        <ele>174.30400085449</ele>
        <time>2011-01-22T14:30:46Z</time>
      </trkpt>
      <trkpt lat="45.08835" lon="4.95703">
        <ele>173.46800231934</ele>
        <time>2011-01-22T14:30:50Z</time>
      </trkpt>
      <trkpt lat="45.08859" lon="4.9571">
        <ele>173.32099914551</ele>
        <time>2011-01-22T14:30:54Z</time>
      </trkpt>
      <trkpt lat="45.08863" lon="4.95716">
        <ele>173.29100036621</ele>
        <time>2011-01-22T14:30:55Z</time>
      </trkpt>
      <trkpt lat="45.08886" lon="4.95743">
        <ele>173.68699645996</ele>
        <time>2011-01-22T14:31:00Z</time>
      </trkpt>
      <trkpt lat="45.08929" lon="4.95785">
        <ele>174.39300537109</ele>
        <time>2011-01-22T14:31:09Z</time>
      </trkpt>
      <trkpt lat="45.08977" lon="4.95833">
        <ele>175.42700195312</ele>
        <time>2011-01-22T14:31:19Z</time>
      </trkpt>
      <trkpt lat="45.09025" lon="4.95873">
        <ele>175.50700378418</ele>
        <time>2011-01-22T14:31:28Z</time>
      </trkpt>
      <trkpt lat="45.09061" lon="4.95905">
        <ele>175.96800231934</ele>
        <time>2011-01-22T14:31:35Z</time>
      </trkpt>
      <trkpt lat="45.09099" lon="4.95944">
        <ele>177.09399414062</ele>
        <time>2011-01-22T14:31:43Z</time>
      </trkpt>
      <trkpt lat="45.09126" lon="4.96003">
        <ele>177.44799804688</ele>
        <time>2011-01-22T14:31:51Z</time>
      </trkpt>
      <trkpt lat="45.09145" lon="4.96059">
        <ele>178.29699707031</ele>
        <time>2011-01-22T14:31:58Z</time>
      </trkpt>
      <trkpt lat="45.09164" lon="4.96101">
        <ele>178.83799743652</ele>
        <time>2011-01-22T14:32:04Z</time>
      </trkpt>
      <trkpt lat="45.09201" lon="4.96158">
        <ele>180.37399291992</ele>
        <time>2011-01-22T14:32:13Z</time>
      </trkpt>
      <trkpt lat="45.09238" lon="4.9621">
        <ele>181.62899780273</ele>
        <time>2011-01-22T14:32:22Z</time>
      </trkpt>
      <trkpt lat="45.09273" lon="4.96253">
        <ele>182.66600036621</ele>
        <time>2011-01-22T14:32:30Z</time>
      </trkpt>
      <trkpt lat="45.09306" lon="4.963">
        <ele>183.80599975586</ele>
        <time>2011-01-22T14:32:38Z</time>
      </trkpt>
      <trkpt lat="45.09321" lon="4.96323">
        <ele>184.7140045166</ele>
        <time>2011-01-22T14:32:42Z</time>
      </trkpt>
      <trkpt lat="45.09353" lon="4.96356">
        <ele>185.01100158691</ele>
        <time>2011-01-22T14:32:49Z</time>
      </trkpt>
      <trkpt lat="45.0939" lon="4.96373">
        <ele>186.29299926758</ele>
        <time>2011-01-22T14:32:56Z</time>
      </trkpt>
      <trkpt lat="45.09438" lon="4.96385">
        <ele>188.83099365234</ele>
        <time>2011-01-22T14:33:05Z</time>
      </trkpt>
      <trkpt lat="45.09502" lon="4.96405">
        <ele>191.50100708008</ele>
        <time>2011-01-22T14:33:17Z</time>
      </trkpt>
      <trkpt lat="45.09531" lon="4.96429">
        <ele>192.06900024414</ele>
        <time>2011-01-22T14:33:23Z</time>
      </trkpt>
      <trkpt lat="45.09574" lon="4.96475">
        <ele>193.22300720215</ele>
        <time>2011-01-22T14:33:32Z</time>
      </trkpt>
      <trkpt lat="45.09605" lon="4.96501">
        <ele>194.86099243164</ele>
        <time>2011-01-22T14:33:39Z</time>
      </trkpt>
      <trkpt lat="45.09623" lon="4.96516">
        <ele>196.60400390625</ele>
        <time>2011-01-22T14:33:44Z</time>
      </trkpt>
      <trkpt lat="45.09641" lon="4.96533">
        <ele>198.75799560547</ele>
        <time>2011-01-22T14:33:51Z</time>
      </trkpt>
      <trkpt lat="45.09655" lon="4.96546">
        <ele>200.38200378418</ele>
        <time>2011-01-22T14:33:56Z</time>
      </trkpt>
      <trkpt lat="45.09667" lon="4.96555">
        <ele>201.38800048828</ele>
        <time>2011-01-22T14:34:00Z</time>
      </trkpt>
      <trkpt lat="45.09676" lon="4.9656">
        <ele>201.66799926758</ele>
        <time>2011-01-22T14:34:02Z</time>
      </trkpt>
      <trkpt lat="45.09702" lon="4.9658">
        <ele>203.99899291992</ele>
        <time>2011-01-22T14:34:08Z</time>
      </trkpt>
      <trkpt lat="45.09724" lon="4.96596">
        <ele>207.44000244141</ele>
        <time>2011-01-22T14:34:14Z</time>
      </trkpt>
      <trkpt lat="45.09733" lon="4.96604">
        <ele>208.86399841309</ele>
        <time>2011-01-22T14:34:17Z</time>
      </trkpt>
      <trkpt lat="45.09747" lon="4.96622">
        <ele>211.71899414062</ele>
        <time>2011-01-22T14:34:23Z</time>
      </trkpt>
      <trkpt lat="45.09755" lon="4.96631">
        <ele>212.96899414062</ele>
        <time>2011-01-22T14:34:26Z</time>
      </trkpt>
      <trkpt lat="45.09763" lon="4.96646">
        <ele>214.48300170898</ele>
        <time>2011-01-22T14:34:30Z</time>
      </trkpt>
      <trkpt lat="45.09759" lon="4.96668">
        <ele>214.41200256348</ele>
        <time>2011-01-22T14:34:35Z</time>
      </trkpt>
      <trkpt lat="45.09747" lon="4.96708">
        <ele>214.36099243164</ele>
        <time>2011-01-22T14:34:43Z</time>
      </trkpt>
      <trkpt lat="45.09744" lon="4.96741">
        <ele>214.52400207519</ele>
        <time>2011-01-22T14:34:49Z</time>
      </trkpt>
      <trkpt lat="45.09752" lon="4.96771">
        <ele>215.29800415039</ele>
        <time>2011-01-22T14:34:55Z</time>
      </trkpt>
      <trkpt lat="45.09776" lon="4.96803">
        <ele>215.80000305176</ele>
        <time>2011-01-22T14:35:03Z</time>
      </trkpt>
      <trkpt lat="45.098" lon="4.9683">
        <ele>216.81199645996</ele>
        <time>2011-01-22T14:35:11Z</time>
      </trkpt>
      <trkpt lat="45.09829" lon="4.96863">
        <ele>218.28700256348</ele>
        <time>2011-01-22T14:35:21Z</time>
      </trkpt>
      <trkpt lat="45.09859" lon="4.96893">
        <ele>219.15899658203</ele>
        <time>2011-01-22T14:35:30Z</time>
      </trkpt>
      <trkpt lat="45.09895" lon="4.96917">
        <ele>219.17199707031</ele>
        <time>2011-01-22T14:35:39Z</time>
      </trkpt>
      <trkpt lat="45.09948" lon="4.96942">
        <ele>219.82899475098</ele>
        <time>2011-01-22T14:35:52Z</time>
      </trkpt>
      <trkpt lat="45.09988" lon="4.96961">
        <ele>220.58799743652</ele>
        <time>2011-01-22T14:36:02Z</time>
      </trkpt>
      <trkpt lat="45.10025" lon="4.96978">
        <ele>220.80099487305</ele>
        <time>2011-01-22T14:36:11Z</time>
      </trkpt>
      <trkpt lat="45.10064" lon="4.96995">
        <ele>221.63299560547</ele>
        <time>2011-01-22T14:36:21Z</time>
      </trkpt>
      <trkpt lat="45.10108" lon="4.97014">
        <ele>222.80900573731</ele>
        <time>2011-01-22T14:36:32Z</time>
      </trkpt>
      <trkpt lat="45.10146" lon="4.97031">
        <ele>223.61799621582</ele>
        <time>2011-01-22T14:36:42Z</time>
      </trkpt>
      <trkpt lat="45.10162" lon="4.97038">
        <ele>224.08599853516</ele>
        <time>2011-01-22T14:36:46Z</time>
      </trkpt>
      <trkpt lat="45.10193" lon="4.97046">
        <ele>224.41799926758</ele>
        <time>2011-01-22T14:36:54Z</time>
      </trkpt>
      <trkpt lat="45.10213" lon="4.97033">
        <ele>224.61399841309</ele>
        <time>2011-01-22T14:36:59Z</time>
      </trkpt>
      <trkpt lat="45.10237" lon="4.97003">
        <ele>224.54400634766</ele>
        <time>2011-01-22T14:37:05Z</time>
      </trkpt>
      <trkpt lat="45.10262" lon="4.96991">
        <ele>222.44099426269</ele>
        <time>2011-01-22T14:37:10Z</time>
      </trkpt>
      <trkpt lat="45.10267" lon="4.96993">
        <ele>222.30499267578</ele>
        <time>2011-01-22T14:37:11Z</time>
      </trkpt>
      <trkpt lat="45.10272" lon="4.96996">
        <ele>222.21600341797</ele>
        <time>2011-01-22T14:37:12Z</time>
      </trkpt>
      <trkpt lat="45.10309" lon="4.97031">
        <ele>222.14199829102</ele>
        <time>2011-01-22T14:37:21Z</time>
      </trkpt>
      <trkpt lat="45.10339" lon="4.97066">
        <ele>222.80599975586</ele>
        <time>2011-01-22T14:37:29Z</time>
      </trkpt>
      <trkpt lat="45.10372" lon="4.97102">
        <ele>223.4940032959</ele>
        <time>2011-01-22T14:37:38Z</time>
      </trkpt>
      <trkpt lat="45.10405" lon="4.9713">
        <ele>223.98699951172</ele>
        <time>2011-01-22T14:37:46Z</time>
      </trkpt>
      <trkpt lat="45.10419" lon="4.97128">
        <ele>225.04499816894</ele>
        <time>2011-01-22T14:37:50Z</time>
      </trkpt>
      <trkpt lat="45.10424" lon="4.9712">
        <ele>225.79800415039</ele>
        <time>2011-01-22T14:37:52Z</time>
      </trkpt>
      <trkpt lat="45.10449" lon="4.97067">
        <ele>226.72599792481</ele>
        <time>2011-01-22T14:38:01Z</time>
      </trkpt>
      <trkpt lat="45.10466" lon="4.97025">
        <ele>225.9940032959</ele>
        <time>2011-01-22T14:38:08Z</time>
      </trkpt>
      <trkpt lat="45.10477" lon="4.96989">
        <ele>225.46000671387</ele>
        <time>2011-01-22T14:38:14Z</time>
      </trkpt>
      <trkpt lat="45.10479" lon="4.96984">
        <ele>225.49200439453</ele>
        <time>2011-01-22T14:38:15Z</time>
      </trkpt>
      <trkpt lat="45.1049" lon="4.96981">
        <ele>224.84599304199</ele>
        <time>2011-01-22T14:38:18Z</time>
      </trkpt>
      <trkpt lat="45.10495" lon="4.96984">
        <ele>224.45799255371</ele>
        <time>2011-01-22T14:38:19Z</time>
      </trkpt>
      <trkpt lat="45.1053" lon="4.97011">
        <ele>224.77299499512</ele>
        <time>2011-01-22T14:38:27Z</time>
      </trkpt>
      <trkpt lat="45.10535" lon="4.97014">
        <ele>224.73899841309</ele>
        <time>2011-01-22T14:38:28Z</time>
      </trkpt>
      <trkpt lat="45.10574" lon="4.97041">
        <ele>225.56500244141</ele>
        <time>2011-01-22T14:38:36Z</time>
      </trkpt>
      <trkpt lat="45.10615" lon="4.97069">
        <ele>225.44000244141</ele>
        <time>2011-01-22T14:38:45Z</time>
      </trkpt>
      <trkpt lat="45.10661" lon="4.971">
        <ele>225.97900390625</ele>
        <time>2011-01-22T14:38:55Z</time>
      </trkpt>
      <trkpt lat="45.10703" lon="4.97128">
        <ele>226.24499511719</ele>
        <time>2011-01-22T14:39:04Z</time>
      </trkpt>
      <trkpt lat="45.10735" lon="4.97158">
        <ele>226.20899963379</ele>
        <time>2011-01-22T14:39:11Z</time>
      </trkpt>
      <trkpt lat="45.10774" lon="4.972">
        <ele>226.59899902344</ele>
        <time>2011-01-22T14:39:20Z</time>
      </trkpt>
      <trkpt lat="45.10814" lon="4.97242">
        <ele>227.33500671387</ele>
        <time>2011-01-22T14:39:30Z</time>
      </trkpt>
      <trkpt lat="45.1085" lon="4.9728">
        <ele>227.66600036621</ele>
        <time>2011-01-22T14:39:39Z</time>
      </trkpt>
      <trkpt lat="45.10879" lon="4.97311">
        <ele>228.15199279785</ele>
        <time>2011-01-22T14:39:46Z</time>
      </trkpt>
      <trkpt lat="45.10921" lon="4.97356">
        <ele>228.68800354004</ele>
        <time>2011-01-22T14:39:56Z</time>
      </trkpt>
      <trkpt lat="45.10967" lon="4.97404">
        <ele>229.49299621582</ele>
        <time>2011-01-22T14:40:07Z</time>
      </trkpt>
      <trkpt lat="45.11005" lon="4.97444">
        <ele>229.88999938965</ele>
        <time>2011-01-22T14:40:16Z</time>
      </trkpt>
      <trkpt lat="45.11033" lon="4.97473">
        <ele>230.24499511719</ele>
        <time>2011-01-22T14:40:23Z</time>
      </trkpt>
      <trkpt lat="45.11069" lon="4.97511">
        <ele>230.95500183106</ele>
        <time>2011-01-22T14:40:32Z</time>
      </trkpt>
      <trkpt lat="45.11104" lon="4.97549">
        <ele>230.66700744629</ele>
        <time>2011-01-22T14:40:41Z</time>
      </trkpt>
      <trkpt lat="45.11135" lon="4.97582">
        <ele>229.31700134277</ele>
        <time>2011-01-22T14:40:48Z</time>
      </trkpt>
      <trkpt lat="45.1116" lon="4.97607">
        <ele>227.26400756836</ele>
        <time>2011-01-22T14:40:53Z</time>
      </trkpt>
      <trkpt lat="45.11182" lon="4.97624">
        <ele>224.06399536133</ele>
        <time>2011-01-22T14:40:57Z</time>
      </trkpt>
      <trkpt lat="45.11208" lon="4.97631">
        <ele>221.03700256348</ele>
        <time>2011-01-22T14:41:01Z</time>
      </trkpt>
      <trkpt lat="45.11222" lon="4.97624">
        <ele>219.29699707031</ele>
        <time>2011-01-22T14:41:03Z</time>
      </trkpt>
      <trkpt lat="45.11264" lon="4.976">
        <ele>215.07899475098</ele>
        <time>2011-01-22T14:41:08Z</time>
      </trkpt>
      <trkpt lat="45.11285" lon="4.97592">
        <ele>214.40800476074</ele>
        <time>2011-01-22T14:41:10Z</time>
      </trkpt>
      <trkpt lat="45.11318" lon="4.976">
        <ele>211.22900390625</ele>
        <time>2011-01-22T14:41:13Z</time>
      </trkpt>
      <trkpt lat="45.11328" lon="4.97606">
        <ele>209.64900207519</ele>
        <time>2011-01-22T14:41:14Z</time>
      </trkpt>
      <trkpt lat="45.11371" lon="4.97637">
        <ele>206.50999450684</ele>
        <time>2011-01-22T14:41:19Z</time>
      </trkpt>
      <trkpt lat="45.11407" lon="4.97664">
        <ele>205.41900634766</ele>
        <time>2011-01-22T14:41:24Z</time>
      </trkpt>
      <trkpt lat="45.11422" lon="4.97677">
        <ele>205.30900573731</ele>
        <time>2011-01-22T14:41:26Z</time>
      </trkpt>
      <trkpt lat="45.11444" lon="4.97707">
        <ele>204.29200744629</ele>
        <time>2011-01-22T14:41:30Z</time>
      </trkpt>
      <trkpt lat="45.11466" lon="4.97723">
        <ele>203.10499572754</ele>
        <time>2011-01-22T14:41:34Z</time>
      </trkpt>
      <trkpt lat="45.11472" lon="4.97724">
        <ele>203.04800415039</ele>
        <time>2011-01-22T14:41:35Z</time>
      </trkpt>
      <trkpt lat="45.11484" lon="4.97725">
        <ele>203.42300415039</ele>
        <time>2011-01-22T14:41:37Z</time>
      </trkpt>
      <trkpt lat="45.11502" lon="4.9775">
        <ele>202.23199462891</ele>
        <time>2011-01-22T14:41:41Z</time>
      </trkpt>
      <trkpt lat="45.11521" lon="4.9784">
        <ele>201.05200195312</ele>
        <time>2011-01-22T14:41:51Z</time>
      </trkpt>
      <trkpt lat="45.11531" lon="4.97891">
        <ele>201.06599426269</ele>
        <time>2011-01-22T14:41:57Z</time>
      </trkpt>
      <trkpt lat="45.11536" lon="4.9792">
        <ele>201.19700622559</ele>
        <time>2011-01-22T14:42:01Z</time>
      </trkpt>
      <trkpt lat="45.11551" lon="4.97952">
        <ele>201.4049987793</ele>
        <time>2011-01-22T14:42:06Z</time>
      </trkpt>
      <trkpt lat="45.1156" lon="4.97961">
        <ele>201.42900085449</ele>
        <time>2011-01-22T14:42:08Z</time>
      </trkpt>
      <trkpt lat="45.11599" lon="4.97989">
        <ele>201.84300231934</ele>
        <time>2011-01-22T14:42:16Z</time>
      </trkpt>
      <trkpt lat="45.11626" lon="4.97989">
        <ele>202.33500671387</ele>
        <time>2011-01-22T14:42:21Z</time>
      </trkpt>
      <trkpt lat="45.11681" lon="4.97964">
        <ele>203.19200134277</ele>
        <time>2011-01-22T14:42:31Z</time>
      </trkpt>
      <trkpt lat="45.11703" lon="4.97956">
        <ele>203.26699829102</ele>
        <time>2011-01-22T14:42:35Z</time>
      </trkpt>
      <trkpt lat="45.11732" lon="4.9795">
        <ele>203.80499267578</ele>
        <time>2011-01-22T14:42:40Z</time>
      </trkpt>
      <trkpt lat="45.11766" lon="4.97935">
        <ele>203.66000366211</ele>
        <time>2011-01-22T14:42:48Z</time>
      </trkpt>
      <trkpt lat="45.11777" lon="4.97929">
        <ele>203.69099426269</ele>
        <time>2011-01-22T14:42:51Z</time>
      </trkpt>
      <trkpt lat="45.11816" lon="4.97915">
        <ele>204.77900695801</ele>
        <time>2011-01-22T14:43:00Z</time>
      </trkpt>
      <trkpt lat="45.11838" lon="4.97914">
        <ele>204.91999816894</ele>
        <time>2011-01-22T14:43:06Z</time>
      </trkpt>
      <trkpt lat="45.11846" lon="4.97914">
        <ele>204.80499267578</ele>
        <time>2011-01-22T14:43:08Z</time>
      </trkpt>
      <trkpt lat="45.11882" lon="4.97917">
        <ele>204.90699768066</ele>
        <time>2011-01-22T14:43:16Z</time>
      </trkpt>
      <trkpt lat="45.11905" lon="4.97919">
        <ele>204.65199279785</ele>
        <time>2011-01-22T14:43:21Z</time>
      </trkpt>
      <trkpt lat="45.1195" lon="4.97924">
        <ele>205.42700195312</ele>
        <time>2011-01-22T14:43:31Z</time>
      </trkpt>
      <trkpt lat="45.11974" lon="4.97928">
        <ele>205.58200073242</ele>
        <time>2011-01-22T14:43:37Z</time>
      </trkpt>
      <trkpt lat="45.11993" lon="4.97933">
        <ele>205.28100585938</ele>
        <time>2011-01-22T14:43:43Z</time>
      </trkpt>
      <trkpt lat="45.12008" lon="4.97936">
        <ele>205.72399902344</ele>
        <time>2011-01-22T14:43:49Z</time>
      </trkpt>
      <trkpt lat="45.12011" lon="4.97936">
        <ele>205.62199401856</ele>
        <time>2011-01-22T14:43:53Z</time>
      </trkpt>
      <trkpt lat="45.12017" lon="4.97935">
        <ele>206.14700317383</ele>
        <time>2011-01-22T14:44:01Z</time>
      </trkpt>
      <trkpt lat="45.12018" lon="4.9792">
        <ele>205.80799865723</ele>
        <time>2011-01-22T14:44:06Z</time>
      </trkpt>
      <trkpt lat="45.12011" lon="4.97892">
        <ele>205.44799804688</ele>
        <time>2011-01-22T14:44:11Z</time>
      </trkpt>
      <trkpt lat="45.12" lon="4.97827">
        <ele>205.28399658203</ele>
        <time>2011-01-22T14:44:19Z</time>
      </trkpt>
      <trkpt lat="45.11985" lon="4.97747">
        <ele>204.45199584961</ele>
        <time>2011-01-22T14:44:28Z</time>
      </trkpt>
      <trkpt lat="45.1197" lon="4.97661">
        <ele>204.28700256348</ele>
        <time>2011-01-22T14:44:37Z</time>
      </trkpt>
      <trkpt lat="45.11958" lon="4.97587">
        <ele>204.0890045166</ele>
        <time>2011-01-22T14:44:45Z</time>
      </trkpt>
      <trkpt lat="45.11948" lon="4.97539">
        <ele>203.62399291992</ele>
        <time>2011-01-22T14:44:50Z</time>
      </trkpt>
      <trkpt lat="45.11938" lon="4.97483">
        <ele>203.08399963379</ele>
        <time>2011-01-22T14:44:56Z</time>
      </trkpt>
      <trkpt lat="45.11928" lon="4.97423">
        <ele>202.32800292969</ele>
        <time>2011-01-22T14:45:03Z</time>
      </trkpt>
      <trkpt lat="45.11914" lon="4.97345">
        <ele>202.00300598144</ele>
        <time>2011-01-22T14:45:12Z</time>
      </trkpt>
      <trkpt lat="45.11898" lon="4.97248">
        <ele>201.47900390625</ele>
        <time>2011-01-22T14:45:23Z</time>
      </trkpt>
      <trkpt lat="45.11889" lon="4.97199">
        <ele>201.92799377441</ele>
        <time>2011-01-22T14:45:29Z</time>
      </trkpt>
      <trkpt lat="45.11882" lon="4.97153">
        <ele>202.48399353027</ele>
        <time>2011-01-22T14:45:35Z</time>
      </trkpt>
      <trkpt lat="45.11884" lon="4.97114">
        <ele>202.71600341797</ele>
        <time>2011-01-22T14:45:40Z</time>
      </trkpt>
      <trkpt lat="45.11887" lon="4.97103">
        <ele>203.36500549316</ele>
        <time>2011-01-22T14:45:42Z</time>
      </trkpt>
      <trkpt lat="45.11894" lon="4.97093">
        <ele>203.48100280762</ele>
        <time>2011-01-22T14:45:47Z</time>
      </trkpt>
      <trkpt lat="45.11899" lon="4.97088">
        <ele>203.63400268555</ele>
        <time>2011-01-22T14:45:49Z</time>
      </trkpt>
      <trkpt lat="45.11904" lon="4.97065">
        <ele>204.30599975586</ele>
        <time>2011-01-22T14:45:53Z</time>
      </trkpt>
      <trkpt lat="45.11894" lon="4.97052">
        <ele>204.16000366211</ele>
        <time>2011-01-22T14:45:56Z</time>
      </trkpt>
      <trkpt lat="45.1188" lon="4.97043">
        <ele>204.02299499512</ele>
        <time>2011-01-22T14:45:59Z</time>
      </trkpt>
      <trkpt lat="45.11847" lon="4.97001">
        <ele>203.86700439453</ele>
        <time>2011-01-22T14:46:07Z</time>
      </trkpt>
      <trkpt lat="45.1181" lon="4.96949">
        <ele>203.53300476074</ele>
        <time>2011-01-22T14:46:16Z</time>
      </trkpt>
      <trkpt lat="45.11776" lon="4.96895">
        <ele>203.78999328613</ele>
        <time>2011-01-22T14:46:25Z</time>
      </trkpt>
      <trkpt lat="45.11768" lon="4.96883">
        <ele>203.69700622559</ele>
        <time>2011-01-22T14:46:27Z</time>
      </trkpt>
      <trkpt lat="45.11762" lon="4.96853">
        <ele>203.70199584961</ele>
        <time>2011-01-22T14:46:31Z</time>
      </trkpt>
      <trkpt lat="45.11757" lon="4.96824">
        <ele>204.00900268555</ele>
        <time>2011-01-22T14:46:35Z</time>
      </trkpt>
      <trkpt lat="45.11742" lon="4.96814">
        <ele>203.05900573731</ele>
        <time>2011-01-22T14:46:38Z</time>
      </trkpt>
      <trkpt lat="45.11721" lon="4.968">
        <ele>203.12399291992</ele>
        <time>2011-01-22T14:46:42Z</time>
      </trkpt>
      <trkpt lat="45.11716" lon="4.96795">
        <ele>203.14900207519</ele>
        <time>2011-01-22T14:46:43Z</time>
      </trkpt>
      <trkpt lat="45.11707" lon="4.96783">
        <ele>202.94999694824</ele>
        <time>2011-01-22T14:46:45Z</time>
      </trkpt>
      <trkpt lat="45.11692" lon="4.96756">
        <ele>202.52900695801</ele>
        <time>2011-01-22T14:46:49Z</time>
      </trkpt>
      <trkpt lat="45.11666" lon="4.9671">
        <ele>202.33999633789</ele>
        <time>2011-01-22T14:46:56Z</time>
      </trkpt>
      <trkpt lat="45.11644" lon="4.96657">
        <ele>201.90899658203</ele>
        <time>2011-01-22T14:47:03Z</time>
      </trkpt>
      <trkpt lat="45.11615" lon="4.96582">
        <ele>200.94599914551</ele>
        <time>2011-01-22T14:47:13Z</time>
      </trkpt>
      <trkpt lat="45.11601" lon="4.96548">
        <ele>201.3390045166</ele>
        <time>2011-01-22T14:47:18Z</time>
      </trkpt>
      <trkpt lat="45.11582" lon="4.96499">
        <ele>201.77600097656</ele>
        <time>2011-01-22T14:47:25Z</time>
      </trkpt>
      <trkpt lat="45.11579" lon="4.9647">
        <ele>202.0950012207</ele>
        <time>2011-01-22T14:47:30Z</time>
      </trkpt>
      <trkpt lat="45.1158" lon="4.96453">
        <ele>202.41799926758</ele>
        <time>2011-01-22T14:47:33Z</time>
      </trkpt>
      <trkpt lat="45.11576" lon="4.96442">
        <ele>202.66799926758</ele>
        <time>2011-01-22T14:47:38Z</time>
      </trkpt>
      <trkpt lat="45.11575" lon="4.96442">
        <ele>202.68699645996</ele>
        <time>2011-01-22T14:47:40Z</time>
      </trkpt>
      <trkpt lat="45.11569" lon="4.96447">
        <ele>202.01400756836</ele>
        <time>2011-01-22T14:48:08Z</time>
      </trkpt>
      <trkpt lat="45.11565" lon="4.96445">
        <ele>201.76300048828</ele>
        <time>2011-01-22T14:48:10Z</time>
      </trkpt>
      <trkpt lat="45.11561" lon="4.96439">
        <ele>201.92900085449</ele>
        <time>2011-01-22T14:48:12Z</time>
      </trkpt>
      <trkpt lat="45.11562" lon="4.9642">
        <ele>202.88800048828</ele>
        <time>2011-01-22T14:48:17Z</time>
      </trkpt>
      <trkpt lat="45.11567" lon="4.96422">
        <ele>202.90699768066</ele>
        <time>2011-01-22T14:48:21Z</time>
      </trkpt>
      <trkpt lat="45.11567" lon="4.96423">
        <ele>202.83200073242</ele>
        <time>2011-01-22T14:48:22Z</time>
      </trkpt>
      <trkpt lat="45.11567" lon="4.96423">
        <ele>202.85899353027</ele>
        <time>2011-01-22T14:48:23Z</time>
      </trkpt>
    </trkseg>
  </trk>
</gpx>